<?xml version="1.0" encoding="UTF-8" standalone="no" ?>
<gpx xmlns="http://www.topografix.com/GPX/1/1" xmlns:xsi="http://www.w3.org/2001/XMLSchema-instance" xsi:schemaLocation="http://www.topografix.com/GPX/1/1 http://www.topografix.com/GPX/1/1/gpx.xsd" version="1.1" creator="VisuGPX - https://www.visugpx.com">
  <metadata>
    <name>Speciale de Peygros</name>
    <desc><![CDATA[Sortie ASCVTT  autour de la foret de Peygros.]]></desc>
  </metadata>
  <trk>
    <name><![CDATA[Speciale de Peygros_1]]></name>
    <trkseg>
      <trkpt lat="43.59362" lon="6.95605">
        <ele>145</ele>
        <time>2011-10-16T06:43:41Z</time>
      </trkpt>
      <trkpt lat="43.59383" lon="6.95565">
        <ele>148</ele>
        <time>2011-10-16T06:43:49Z</time>
      </trkpt>
      <trkpt lat="43.59399" lon="6.95536">
        <ele>145</ele>
        <time>2011-10-16T06:43:54Z</time>
      </trkpt>
      <trkpt lat="43.59415" lon="6.95531">
        <ele>142</ele>
        <time>2011-10-16T06:43:59Z</time>
      </trkpt>
      <trkpt lat="43.5942" lon="6.95531">
        <ele>140</ele>
        <time>2011-10-16T06:44:05Z</time>
      </trkpt>
      <trkpt lat="43.59428" lon="6.95545">
        <ele>139</ele>
        <time>2011-10-16T06:44:10Z</time>
      </trkpt>
      <trkpt lat="43.59441" lon="6.95551">
        <ele>139</ele>
        <time>2011-10-16T06:44:15Z</time>
      </trkpt>
      <trkpt lat="43.59458" lon="6.95558">
        <ele>139</ele>
        <time>2011-10-16T06:44:20Z</time>
      </trkpt>
      <trkpt lat="43.59473" lon="6.95569">
        <ele>139</ele>
        <time>2011-10-16T06:44:25Z</time>
      </trkpt>
      <trkpt lat="43.59482" lon="6.95589">
        <ele>139</ele>
        <time>2011-10-16T06:44:30Z</time>
      </trkpt>
      <trkpt lat="43.59489" lon="6.9561">
        <ele>139</ele>
        <time>2011-10-16T06:44:35Z</time>
      </trkpt>
      <trkpt lat="43.59499" lon="6.95628">
        <ele>139</ele>
        <time>2011-10-16T06:44:40Z</time>
      </trkpt>
      <trkpt lat="43.59517" lon="6.95629">
        <ele>140</ele>
        <time>2011-10-16T06:44:45Z</time>
      </trkpt>
      <trkpt lat="43.59536" lon="6.95623">
        <ele>140</ele>
        <time>2011-10-16T06:44:50Z</time>
      </trkpt>
      <trkpt lat="43.59553" lon="6.95617">
        <ele>140</ele>
        <time>2011-10-16T06:44:55Z</time>
      </trkpt>
      <trkpt lat="43.59571" lon="6.9561">
        <ele>140</ele>
        <time>2011-10-16T06:45:00Z</time>
      </trkpt>
      <trkpt lat="43.5959" lon="6.95602">
        <ele>140</ele>
        <time>2011-10-16T06:45:05Z</time>
      </trkpt>
      <trkpt lat="43.59608" lon="6.95593">
        <ele>140</ele>
        <time>2011-10-16T06:45:10Z</time>
      </trkpt>
      <trkpt lat="43.59628" lon="6.9558">
        <ele>140</ele>
        <time>2011-10-16T06:45:15Z</time>
      </trkpt>
      <trkpt lat="43.5964" lon="6.95561">
        <ele>140</ele>
        <time>2011-10-16T06:45:20Z</time>
      </trkpt>
      <trkpt lat="43.59649" lon="6.9554">
        <ele>141</ele>
        <time>2011-10-16T06:45:25Z</time>
      </trkpt>
      <trkpt lat="43.59649" lon="6.95527">
        <ele>141</ele>
        <time>2011-10-16T06:45:31Z</time>
      </trkpt>
      <trkpt lat="43.59641" lon="6.95513">
        <ele>142</ele>
        <time>2011-10-16T06:45:36Z</time>
      </trkpt>
      <trkpt lat="43.59634" lon="6.95494">
        <ele>143</ele>
        <time>2011-10-16T06:45:41Z</time>
      </trkpt>
      <trkpt lat="43.59629" lon="6.95476">
        <ele>144</ele>
        <time>2011-10-16T06:45:46Z</time>
      </trkpt>
      <trkpt lat="43.59621" lon="6.95457">
        <ele>146</ele>
        <time>2011-10-16T06:45:51Z</time>
      </trkpt>
      <trkpt lat="43.59616" lon="6.95438">
        <ele>147</ele>
        <time>2011-10-16T06:45:56Z</time>
      </trkpt>
      <trkpt lat="43.5961" lon="6.95442">
        <ele>147</ele>
        <time>2011-10-16T06:46:01Z</time>
      </trkpt>
      <trkpt lat="43.59619" lon="6.95457">
        <ele>147</ele>
        <time>2011-10-16T06:46:06Z</time>
      </trkpt>
      <trkpt lat="43.59628" lon="6.9547">
        <ele>147</ele>
        <time>2011-10-16T06:46:11Z</time>
      </trkpt>
      <trkpt lat="43.59639" lon="6.95462">
        <ele>147</ele>
        <time>2011-10-16T06:46:16Z</time>
      </trkpt>
      <trkpt lat="43.5965" lon="6.95456">
        <ele>147</ele>
        <time>2011-10-16T06:46:21Z</time>
      </trkpt>
      <trkpt lat="43.59663" lon="6.95455">
        <ele>148</ele>
        <time>2011-10-16T06:46:26Z</time>
      </trkpt>
      <trkpt lat="43.59667" lon="6.95458">
        <ele>151</ele>
        <time>2011-10-16T06:46:32Z</time>
      </trkpt>
      <trkpt lat="43.59658" lon="6.95445">
        <ele>153</ele>
        <time>2011-10-16T06:46:37Z</time>
      </trkpt>
      <trkpt lat="43.5965" lon="6.95427">
        <ele>153</ele>
        <time>2011-10-16T06:46:42Z</time>
      </trkpt>
      <trkpt lat="43.59641" lon="6.95409">
        <ele>153</ele>
        <time>2011-10-16T06:46:47Z</time>
      </trkpt>
      <trkpt lat="43.59633" lon="6.95391">
        <ele>153</ele>
        <time>2011-10-16T06:46:52Z</time>
      </trkpt>
      <trkpt lat="43.59625" lon="6.95374">
        <ele>154</ele>
        <time>2011-10-16T06:46:57Z</time>
      </trkpt>
      <trkpt lat="43.59622" lon="6.95365">
        <ele>155</ele>
        <time>2011-10-16T06:47:05Z</time>
      </trkpt>
      <trkpt lat="43.59631" lon="6.95387">
        <ele>155</ele>
        <time>2011-10-16T06:47:10Z</time>
      </trkpt>
      <trkpt lat="43.59645" lon="6.95415">
        <ele>155</ele>
        <time>2011-10-16T06:47:15Z</time>
      </trkpt>
      <trkpt lat="43.59659" lon="6.95445">
        <ele>155</ele>
        <time>2011-10-16T06:47:20Z</time>
      </trkpt>
      <trkpt lat="43.59677" lon="6.95456">
        <ele>155</ele>
        <time>2011-10-16T06:47:26Z</time>
      </trkpt>
      <trkpt lat="43.59693" lon="6.95453">
        <ele>155</ele>
        <time>2011-10-16T06:47:31Z</time>
      </trkpt>
      <trkpt lat="43.59706" lon="6.95451">
        <ele>155</ele>
        <time>2011-10-16T06:47:36Z</time>
      </trkpt>
      <trkpt lat="43.59721" lon="6.95448">
        <ele>155</ele>
        <time>2011-10-16T06:47:41Z</time>
      </trkpt>
      <trkpt lat="43.59731" lon="6.95446">
        <ele>155</ele>
        <time>2011-10-16T06:47:46Z</time>
      </trkpt>
      <trkpt lat="43.59745" lon="6.95445">
        <ele>155</ele>
        <time>2011-10-16T06:47:51Z</time>
      </trkpt>
      <trkpt lat="43.59761" lon="6.95446">
        <ele>155</ele>
        <time>2011-10-16T06:47:56Z</time>
      </trkpt>
      <trkpt lat="43.59772" lon="6.95442">
        <ele>155</ele>
        <time>2011-10-16T06:48:01Z</time>
      </trkpt>
      <trkpt lat="43.59779" lon="6.95437">
        <ele>155</ele>
        <time>2011-10-16T06:48:06Z</time>
      </trkpt>
      <trkpt lat="43.59796" lon="6.95442">
        <ele>155</ele>
        <time>2011-10-16T06:48:11Z</time>
      </trkpt>
      <trkpt lat="43.59811" lon="6.95437">
        <ele>155</ele>
        <time>2011-10-16T06:48:16Z</time>
      </trkpt>
      <trkpt lat="43.59827" lon="6.95432">
        <ele>155</ele>
        <time>2011-10-16T06:48:21Z</time>
      </trkpt>
      <trkpt lat="43.59843" lon="6.95425">
        <ele>155</ele>
        <time>2011-10-16T06:48:26Z</time>
      </trkpt>
      <trkpt lat="43.59843" lon="6.95407">
        <ele>156</ele>
        <time>2011-10-16T06:48:31Z</time>
      </trkpt>
      <trkpt lat="43.59837" lon="6.95386">
        <ele>157</ele>
        <time>2011-10-16T06:48:36Z</time>
      </trkpt>
      <trkpt lat="43.59831" lon="6.95362">
        <ele>159</ele>
        <time>2011-10-16T06:48:42Z</time>
      </trkpt>
      <trkpt lat="43.59824" lon="6.95343">
        <ele>160</ele>
        <time>2011-10-16T06:48:47Z</time>
      </trkpt>
      <trkpt lat="43.59818" lon="6.95326">
        <ele>160</ele>
        <time>2011-10-16T06:48:52Z</time>
      </trkpt>
      <trkpt lat="43.59812" lon="6.95309">
        <ele>161</ele>
        <time>2011-10-16T06:48:57Z</time>
      </trkpt>
      <trkpt lat="43.59806" lon="6.95293">
        <ele>161</ele>
        <time>2011-10-16T06:49:02Z</time>
      </trkpt>
      <trkpt lat="43.59799" lon="6.95275">
        <ele>162</ele>
        <time>2011-10-16T06:49:07Z</time>
      </trkpt>
      <trkpt lat="43.59793" lon="6.95259">
        <ele>163</ele>
        <time>2011-10-16T06:49:12Z</time>
      </trkpt>
      <trkpt lat="43.59785" lon="6.9524">
        <ele>164</ele>
        <time>2011-10-16T06:49:17Z</time>
      </trkpt>
      <trkpt lat="43.59776" lon="6.95213">
        <ele>164</ele>
        <time>2011-10-16T06:49:22Z</time>
      </trkpt>
      <trkpt lat="43.59763" lon="6.95181">
        <ele>164</ele>
        <time>2011-10-16T06:49:27Z</time>
      </trkpt>
      <trkpt lat="43.5975" lon="6.95149">
        <ele>164</ele>
        <time>2011-10-16T06:49:32Z</time>
      </trkpt>
      <trkpt lat="43.59734" lon="6.95112">
        <ele>163</ele>
        <time>2011-10-16T06:49:37Z</time>
      </trkpt>
      <trkpt lat="43.5972" lon="6.95072">
        <ele>163</ele>
        <time>2011-10-16T06:49:42Z</time>
      </trkpt>
      <trkpt lat="43.5971" lon="6.95033">
        <ele>163</ele>
        <time>2011-10-16T06:49:47Z</time>
      </trkpt>
      <trkpt lat="43.59706" lon="6.95001">
        <ele>163</ele>
        <time>2011-10-16T06:49:52Z</time>
      </trkpt>
      <trkpt lat="43.59703" lon="6.94976">
        <ele>163</ele>
        <time>2011-10-16T06:49:57Z</time>
      </trkpt>
      <trkpt lat="43.59708" lon="6.94957">
        <ele>163</ele>
        <time>2011-10-16T06:50:02Z</time>
      </trkpt>
      <trkpt lat="43.59729" lon="6.94951">
        <ele>163</ele>
        <time>2011-10-16T06:50:08Z</time>
      </trkpt>
      <trkpt lat="43.59754" lon="6.94951">
        <ele>163</ele>
        <time>2011-10-16T06:50:13Z</time>
      </trkpt>
      <trkpt lat="43.59795" lon="6.94951">
        <ele>162</ele>
        <time>2011-10-16T06:50:19Z</time>
      </trkpt>
      <trkpt lat="43.5981" lon="6.94933">
        <ele>158</ele>
        <time>2011-10-16T06:50:24Z</time>
      </trkpt>
      <trkpt lat="43.59802" lon="6.94908">
        <ele>157</ele>
        <time>2011-10-16T06:50:29Z</time>
      </trkpt>
      <trkpt lat="43.59793" lon="6.94885">
        <ele>156</ele>
        <time>2011-10-16T06:50:34Z</time>
      </trkpt>
      <trkpt lat="43.59801" lon="6.94861">
        <ele>156</ele>
        <time>2011-10-16T06:50:39Z</time>
      </trkpt>
      <trkpt lat="43.59805" lon="6.94812">
        <ele>155</ele>
        <time>2011-10-16T06:50:44Z</time>
      </trkpt>
      <trkpt lat="43.59805" lon="6.94749">
        <ele>152</ele>
        <time>2011-10-16T06:50:49Z</time>
      </trkpt>
      <trkpt lat="43.59803" lon="6.94693">
        <ele>147</ele>
        <time>2011-10-16T06:50:54Z</time>
      </trkpt>
      <trkpt lat="43.59807" lon="6.94657">
        <ele>142</ele>
        <time>2011-10-16T06:50:59Z</time>
      </trkpt>
      <trkpt lat="43.59819" lon="6.94643">
        <ele>138</ele>
        <time>2011-10-16T06:51:04Z</time>
      </trkpt>
      <trkpt lat="43.59826" lon="6.9464">
        <ele>137</ele>
        <time>2011-10-16T06:51:10Z</time>
      </trkpt>
      <trkpt lat="43.59837" lon="6.94649">
        <ele>137</ele>
        <time>2011-10-16T06:51:16Z</time>
      </trkpt>
      <trkpt lat="43.59848" lon="6.94654">
        <ele>137</ele>
        <time>2011-10-16T06:51:21Z</time>
      </trkpt>
      <trkpt lat="43.59861" lon="6.94668">
        <ele>137</ele>
        <time>2011-10-16T06:51:26Z</time>
      </trkpt>
      <trkpt lat="43.5988" lon="6.94691">
        <ele>137</ele>
        <time>2011-10-16T06:51:32Z</time>
      </trkpt>
      <trkpt lat="43.59895" lon="6.94704">
        <ele>137</ele>
        <time>2011-10-16T06:51:37Z</time>
      </trkpt>
      <trkpt lat="43.59911" lon="6.94715">
        <ele>137</ele>
        <time>2011-10-16T06:51:42Z</time>
      </trkpt>
      <trkpt lat="43.59926" lon="6.94731">
        <ele>137</ele>
        <time>2011-10-16T06:51:47Z</time>
      </trkpt>
      <trkpt lat="43.5994" lon="6.94747">
        <ele>137</ele>
        <time>2011-10-16T06:51:52Z</time>
      </trkpt>
      <trkpt lat="43.59956" lon="6.9476">
        <ele>138</ele>
        <time>2011-10-16T06:51:58Z</time>
      </trkpt>
      <trkpt lat="43.59972" lon="6.94771">
        <ele>138</ele>
        <time>2011-10-16T06:52:03Z</time>
      </trkpt>
      <trkpt lat="43.59982" lon="6.94756">
        <ele>138</ele>
        <time>2011-10-16T06:52:08Z</time>
      </trkpt>
      <trkpt lat="43.59983" lon="6.94728">
        <ele>138</ele>
        <time>2011-10-16T06:52:13Z</time>
      </trkpt>
      <trkpt lat="43.59972" lon="6.94703">
        <ele>140</ele>
        <time>2011-10-16T06:52:19Z</time>
      </trkpt>
      <trkpt lat="43.59962" lon="6.94671">
        <ele>141</ele>
        <time>2011-10-16T06:52:25Z</time>
      </trkpt>
      <trkpt lat="43.5996" lon="6.94647">
        <ele>142</ele>
        <time>2011-10-16T06:52:30Z</time>
      </trkpt>
      <trkpt lat="43.59956" lon="6.94626">
        <ele>144</ele>
        <time>2011-10-16T06:52:35Z</time>
      </trkpt>
      <trkpt lat="43.59948" lon="6.94602">
        <ele>147</ele>
        <time>2011-10-16T06:52:41Z</time>
      </trkpt>
      <trkpt lat="43.5994" lon="6.94578">
        <ele>150</ele>
        <time>2011-10-16T06:52:46Z</time>
      </trkpt>
      <trkpt lat="43.59933" lon="6.94553">
        <ele>155</ele>
        <time>2011-10-16T06:52:51Z</time>
      </trkpt>
      <trkpt lat="43.59929" lon="6.9453">
        <ele>157</ele>
        <time>2011-10-16T06:52:56Z</time>
      </trkpt>
      <trkpt lat="43.59929" lon="6.94508">
        <ele>157</ele>
        <time>2011-10-16T06:53:02Z</time>
      </trkpt>
      <trkpt lat="43.59929" lon="6.9449">
        <ele>157</ele>
        <time>2011-10-16T06:53:07Z</time>
      </trkpt>
      <trkpt lat="43.59928" lon="6.94473">
        <ele>159</ele>
        <time>2011-10-16T06:53:12Z</time>
      </trkpt>
      <trkpt lat="43.59932" lon="6.94454">
        <ele>159</ele>
        <time>2011-10-16T06:53:18Z</time>
      </trkpt>
      <trkpt lat="43.59929" lon="6.94435">
        <ele>159</ele>
        <time>2011-10-16T06:53:23Z</time>
      </trkpt>
      <trkpt lat="43.5992" lon="6.94404">
        <ele>156</ele>
        <time>2011-10-16T06:53:28Z</time>
      </trkpt>
      <trkpt lat="43.5991" lon="6.94371">
        <ele>151</ele>
        <time>2011-10-16T06:53:33Z</time>
      </trkpt>
      <trkpt lat="43.59902" lon="6.94325">
        <ele>146</ele>
        <time>2011-10-16T06:53:38Z</time>
      </trkpt>
      <trkpt lat="43.59872" lon="6.94253">
        <ele>140</ele>
        <time>2011-10-16T06:53:44Z</time>
      </trkpt>
      <trkpt lat="43.59862" lon="6.94198">
        <ele>136</ele>
        <time>2011-10-16T06:53:49Z</time>
      </trkpt>
      <trkpt lat="43.59839" lon="6.94176">
        <ele>129</ele>
        <time>2011-10-16T06:53:54Z</time>
      </trkpt>
      <trkpt lat="43.59805" lon="6.94177">
        <ele>122</ele>
        <time>2011-10-16T06:54:00Z</time>
      </trkpt>
      <trkpt lat="43.59772" lon="6.9419">
        <ele>115</ele>
        <time>2011-10-16T06:54:05Z</time>
      </trkpt>
      <trkpt lat="43.59752" lon="6.94163">
        <ele>107</ele>
        <time>2011-10-16T06:54:10Z</time>
      </trkpt>
      <trkpt lat="43.59737" lon="6.94124">
        <ele>97</ele>
        <time>2011-10-16T06:54:15Z</time>
      </trkpt>
      <trkpt lat="43.59739" lon="6.9409">
        <ele>90</ele>
        <time>2011-10-16T06:54:20Z</time>
      </trkpt>
      <trkpt lat="43.59768" lon="6.9406">
        <ele>85</ele>
        <time>2011-10-16T06:54:27Z</time>
      </trkpt>
      <trkpt lat="43.59777" lon="6.94027">
        <ele>80</ele>
        <time>2011-10-16T06:54:32Z</time>
      </trkpt>
      <trkpt lat="43.5979" lon="6.93998">
        <ele>75</ele>
        <time>2011-10-16T06:54:37Z</time>
      </trkpt>
      <trkpt lat="43.59819" lon="6.93975">
        <ele>69</ele>
        <time>2011-10-16T06:54:42Z</time>
      </trkpt>
      <trkpt lat="43.59811" lon="6.93945">
        <ele>63</ele>
        <time>2011-10-16T06:54:48Z</time>
      </trkpt>
      <trkpt lat="43.59806" lon="6.93913">
        <ele>60</ele>
        <time>2011-10-16T06:54:53Z</time>
      </trkpt>
      <trkpt lat="43.598" lon="6.93871">
        <ele>58</ele>
        <time>2011-10-16T06:54:58Z</time>
      </trkpt>
      <trkpt lat="43.59798" lon="6.93844">
        <ele>53</ele>
        <time>2011-10-16T06:55:03Z</time>
      </trkpt>
      <trkpt lat="43.59786" lon="6.93815">
        <ele>48</ele>
        <time>2011-10-16T06:55:08Z</time>
      </trkpt>
      <trkpt lat="43.59779" lon="6.93775">
        <ele>45</ele>
        <time>2011-10-16T06:55:13Z</time>
      </trkpt>
      <trkpt lat="43.59776" lon="6.93733">
        <ele>44</ele>
        <time>2011-10-16T06:55:18Z</time>
      </trkpt>
      <trkpt lat="43.59762" lon="6.93688">
        <ele>40</ele>
        <time>2011-10-16T06:55:23Z</time>
      </trkpt>
      <trkpt lat="43.5975" lon="6.93645">
        <ele>37</ele>
        <time>2011-10-16T06:55:28Z</time>
      </trkpt>
      <trkpt lat="43.59746" lon="6.93635">
        <ele>35</ele>
        <time>2011-10-16T06:55:36Z</time>
      </trkpt>
      <trkpt lat="43.59747" lon="6.93634">
        <ele>35</ele>
        <time>2011-10-16T06:55:49Z</time>
      </trkpt>
      <trkpt lat="43.59745" lon="6.93632">
        <ele>35</ele>
        <time>2011-10-16T06:55:57Z</time>
      </trkpt>
      <trkpt lat="43.59739" lon="6.93617">
        <ele>35</ele>
        <time>2011-10-16T06:56:02Z</time>
      </trkpt>
      <trkpt lat="43.59733" lon="6.93591">
        <ele>35</ele>
        <time>2011-10-16T06:56:07Z</time>
      </trkpt>
      <trkpt lat="43.59725" lon="6.9356">
        <ele>35</ele>
        <time>2011-10-16T06:56:13Z</time>
      </trkpt>
      <trkpt lat="43.59718" lon="6.93533">
        <ele>35</ele>
        <time>2011-10-16T06:56:18Z</time>
      </trkpt>
      <trkpt lat="43.59711" lon="6.93505">
        <ele>35</ele>
        <time>2011-10-16T06:56:23Z</time>
      </trkpt>
      <trkpt lat="43.59706" lon="6.93478">
        <ele>35</ele>
        <time>2011-10-16T06:56:28Z</time>
      </trkpt>
      <trkpt lat="43.59701" lon="6.93452">
        <ele>35</ele>
        <time>2011-10-16T06:56:33Z</time>
      </trkpt>
      <trkpt lat="43.59691" lon="6.93422">
        <ele>35</ele>
        <time>2011-10-16T06:56:38Z</time>
      </trkpt>
      <trkpt lat="43.59673" lon="6.934">
        <ele>35</ele>
        <time>2011-10-16T06:56:43Z</time>
      </trkpt>
      <trkpt lat="43.59654" lon="6.93381">
        <ele>34</ele>
        <time>2011-10-16T06:56:48Z</time>
      </trkpt>
      <trkpt lat="43.59638" lon="6.93365">
        <ele>33</ele>
        <time>2011-10-16T06:56:53Z</time>
      </trkpt>
      <trkpt lat="43.59622" lon="6.93346">
        <ele>33</ele>
        <time>2011-10-16T06:56:58Z</time>
      </trkpt>
      <trkpt lat="43.59613" lon="6.93322">
        <ele>33</ele>
        <time>2011-10-16T06:57:03Z</time>
      </trkpt>
      <trkpt lat="43.59604" lon="6.93293">
        <ele>31</ele>
        <time>2011-10-16T06:57:08Z</time>
      </trkpt>
      <trkpt lat="43.59575" lon="6.93261">
        <ele>28</ele>
        <time>2011-10-16T06:57:14Z</time>
      </trkpt>
      <trkpt lat="43.59539" lon="6.9324">
        <ele>25</ele>
        <time>2011-10-16T06:57:19Z</time>
      </trkpt>
      <trkpt lat="43.59505" lon="6.93219">
        <ele>24</ele>
        <time>2011-10-16T06:57:24Z</time>
      </trkpt>
      <trkpt lat="43.59481" lon="6.93194">
        <ele>24</ele>
        <time>2011-10-16T06:57:29Z</time>
      </trkpt>
      <trkpt lat="43.59485" lon="6.93169">
        <ele>24</ele>
        <time>2011-10-16T06:57:34Z</time>
      </trkpt>
      <trkpt lat="43.59492" lon="6.93153">
        <ele>23</ele>
        <time>2011-10-16T06:57:39Z</time>
      </trkpt>
      <trkpt lat="43.5948" lon="6.93131">
        <ele>22</ele>
        <time>2011-10-16T06:57:44Z</time>
      </trkpt>
      <trkpt lat="43.5946" lon="6.93103">
        <ele>21</ele>
        <time>2011-10-16T06:57:50Z</time>
      </trkpt>
      <trkpt lat="43.59446" lon="6.9308">
        <ele>21</ele>
        <time>2011-10-16T06:57:55Z</time>
      </trkpt>
      <trkpt lat="43.59431" lon="6.93059">
        <ele>21</ele>
        <time>2011-10-16T06:58:00Z</time>
      </trkpt>
      <trkpt lat="43.59418" lon="6.93039">
        <ele>21</ele>
        <time>2011-10-16T06:58:05Z</time>
      </trkpt>
      <trkpt lat="43.59404" lon="6.9302">
        <ele>21</ele>
        <time>2011-10-16T06:58:10Z</time>
      </trkpt>
      <trkpt lat="43.59387" lon="6.93005">
        <ele>21</ele>
        <time>2011-10-16T06:58:15Z</time>
      </trkpt>
      <trkpt lat="43.5937" lon="6.9299">
        <ele>21</ele>
        <time>2011-10-16T06:58:20Z</time>
      </trkpt>
      <trkpt lat="43.59354" lon="6.92978">
        <ele>21</ele>
        <time>2011-10-16T06:58:25Z</time>
      </trkpt>
      <trkpt lat="43.59339" lon="6.92972">
        <ele>21</ele>
        <time>2011-10-16T06:58:30Z</time>
      </trkpt>
      <trkpt lat="43.59329" lon="6.92967">
        <ele>21</ele>
        <time>2011-10-16T06:58:35Z</time>
      </trkpt>
      <trkpt lat="43.59318" lon="6.92975">
        <ele>21</ele>
        <time>2011-10-16T06:58:40Z</time>
      </trkpt>
      <trkpt lat="43.59306" lon="6.92981">
        <ele>24</ele>
        <time>2011-10-16T06:58:45Z</time>
      </trkpt>
      <trkpt lat="43.5929" lon="6.92993">
        <ele>29</ele>
        <time>2011-10-16T06:58:50Z</time>
      </trkpt>
      <trkpt lat="43.59277" lon="6.93004">
        <ele>34</ele>
        <time>2011-10-16T06:58:55Z</time>
      </trkpt>
      <trkpt lat="43.59272" lon="6.93003">
        <ele>37</ele>
        <time>2011-10-16T06:59:01Z</time>
      </trkpt>
      <trkpt lat="43.59275" lon="6.92992">
        <ele>37</ele>
        <time>2011-10-16T06:59:06Z</time>
      </trkpt>
      <trkpt lat="43.5927" lon="6.92986">
        <ele>37</ele>
        <time>2011-10-16T06:59:11Z</time>
      </trkpt>
      <trkpt lat="43.59269" lon="6.92993">
        <ele>36</ele>
        <time>2011-10-16T06:59:16Z</time>
      </trkpt>
      <trkpt lat="43.59274" lon="6.93002">
        <ele>32</ele>
        <time>2011-10-16T06:59:21Z</time>
      </trkpt>
      <trkpt lat="43.59281" lon="6.93009">
        <ele>31</ele>
        <time>2011-10-16T06:59:27Z</time>
      </trkpt>
      <trkpt lat="43.59281" lon="6.93006">
        <ele>30</ele>
        <time>2011-10-16T06:59:32Z</time>
      </trkpt>
      <trkpt lat="43.59283" lon="6.92992">
        <ele>30</ele>
        <time>2011-10-16T06:59:37Z</time>
      </trkpt>
      <trkpt lat="43.59277" lon="6.92984">
        <ele>29</ele>
        <time>2011-10-16T06:59:43Z</time>
      </trkpt>
      <trkpt lat="43.5927" lon="6.92989">
        <ele>28</ele>
        <time>2011-10-16T06:59:48Z</time>
      </trkpt>
      <trkpt lat="43.59264" lon="6.92999">
        <ele>28</ele>
        <time>2011-10-16T06:59:53Z</time>
      </trkpt>
      <trkpt lat="43.59267" lon="6.93009">
        <ele>27</ele>
        <time>2011-10-16T06:59:58Z</time>
      </trkpt>
      <trkpt lat="43.59271" lon="6.93017">
        <ele>27</ele>
        <time>2011-10-16T07:00:04Z</time>
      </trkpt>
      <trkpt lat="43.59278" lon="6.93011">
        <ele>27</ele>
        <time>2011-10-16T07:00:09Z</time>
      </trkpt>
      <trkpt lat="43.59285" lon="6.93008">
        <ele>27</ele>
        <time>2011-10-16T07:00:14Z</time>
      </trkpt>
      <trkpt lat="43.59287" lon="6.92999">
        <ele>27</ele>
        <time>2011-10-16T07:00:19Z</time>
      </trkpt>
      <trkpt lat="43.59282" lon="6.92989">
        <ele>27</ele>
        <time>2011-10-16T07:00:24Z</time>
      </trkpt>
      <trkpt lat="43.59274" lon="6.92992">
        <ele>27</ele>
        <time>2011-10-16T07:00:29Z</time>
      </trkpt>
      <trkpt lat="43.59269" lon="6.93001">
        <ele>26</ele>
        <time>2011-10-16T07:00:34Z</time>
      </trkpt>
      <trkpt lat="43.59267" lon="6.93009">
        <ele>26</ele>
        <time>2011-10-16T07:00:39Z</time>
      </trkpt>
      <trkpt lat="43.59267" lon="6.93017">
        <ele>26</ele>
        <time>2011-10-16T07:00:46Z</time>
      </trkpt>
      <trkpt lat="43.59274" lon="6.93012">
        <ele>26</ele>
        <time>2011-10-16T07:00:51Z</time>
      </trkpt>
      <trkpt lat="43.59282" lon="6.93009">
        <ele>26</ele>
        <time>2011-10-16T07:00:56Z</time>
      </trkpt>
      <trkpt lat="43.59287" lon="6.93001">
        <ele>26</ele>
        <time>2011-10-16T07:01:01Z</time>
      </trkpt>
      <trkpt lat="43.5928" lon="6.92991">
        <ele>26</ele>
        <time>2011-10-16T07:01:06Z</time>
      </trkpt>
      <trkpt lat="43.59272" lon="6.92987">
        <ele>26</ele>
        <time>2011-10-16T07:01:12Z</time>
      </trkpt>
      <trkpt lat="43.59272" lon="6.92993">
        <ele>26</ele>
        <time>2011-10-16T07:01:17Z</time>
      </trkpt>
      <trkpt lat="43.59276" lon="6.93">
        <ele>26</ele>
        <time>2011-10-16T07:01:22Z</time>
      </trkpt>
      <trkpt lat="43.59274" lon="6.93011">
        <ele>25</ele>
        <time>2011-10-16T07:01:27Z</time>
      </trkpt>
      <trkpt lat="43.59269" lon="6.93013">
        <ele>25</ele>
        <time>2011-10-16T07:01:32Z</time>
      </trkpt>
      <trkpt lat="43.59264" lon="6.9302">
        <ele>25</ele>
        <time>2011-10-16T07:01:37Z</time>
      </trkpt>
      <trkpt lat="43.59258" lon="6.9303">
        <ele>26</ele>
        <time>2011-10-16T07:01:42Z</time>
      </trkpt>
      <trkpt lat="43.59257" lon="6.93043">
        <ele>28</ele>
        <time>2011-10-16T07:01:47Z</time>
      </trkpt>
      <trkpt lat="43.59255" lon="6.93057">
        <ele>28</ele>
        <time>2011-10-16T07:01:52Z</time>
      </trkpt>
      <trkpt lat="43.59247" lon="6.93069">
        <ele>28</ele>
        <time>2011-10-16T07:01:57Z</time>
      </trkpt>
      <trkpt lat="43.59236" lon="6.93078">
        <ele>28</ele>
        <time>2011-10-16T07:02:02Z</time>
      </trkpt>
      <trkpt lat="43.59223" lon="6.93092">
        <ele>28</ele>
        <time>2011-10-16T07:02:08Z</time>
      </trkpt>
      <trkpt lat="43.59212" lon="6.93096">
        <ele>27</ele>
        <time>2011-10-16T07:02:13Z</time>
      </trkpt>
      <trkpt lat="43.59201" lon="6.93099">
        <ele>26</ele>
        <time>2011-10-16T07:02:18Z</time>
      </trkpt>
      <trkpt lat="43.59196" lon="6.93104">
        <ele>25</ele>
        <time>2011-10-16T07:02:23Z</time>
      </trkpt>
      <trkpt lat="43.59205" lon="6.93105">
        <ele>24</ele>
        <time>2011-10-16T07:02:28Z</time>
      </trkpt>
      <trkpt lat="43.59213" lon="6.93095">
        <ele>23</ele>
        <time>2011-10-16T07:02:33Z</time>
      </trkpt>
      <trkpt lat="43.59223" lon="6.9309">
        <ele>21</ele>
        <time>2011-10-16T07:02:38Z</time>
      </trkpt>
      <trkpt lat="43.59232" lon="6.93079">
        <ele>20</ele>
        <time>2011-10-16T07:02:43Z</time>
      </trkpt>
      <trkpt lat="43.59243" lon="6.93068">
        <ele>20</ele>
        <time>2011-10-16T07:02:48Z</time>
      </trkpt>
      <trkpt lat="43.59253" lon="6.93062">
        <ele>20</ele>
        <time>2011-10-16T07:02:53Z</time>
      </trkpt>
      <trkpt lat="43.5926" lon="6.93044">
        <ele>20</ele>
        <time>2011-10-16T07:02:58Z</time>
      </trkpt>
      <trkpt lat="43.59268" lon="6.93019">
        <ele>20</ele>
        <time>2011-10-16T07:03:03Z</time>
      </trkpt>
      <trkpt lat="43.59267" lon="6.92997">
        <ele>20</ele>
        <time>2011-10-16T07:03:08Z</time>
      </trkpt>
      <trkpt lat="43.5926" lon="6.92978">
        <ele>25</ele>
        <time>2011-10-16T07:03:13Z</time>
      </trkpt>
      <trkpt lat="43.59256" lon="6.9297">
        <ele>31</ele>
        <time>2011-10-16T07:03:19Z</time>
      </trkpt>
      <trkpt lat="43.59258" lon="6.92971">
        <ele>35</ele>
        <time>2011-10-16T07:03:24Z</time>
      </trkpt>
      <trkpt lat="43.59265" lon="6.92981">
        <ele>34</ele>
        <time>2011-10-16T07:03:29Z</time>
      </trkpt>
      <trkpt lat="43.59269" lon="6.92991">
        <ele>33</ele>
        <time>2011-10-16T07:03:34Z</time>
      </trkpt>
      <trkpt lat="43.5927" lon="6.92999">
        <ele>31</ele>
        <time>2011-10-16T07:03:40Z</time>
      </trkpt>
      <trkpt lat="43.59273" lon="6.93002">
        <ele>31</ele>
        <time>2011-10-16T07:03:45Z</time>
      </trkpt>
      <trkpt lat="43.59274" lon="6.93005">
        <ele>31</ele>
        <time>2011-10-16T07:03:52Z</time>
      </trkpt>
      <trkpt lat="43.59276" lon="6.93007">
        <ele>34</ele>
        <time>2011-10-16T07:03:59Z</time>
      </trkpt>
      <trkpt lat="43.59274" lon="6.93007">
        <ele>37</ele>
        <time>2011-10-16T07:04:05Z</time>
      </trkpt>
      <trkpt lat="43.59275" lon="6.93006">
        <ele>40</ele>
        <time>2011-10-16T07:04:13Z</time>
      </trkpt>
      <trkpt lat="43.59277" lon="6.93001">
        <ele>40</ele>
        <time>2011-10-16T07:04:18Z</time>
      </trkpt>
      <trkpt lat="43.59283" lon="6.93004">
        <ele>40</ele>
        <time>2011-10-16T07:04:23Z</time>
      </trkpt>
      <trkpt lat="43.59281" lon="6.93026">
        <ele>39</ele>
        <time>2011-10-16T07:04:28Z</time>
      </trkpt>
      <trkpt lat="43.59274" lon="6.93038">
        <ele>39</ele>
        <time>2011-10-16T07:04:33Z</time>
      </trkpt>
      <trkpt lat="43.59287" lon="6.93014">
        <ele>39</ele>
        <time>2011-10-16T07:04:38Z</time>
      </trkpt>
      <trkpt lat="43.59302" lon="6.92994">
        <ele>37</ele>
        <time>2011-10-16T07:04:43Z</time>
      </trkpt>
      <trkpt lat="43.59317" lon="6.92974">
        <ele>36</ele>
        <time>2011-10-16T07:04:48Z</time>
      </trkpt>
      <trkpt lat="43.59332" lon="6.92952">
        <ele>35</ele>
        <time>2011-10-16T07:04:53Z</time>
      </trkpt>
      <trkpt lat="43.59346" lon="6.92924">
        <ele>32</ele>
        <time>2011-10-16T07:04:58Z</time>
      </trkpt>
      <trkpt lat="43.5936" lon="6.92897">
        <ele>30</ele>
        <time>2011-10-16T07:05:03Z</time>
      </trkpt>
      <trkpt lat="43.59374" lon="6.9287">
        <ele>29</ele>
        <time>2011-10-16T07:05:08Z</time>
      </trkpt>
      <trkpt lat="43.59385" lon="6.92842">
        <ele>29</ele>
        <time>2011-10-16T07:05:13Z</time>
      </trkpt>
      <trkpt lat="43.59396" lon="6.92816">
        <ele>26</ele>
        <time>2011-10-16T07:05:18Z</time>
      </trkpt>
      <trkpt lat="43.59407" lon="6.92791">
        <ele>24</ele>
        <time>2011-10-16T07:05:23Z</time>
      </trkpt>
      <trkpt lat="43.59418" lon="6.92765">
        <ele>23</ele>
        <time>2011-10-16T07:05:28Z</time>
      </trkpt>
      <trkpt lat="43.5943" lon="6.9274">
        <ele>22</ele>
        <time>2011-10-16T07:05:33Z</time>
      </trkpt>
      <trkpt lat="43.59442" lon="6.92716">
        <ele>21</ele>
        <time>2011-10-16T07:05:38Z</time>
      </trkpt>
      <trkpt lat="43.59453" lon="6.92693">
        <ele>21</ele>
        <time>2011-10-16T07:05:43Z</time>
      </trkpt>
      <trkpt lat="43.59463" lon="6.92674">
        <ele>21</ele>
        <time>2011-10-16T07:05:48Z</time>
      </trkpt>
      <trkpt lat="43.59472" lon="6.92654">
        <ele>21</ele>
        <time>2011-10-16T07:05:53Z</time>
      </trkpt>
      <trkpt lat="43.59463" lon="6.92632">
        <ele>21</ele>
        <time>2011-10-16T07:05:58Z</time>
      </trkpt>
      <trkpt lat="43.59459" lon="6.92605">
        <ele>20</ele>
        <time>2011-10-16T07:06:03Z</time>
      </trkpt>
      <trkpt lat="43.59451" lon="6.9258">
        <ele>20</ele>
        <time>2011-10-16T07:06:08Z</time>
      </trkpt>
      <trkpt lat="43.5944" lon="6.92555">
        <ele>19</ele>
        <time>2011-10-16T07:06:13Z</time>
      </trkpt>
      <trkpt lat="43.59428" lon="6.92531">
        <ele>19</ele>
        <time>2011-10-16T07:06:18Z</time>
      </trkpt>
      <trkpt lat="43.59415" lon="6.92508">
        <ele>19</ele>
        <time>2011-10-16T07:06:23Z</time>
      </trkpt>
      <trkpt lat="43.59399" lon="6.9249">
        <ele>19</ele>
        <time>2011-10-16T07:06:28Z</time>
      </trkpt>
      <trkpt lat="43.5938" lon="6.92481">
        <ele>19</ele>
        <time>2011-10-16T07:06:33Z</time>
      </trkpt>
      <trkpt lat="43.59362" lon="6.92465">
        <ele>19</ele>
        <time>2011-10-16T07:06:38Z</time>
      </trkpt>
      <trkpt lat="43.5935" lon="6.92443">
        <ele>19</ele>
        <time>2011-10-16T07:06:43Z</time>
      </trkpt>
      <trkpt lat="43.59338" lon="6.9242">
        <ele>19</ele>
        <time>2011-10-16T07:06:48Z</time>
      </trkpt>
      <trkpt lat="43.59327" lon="6.92397">
        <ele>19</ele>
        <time>2011-10-16T07:06:53Z</time>
      </trkpt>
      <trkpt lat="43.59317" lon="6.92375">
        <ele>19</ele>
        <time>2011-10-16T07:06:58Z</time>
      </trkpt>
      <trkpt lat="43.59307" lon="6.92353">
        <ele>19</ele>
        <time>2011-10-16T07:07:03Z</time>
      </trkpt>
      <trkpt lat="43.59296" lon="6.92333">
        <ele>19</ele>
        <time>2011-10-16T07:07:08Z</time>
      </trkpt>
      <trkpt lat="43.59282" lon="6.92316">
        <ele>19</ele>
        <time>2011-10-16T07:07:13Z</time>
      </trkpt>
      <trkpt lat="43.59265" lon="6.92301">
        <ele>19</ele>
        <time>2011-10-16T07:07:18Z</time>
      </trkpt>
      <trkpt lat="43.59247" lon="6.92286">
        <ele>19</ele>
        <time>2011-10-16T07:07:23Z</time>
      </trkpt>
      <trkpt lat="43.59231" lon="6.92269">
        <ele>19</ele>
        <time>2011-10-16T07:07:28Z</time>
      </trkpt>
      <trkpt lat="43.59224" lon="6.92246">
        <ele>19</ele>
        <time>2011-10-16T07:07:33Z</time>
      </trkpt>
      <trkpt lat="43.59222" lon="6.92219">
        <ele>19</ele>
        <time>2011-10-16T07:07:38Z</time>
      </trkpt>
      <trkpt lat="43.59224" lon="6.92192">
        <ele>19</ele>
        <time>2011-10-16T07:07:43Z</time>
      </trkpt>
      <trkpt lat="43.59228" lon="6.92164">
        <ele>19</ele>
        <time>2011-10-16T07:07:48Z</time>
      </trkpt>
      <trkpt lat="43.5923" lon="6.92135">
        <ele>19</ele>
        <time>2011-10-16T07:07:53Z</time>
      </trkpt>
      <trkpt lat="43.59232" lon="6.92106">
        <ele>20</ele>
        <time>2011-10-16T07:07:58Z</time>
      </trkpt>
      <trkpt lat="43.59234" lon="6.92077">
        <ele>20</ele>
        <time>2011-10-16T07:08:03Z</time>
      </trkpt>
      <trkpt lat="43.5924" lon="6.9205">
        <ele>20</ele>
        <time>2011-10-16T07:08:08Z</time>
      </trkpt>
      <trkpt lat="43.59248" lon="6.92026">
        <ele>20</ele>
        <time>2011-10-16T07:08:13Z</time>
      </trkpt>
      <trkpt lat="43.59257" lon="6.92001">
        <ele>20</ele>
        <time>2011-10-16T07:08:18Z</time>
      </trkpt>
      <trkpt lat="43.59266" lon="6.91975">
        <ele>20</ele>
        <time>2011-10-16T07:08:23Z</time>
      </trkpt>
      <trkpt lat="43.59274" lon="6.91949">
        <ele>20</ele>
        <time>2011-10-16T07:08:28Z</time>
      </trkpt>
      <trkpt lat="43.59284" lon="6.91924">
        <ele>20</ele>
        <time>2011-10-16T07:08:33Z</time>
      </trkpt>
      <trkpt lat="43.59294" lon="6.91898">
        <ele>20</ele>
        <time>2011-10-16T07:08:38Z</time>
      </trkpt>
      <trkpt lat="43.59308" lon="6.91875">
        <ele>20</ele>
        <time>2011-10-16T07:08:43Z</time>
      </trkpt>
      <trkpt lat="43.59323" lon="6.91854">
        <ele>20</ele>
        <time>2011-10-16T07:08:48Z</time>
      </trkpt>
      <trkpt lat="43.59341" lon="6.91836">
        <ele>20</ele>
        <time>2011-10-16T07:08:53Z</time>
      </trkpt>
      <trkpt lat="43.59359" lon="6.91823">
        <ele>20</ele>
        <time>2011-10-16T07:08:58Z</time>
      </trkpt>
      <trkpt lat="43.59374" lon="6.91811">
        <ele>20</ele>
        <time>2011-10-16T07:09:03Z</time>
      </trkpt>
      <trkpt lat="43.59391" lon="6.91791">
        <ele>20</ele>
        <time>2011-10-16T07:09:08Z</time>
      </trkpt>
      <trkpt lat="43.59408" lon="6.91766">
        <ele>19</ele>
        <time>2011-10-16T07:09:13Z</time>
      </trkpt>
      <trkpt lat="43.59423" lon="6.91744">
        <ele>19</ele>
        <time>2011-10-16T07:09:18Z</time>
      </trkpt>
      <trkpt lat="43.59437" lon="6.91724">
        <ele>19</ele>
        <time>2011-10-16T07:09:23Z</time>
      </trkpt>
      <trkpt lat="43.59451" lon="6.91705">
        <ele>19</ele>
        <time>2011-10-16T07:09:28Z</time>
      </trkpt>
      <trkpt lat="43.59464" lon="6.91689">
        <ele>19</ele>
        <time>2011-10-16T07:09:33Z</time>
      </trkpt>
      <trkpt lat="43.59479" lon="6.91676">
        <ele>19</ele>
        <time>2011-10-16T07:09:38Z</time>
      </trkpt>
      <trkpt lat="43.59496" lon="6.91661">
        <ele>19</ele>
        <time>2011-10-16T07:09:43Z</time>
      </trkpt>
      <trkpt lat="43.5951" lon="6.91645">
        <ele>19</ele>
        <time>2011-10-16T07:09:48Z</time>
      </trkpt>
      <trkpt lat="43.59524" lon="6.91632">
        <ele>19</ele>
        <time>2011-10-16T07:09:53Z</time>
      </trkpt>
      <trkpt lat="43.59538" lon="6.91621">
        <ele>19</ele>
        <time>2011-10-16T07:09:58Z</time>
      </trkpt>
      <trkpt lat="43.59554" lon="6.91613">
        <ele>19</ele>
        <time>2011-10-16T07:10:03Z</time>
      </trkpt>
      <trkpt lat="43.5957" lon="6.91598">
        <ele>18</ele>
        <time>2011-10-16T07:10:08Z</time>
      </trkpt>
      <trkpt lat="43.59581" lon="6.91576">
        <ele>18</ele>
        <time>2011-10-16T07:10:13Z</time>
      </trkpt>
      <trkpt lat="43.5959" lon="6.91553">
        <ele>18</ele>
        <time>2011-10-16T07:10:18Z</time>
      </trkpt>
      <trkpt lat="43.596" lon="6.91531">
        <ele>18</ele>
        <time>2011-10-16T07:10:23Z</time>
      </trkpt>
      <trkpt lat="43.59609" lon="6.91509">
        <ele>18</ele>
        <time>2011-10-16T07:10:28Z</time>
      </trkpt>
      <trkpt lat="43.59617" lon="6.91489">
        <ele>18</ele>
        <time>2011-10-16T07:10:33Z</time>
      </trkpt>
      <trkpt lat="43.59625" lon="6.91466">
        <ele>18</ele>
        <time>2011-10-16T07:10:38Z</time>
      </trkpt>
      <trkpt lat="43.59629" lon="6.91436">
        <ele>18</ele>
        <time>2011-10-16T07:10:43Z</time>
      </trkpt>
      <trkpt lat="43.59636" lon="6.91409">
        <ele>20</ele>
        <time>2011-10-16T07:10:48Z</time>
      </trkpt>
      <trkpt lat="43.59644" lon="6.91387">
        <ele>20</ele>
        <time>2011-10-16T07:10:53Z</time>
      </trkpt>
      <trkpt lat="43.59657" lon="6.91372">
        <ele>20</ele>
        <time>2011-10-16T07:10:58Z</time>
      </trkpt>
      <trkpt lat="43.59673" lon="6.91371">
        <ele>20</ele>
        <time>2011-10-16T07:11:03Z</time>
      </trkpt>
      <trkpt lat="43.59695" lon="6.91378">
        <ele>20</ele>
        <time>2011-10-16T07:11:08Z</time>
      </trkpt>
      <trkpt lat="43.59711" lon="6.91376">
        <ele>20</ele>
        <time>2011-10-16T07:11:13Z</time>
      </trkpt>
      <trkpt lat="43.5973" lon="6.91372">
        <ele>20</ele>
        <time>2011-10-16T07:11:18Z</time>
      </trkpt>
      <trkpt lat="43.59745" lon="6.91364">
        <ele>20</ele>
        <time>2011-10-16T07:11:23Z</time>
      </trkpt>
      <trkpt lat="43.59774" lon="6.91367">
        <ele>20</ele>
        <time>2011-10-16T07:11:28Z</time>
      </trkpt>
      <trkpt lat="43.59783" lon="6.91362">
        <ele>20</ele>
        <time>2011-10-16T07:11:33Z</time>
      </trkpt>
      <trkpt lat="43.59794" lon="6.91351">
        <ele>23</ele>
        <time>2011-10-16T07:11:38Z</time>
      </trkpt>
      <trkpt lat="43.59811" lon="6.91346">
        <ele>27</ele>
        <time>2011-10-16T07:11:43Z</time>
      </trkpt>
      <trkpt lat="43.59829" lon="6.91339">
        <ele>28</ele>
        <time>2011-10-16T07:11:48Z</time>
      </trkpt>
      <trkpt lat="43.59846" lon="6.91332">
        <ele>28</ele>
        <time>2011-10-16T07:11:53Z</time>
      </trkpt>
      <trkpt lat="43.59858" lon="6.9132">
        <ele>26</ele>
        <time>2011-10-16T07:11:58Z</time>
      </trkpt>
      <trkpt lat="43.59865" lon="6.91304">
        <ele>23</ele>
        <time>2011-10-16T07:12:03Z</time>
      </trkpt>
      <trkpt lat="43.59868" lon="6.91272">
        <ele>23</ele>
        <time>2011-10-16T07:12:08Z</time>
      </trkpt>
      <trkpt lat="43.59872" lon="6.91249">
        <ele>23</ele>
        <time>2011-10-16T07:12:13Z</time>
      </trkpt>
      <trkpt lat="43.59884" lon="6.91245">
        <ele>23</ele>
        <time>2011-10-16T07:12:18Z</time>
      </trkpt>
      <trkpt lat="43.59896" lon="6.91242">
        <ele>26</ele>
        <time>2011-10-16T07:12:23Z</time>
      </trkpt>
      <trkpt lat="43.59907" lon="6.91227">
        <ele>26</ele>
        <time>2011-10-16T07:12:28Z</time>
      </trkpt>
      <trkpt lat="43.59916" lon="6.91226">
        <ele>26</ele>
        <time>2011-10-16T07:12:33Z</time>
      </trkpt>
      <trkpt lat="43.59922" lon="6.91225">
        <ele>25</ele>
        <time>2011-10-16T07:12:38Z</time>
      </trkpt>
      <trkpt lat="43.59921" lon="6.91215">
        <ele>25</ele>
        <time>2011-10-16T07:12:43Z</time>
      </trkpt>
      <trkpt lat="43.59919" lon="6.91205">
        <ele>25</ele>
        <time>2011-10-16T07:12:48Z</time>
      </trkpt>
      <trkpt lat="43.59916" lon="6.91195">
        <ele>25</ele>
        <time>2011-10-16T07:12:53Z</time>
      </trkpt>
      <trkpt lat="43.59914" lon="6.91187">
        <ele>25</ele>
        <time>2011-10-16T07:12:58Z</time>
      </trkpt>
      <trkpt lat="43.59912" lon="6.91181">
        <ele>27</ele>
        <time>2011-10-16T07:13:04Z</time>
      </trkpt>
      <trkpt lat="43.59912" lon="6.91175">
        <ele>28</ele>
        <time>2011-10-16T07:13:09Z</time>
      </trkpt>
      <trkpt lat="43.59913" lon="6.91168">
        <ele>28</ele>
        <time>2011-10-16T07:13:14Z</time>
      </trkpt>
      <trkpt lat="43.59913" lon="6.91162">
        <ele>29</ele>
        <time>2011-10-16T07:13:20Z</time>
      </trkpt>
      <trkpt lat="43.59911" lon="6.91155">
        <ele>31</ele>
        <time>2011-10-16T07:13:26Z</time>
      </trkpt>
      <trkpt lat="43.59911" lon="6.91149">
        <ele>32</ele>
        <time>2011-10-16T07:13:32Z</time>
      </trkpt>
      <trkpt lat="43.59909" lon="6.91143">
        <ele>32</ele>
        <time>2011-10-16T07:13:37Z</time>
      </trkpt>
      <trkpt lat="43.59906" lon="6.91128">
        <ele>32</ele>
        <time>2011-10-16T07:13:42Z</time>
      </trkpt>
      <trkpt lat="43.59902" lon="6.91117">
        <ele>32</ele>
        <time>2011-10-16T07:13:47Z</time>
      </trkpt>
      <trkpt lat="43.59902" lon="6.91108">
        <ele>32</ele>
        <time>2011-10-16T07:13:52Z</time>
      </trkpt>
      <trkpt lat="43.59903" lon="6.91096">
        <ele>32</ele>
        <time>2011-10-16T07:13:57Z</time>
      </trkpt>
      <trkpt lat="43.59906" lon="6.91082">
        <ele>32</ele>
        <time>2011-10-16T07:14:02Z</time>
      </trkpt>
      <trkpt lat="43.59906" lon="6.9107">
        <ele>32</ele>
        <time>2011-10-16T07:14:07Z</time>
      </trkpt>
      <trkpt lat="43.59897" lon="6.91058">
        <ele>32</ele>
        <time>2011-10-16T07:14:12Z</time>
      </trkpt>
      <trkpt lat="43.59893" lon="6.91042">
        <ele>32</ele>
        <time>2011-10-16T07:14:17Z</time>
      </trkpt>
      <trkpt lat="43.59889" lon="6.91026">
        <ele>32</ele>
        <time>2011-10-16T07:14:22Z</time>
      </trkpt>
      <trkpt lat="43.59888" lon="6.91022">
        <ele>32</ele>
        <time>2011-10-16T07:14:27Z</time>
      </trkpt>
      <trkpt lat="43.59887" lon="6.91018">
        <ele>32</ele>
        <time>2011-10-16T07:14:32Z</time>
      </trkpt>
      <trkpt lat="43.59885" lon="6.91016">
        <ele>32</ele>
        <time>2011-10-16T07:14:38Z</time>
      </trkpt>
      <trkpt lat="43.59884" lon="6.91012">
        <ele>32</ele>
        <time>2011-10-16T07:14:43Z</time>
      </trkpt>
      <trkpt lat="43.59881" lon="6.9101">
        <ele>30</ele>
        <time>2011-10-16T07:14:50Z</time>
      </trkpt>
      <trkpt lat="43.59879" lon="6.91007">
        <ele>26</ele>
        <time>2011-10-16T07:14:56Z</time>
      </trkpt>
      <trkpt lat="43.59878" lon="6.9101">
        <ele>25</ele>
        <time>2011-10-16T07:15:01Z</time>
      </trkpt>
      <trkpt lat="43.59874" lon="6.91005">
        <ele>25</ele>
        <time>2011-10-16T07:15:07Z</time>
      </trkpt>
      <trkpt lat="43.59869" lon="6.91002">
        <ele>25</ele>
        <time>2011-10-16T07:15:14Z</time>
      </trkpt>
      <trkpt lat="43.5987" lon="6.90989">
        <ele>25</ele>
        <time>2011-10-16T07:15:19Z</time>
      </trkpt>
      <trkpt lat="43.59872" lon="6.90977">
        <ele>25</ele>
        <time>2011-10-16T07:15:24Z</time>
      </trkpt>
      <trkpt lat="43.59877" lon="6.90964">
        <ele>25</ele>
        <time>2011-10-16T07:15:29Z</time>
      </trkpt>
      <trkpt lat="43.59881" lon="6.90947">
        <ele>23</ele>
        <time>2011-10-16T07:15:34Z</time>
      </trkpt>
      <trkpt lat="43.59886" lon="6.90925">
        <ele>23</ele>
        <time>2011-10-16T07:15:39Z</time>
      </trkpt>
      <trkpt lat="43.59889" lon="6.90905">
        <ele>23</ele>
        <time>2011-10-16T07:15:44Z</time>
      </trkpt>
      <trkpt lat="43.59897" lon="6.90887">
        <ele>23</ele>
        <time>2011-10-16T07:15:49Z</time>
      </trkpt>
      <trkpt lat="43.59908" lon="6.90873">
        <ele>23</ele>
        <time>2011-10-16T07:15:54Z</time>
      </trkpt>
      <trkpt lat="43.59915" lon="6.90855">
        <ele>23</ele>
        <time>2011-10-16T07:15:59Z</time>
      </trkpt>
      <trkpt lat="43.59924" lon="6.90834">
        <ele>23</ele>
        <time>2011-10-16T07:16:04Z</time>
      </trkpt>
      <trkpt lat="43.59938" lon="6.90817">
        <ele>23</ele>
        <time>2011-10-16T07:16:09Z</time>
      </trkpt>
      <trkpt lat="43.59956" lon="6.9081">
        <ele>22</ele>
        <time>2011-10-16T07:16:14Z</time>
      </trkpt>
      <trkpt lat="43.59968" lon="6.90792">
        <ele>22</ele>
        <time>2011-10-16T07:16:19Z</time>
      </trkpt>
      <trkpt lat="43.59987" lon="6.90785">
        <ele>21</ele>
        <time>2011-10-16T07:16:24Z</time>
      </trkpt>
      <trkpt lat="43.60008" lon="6.90781">
        <ele>21</ele>
        <time>2011-10-16T07:16:29Z</time>
      </trkpt>
      <trkpt lat="43.60027" lon="6.90778">
        <ele>17</ele>
        <time>2011-10-16T07:16:34Z</time>
      </trkpt>
      <trkpt lat="43.60048" lon="6.90771">
        <ele>12</ele>
        <time>2011-10-16T07:16:39Z</time>
      </trkpt>
      <trkpt lat="43.60067" lon="6.90755">
        <ele>9</ele>
        <time>2011-10-16T07:16:44Z</time>
      </trkpt>
      <trkpt lat="43.60081" lon="6.90749">
        <ele>8</ele>
        <time>2011-10-16T07:16:49Z</time>
      </trkpt>
      <trkpt lat="43.60088" lon="6.90748">
        <ele>7</ele>
        <time>2011-10-16T07:16:54Z</time>
      </trkpt>
      <trkpt lat="43.60103" lon="6.90748">
        <ele>7</ele>
        <time>2011-10-16T07:16:59Z</time>
      </trkpt>
      <trkpt lat="43.60118" lon="6.90745">
        <ele>7</ele>
        <time>2011-10-16T07:17:04Z</time>
      </trkpt>
      <trkpt lat="43.60142" lon="6.9073">
        <ele>4</ele>
        <time>2011-10-16T07:17:09Z</time>
      </trkpt>
      <trkpt lat="43.60164" lon="6.90703">
        <ele>2</ele>
        <time>2011-10-16T07:17:14Z</time>
      </trkpt>
      <trkpt lat="43.60183" lon="6.90686">
        <ele>2</ele>
        <time>2011-10-16T07:17:19Z</time>
      </trkpt>
      <trkpt lat="43.60199" lon="6.90666">
        <ele>2</ele>
        <time>2011-10-16T07:17:24Z</time>
      </trkpt>
      <trkpt lat="43.60212" lon="6.90643">
        <ele>3</ele>
        <time>2011-10-16T07:17:29Z</time>
      </trkpt>
      <trkpt lat="43.60225" lon="6.90626">
        <ele>9</ele>
        <time>2011-10-16T07:17:34Z</time>
      </trkpt>
      <trkpt lat="43.60238" lon="6.9061">
        <ele>14</ele>
        <time>2011-10-16T07:17:39Z</time>
      </trkpt>
      <trkpt lat="43.6025" lon="6.9059">
        <ele>19</ele>
        <time>2011-10-16T07:17:44Z</time>
      </trkpt>
      <trkpt lat="43.60266" lon="6.90581">
        <ele>27</ele>
        <time>2011-10-16T07:17:49Z</time>
      </trkpt>
      <trkpt lat="43.60287" lon="6.90577">
        <ele>31</ele>
        <time>2011-10-16T07:17:54Z</time>
      </trkpt>
      <trkpt lat="43.60298" lon="6.90565">
        <ele>30</ele>
        <time>2011-10-16T07:17:59Z</time>
      </trkpt>
      <trkpt lat="43.60305" lon="6.90543">
        <ele>26</ele>
        <time>2011-10-16T07:18:04Z</time>
      </trkpt>
      <trkpt lat="43.60311" lon="6.90532">
        <ele>25</ele>
        <time>2011-10-16T07:18:09Z</time>
      </trkpt>
      <trkpt lat="43.60314" lon="6.90528">
        <ele>25</ele>
        <time>2011-10-16T07:18:14Z</time>
      </trkpt>
      <trkpt lat="43.60317" lon="6.90521">
        <ele>25</ele>
        <time>2011-10-16T07:18:19Z</time>
      </trkpt>
      <trkpt lat="43.60318" lon="6.90514">
        <ele>25</ele>
        <time>2011-10-16T07:18:24Z</time>
      </trkpt>
      <trkpt lat="43.6032" lon="6.90508">
        <ele>25</ele>
        <time>2011-10-16T07:18:29Z</time>
      </trkpt>
      <trkpt lat="43.60325" lon="6.90493">
        <ele>25</ele>
        <time>2011-10-16T07:18:34Z</time>
      </trkpt>
      <trkpt lat="43.60329" lon="6.90465">
        <ele>25</ele>
        <time>2011-10-16T07:18:39Z</time>
      </trkpt>
      <trkpt lat="43.60329" lon="6.90441">
        <ele>25</ele>
        <time>2011-10-16T07:18:44Z</time>
      </trkpt>
      <trkpt lat="43.60324" lon="6.90418">
        <ele>25</ele>
        <time>2011-10-16T07:18:49Z</time>
      </trkpt>
      <trkpt lat="43.60318" lon="6.90395">
        <ele>25</ele>
        <time>2011-10-16T07:18:54Z</time>
      </trkpt>
      <trkpt lat="43.60313" lon="6.90372">
        <ele>25</ele>
        <time>2011-10-16T07:18:59Z</time>
      </trkpt>
      <trkpt lat="43.60312" lon="6.90351">
        <ele>25</ele>
        <time>2011-10-16T07:19:04Z</time>
      </trkpt>
      <trkpt lat="43.60311" lon="6.90333">
        <ele>25</ele>
        <time>2011-10-16T07:19:09Z</time>
      </trkpt>
      <trkpt lat="43.60314" lon="6.90319">
        <ele>25</ele>
        <time>2011-10-16T07:19:14Z</time>
      </trkpt>
      <trkpt lat="43.60319" lon="6.90309">
        <ele>25</ele>
        <time>2011-10-16T07:19:19Z</time>
      </trkpt>
      <trkpt lat="43.60324" lon="6.90297">
        <ele>25</ele>
        <time>2011-10-16T07:19:24Z</time>
      </trkpt>
      <trkpt lat="43.60328" lon="6.90283">
        <ele>25</ele>
        <time>2011-10-16T07:19:29Z</time>
      </trkpt>
      <trkpt lat="43.60329" lon="6.90269">
        <ele>25</ele>
        <time>2011-10-16T07:19:34Z</time>
      </trkpt>
      <trkpt lat="43.6033" lon="6.90261">
        <ele>25</ele>
        <time>2011-10-16T07:19:39Z</time>
      </trkpt>
      <trkpt lat="43.6033" lon="6.90256">
        <ele>25</ele>
        <time>2011-10-16T07:19:49Z</time>
      </trkpt>
      <trkpt lat="43.60333" lon="6.90251">
        <ele>25</ele>
        <time>2011-10-16T07:19:54Z</time>
      </trkpt>
      <trkpt lat="43.60346" lon="6.9025">
        <ele>25</ele>
        <time>2011-10-16T07:19:59Z</time>
      </trkpt>
      <trkpt lat="43.60361" lon="6.90248">
        <ele>26</ele>
        <time>2011-10-16T07:20:04Z</time>
      </trkpt>
      <trkpt lat="43.60375" lon="6.90241">
        <ele>27</ele>
        <time>2011-10-16T07:20:09Z</time>
      </trkpt>
      <trkpt lat="43.60388" lon="6.90234">
        <ele>30</ele>
        <time>2011-10-16T07:20:14Z</time>
      </trkpt>
      <trkpt lat="43.60402" lon="6.90226">
        <ele>33</ele>
        <time>2011-10-16T07:20:19Z</time>
      </trkpt>
      <trkpt lat="43.60418" lon="6.90221">
        <ele>36</ele>
        <time>2011-10-16T07:20:24Z</time>
      </trkpt>
      <trkpt lat="43.60434" lon="6.90216">
        <ele>36</ele>
        <time>2011-10-16T07:20:29Z</time>
      </trkpt>
      <trkpt lat="43.60448" lon="6.90204">
        <ele>36</ele>
        <time>2011-10-16T07:20:34Z</time>
      </trkpt>
      <trkpt lat="43.60461" lon="6.90194">
        <ele>39</ele>
        <time>2011-10-16T07:20:39Z</time>
      </trkpt>
      <trkpt lat="43.60479" lon="6.90192">
        <ele>39</ele>
        <time>2011-10-16T07:20:44Z</time>
      </trkpt>
      <trkpt lat="43.60496" lon="6.90188">
        <ele>39</ele>
        <time>2011-10-16T07:20:49Z</time>
      </trkpt>
      <trkpt lat="43.60512" lon="6.90191">
        <ele>39</ele>
        <time>2011-10-16T07:20:54Z</time>
      </trkpt>
      <trkpt lat="43.60527" lon="6.90201">
        <ele>39</ele>
        <time>2011-10-16T07:20:59Z</time>
      </trkpt>
      <trkpt lat="43.60541" lon="6.90211">
        <ele>39</ele>
        <time>2011-10-16T07:21:04Z</time>
      </trkpt>
      <trkpt lat="43.60553" lon="6.90225">
        <ele>38</ele>
        <time>2011-10-16T07:21:09Z</time>
      </trkpt>
      <trkpt lat="43.60564" lon="6.90243">
        <ele>38</ele>
        <time>2011-10-16T07:21:14Z</time>
      </trkpt>
      <trkpt lat="43.60573" lon="6.90263">
        <ele>38</ele>
        <time>2011-10-16T07:21:19Z</time>
      </trkpt>
      <trkpt lat="43.60582" lon="6.90283">
        <ele>38</ele>
        <time>2011-10-16T07:21:24Z</time>
      </trkpt>
      <trkpt lat="43.60591" lon="6.90304">
        <ele>38</ele>
        <time>2011-10-16T07:21:29Z</time>
      </trkpt>
      <trkpt lat="43.60603" lon="6.9032">
        <ele>38</ele>
        <time>2011-10-16T07:21:34Z</time>
      </trkpt>
      <trkpt lat="43.60613" lon="6.90338">
        <ele>38</ele>
        <time>2011-10-16T07:21:39Z</time>
      </trkpt>
      <trkpt lat="43.60615" lon="6.90362">
        <ele>38</ele>
        <time>2011-10-16T07:21:44Z</time>
      </trkpt>
      <trkpt lat="43.6061" lon="6.90383">
        <ele>38</ele>
        <time>2011-10-16T07:21:49Z</time>
      </trkpt>
      <trkpt lat="43.6061" lon="6.90393">
        <ele>38</ele>
        <time>2011-10-16T07:21:55Z</time>
      </trkpt>
      <trkpt lat="43.60617" lon="6.9039">
        <ele>38</ele>
        <time>2011-10-16T07:22:00Z</time>
      </trkpt>
      <trkpt lat="43.60629" lon="6.90365">
        <ele>36</ele>
        <time>2011-10-16T07:22:05Z</time>
      </trkpt>
      <trkpt lat="43.6065" lon="6.90324">
        <ele>32</ele>
        <time>2011-10-16T07:22:10Z</time>
      </trkpt>
      <trkpt lat="43.60671" lon="6.90286">
        <ele>30</ele>
        <time>2011-10-16T07:22:15Z</time>
      </trkpt>
      <trkpt lat="43.60669" lon="6.90251">
        <ele>29</ele>
        <time>2011-10-16T07:22:20Z</time>
      </trkpt>
      <trkpt lat="43.60663" lon="6.90214">
        <ele>28</ele>
        <time>2011-10-16T07:22:25Z</time>
      </trkpt>
      <trkpt lat="43.60663" lon="6.90177">
        <ele>28</ele>
        <time>2011-10-16T07:22:30Z</time>
      </trkpt>
      <trkpt lat="43.60664" lon="6.90141">
        <ele>28</ele>
        <time>2011-10-16T07:22:35Z</time>
      </trkpt>
      <trkpt lat="43.60672" lon="6.90115">
        <ele>28</ele>
        <time>2011-10-16T07:22:40Z</time>
      </trkpt>
      <trkpt lat="43.60688" lon="6.90095">
        <ele>27</ele>
        <time>2011-10-16T07:22:45Z</time>
      </trkpt>
      <trkpt lat="43.60703" lon="6.90073">
        <ele>26</ele>
        <time>2011-10-16T07:22:50Z</time>
      </trkpt>
      <trkpt lat="43.60717" lon="6.90049">
        <ele>25</ele>
        <time>2011-10-16T07:22:55Z</time>
      </trkpt>
      <trkpt lat="43.60729" lon="6.90024">
        <ele>24</ele>
        <time>2011-10-16T07:23:00Z</time>
      </trkpt>
      <trkpt lat="43.60741" lon="6.90001">
        <ele>23</ele>
        <time>2011-10-16T07:23:05Z</time>
      </trkpt>
      <trkpt lat="43.60755" lon="6.89977">
        <ele>23</ele>
        <time>2011-10-16T07:23:10Z</time>
      </trkpt>
      <trkpt lat="43.60768" lon="6.89953">
        <ele>22</ele>
        <time>2011-10-16T07:23:15Z</time>
      </trkpt>
      <trkpt lat="43.6078" lon="6.8993">
        <ele>22</ele>
        <time>2011-10-16T07:23:20Z</time>
      </trkpt>
      <trkpt lat="43.60791" lon="6.89907">
        <ele>22</ele>
        <time>2011-10-16T07:23:25Z</time>
      </trkpt>
      <trkpt lat="43.60801" lon="6.89884">
        <ele>21</ele>
        <time>2011-10-16T07:23:30Z</time>
      </trkpt>
      <trkpt lat="43.60809" lon="6.8986">
        <ele>21</ele>
        <time>2011-10-16T07:23:35Z</time>
      </trkpt>
      <trkpt lat="43.60823" lon="6.89842">
        <ele>21</ele>
        <time>2011-10-16T07:23:40Z</time>
      </trkpt>
      <trkpt lat="43.60838" lon="6.89829">
        <ele>21</ele>
        <time>2011-10-16T07:23:45Z</time>
      </trkpt>
      <trkpt lat="43.60856" lon="6.89817">
        <ele>21</ele>
        <time>2011-10-16T07:23:50Z</time>
      </trkpt>
      <trkpt lat="43.60872" lon="6.898">
        <ele>20</ele>
        <time>2011-10-16T07:23:55Z</time>
      </trkpt>
      <trkpt lat="43.60886" lon="6.8978">
        <ele>20</ele>
        <time>2011-10-16T07:24:00Z</time>
      </trkpt>
      <trkpt lat="43.60899" lon="6.89759">
        <ele>20</ele>
        <time>2011-10-16T07:24:05Z</time>
      </trkpt>
      <trkpt lat="43.60908" lon="6.8973">
        <ele>20</ele>
        <time>2011-10-16T07:24:10Z</time>
      </trkpt>
      <trkpt lat="43.60918" lon="6.89704">
        <ele>23</ele>
        <time>2011-10-16T07:24:15Z</time>
      </trkpt>
      <trkpt lat="43.60929" lon="6.89678">
        <ele>27</ele>
        <time>2011-10-16T07:24:20Z</time>
      </trkpt>
      <trkpt lat="43.60941" lon="6.89654">
        <ele>27</ele>
        <time>2011-10-16T07:24:25Z</time>
      </trkpt>
      <trkpt lat="43.60953" lon="6.8963">
        <ele>27</ele>
        <time>2011-10-16T07:24:30Z</time>
      </trkpt>
      <trkpt lat="43.60965" lon="6.89607">
        <ele>27</ele>
        <time>2011-10-16T07:24:35Z</time>
      </trkpt>
      <trkpt lat="43.60981" lon="6.89587">
        <ele>31</ele>
        <time>2011-10-16T07:24:40Z</time>
      </trkpt>
      <trkpt lat="43.60999" lon="6.89572">
        <ele>33</ele>
        <time>2011-10-16T07:24:45Z</time>
      </trkpt>
      <trkpt lat="43.61016" lon="6.89559">
        <ele>33</ele>
        <time>2011-10-16T07:24:50Z</time>
      </trkpt>
      <trkpt lat="43.61031" lon="6.89551">
        <ele>34</ele>
        <time>2011-10-16T07:24:55Z</time>
      </trkpt>
      <trkpt lat="43.61042" lon="6.89554">
        <ele>34</ele>
        <time>2011-10-16T07:25:00Z</time>
      </trkpt>
      <trkpt lat="43.61048" lon="6.89555">
        <ele>32</ele>
        <time>2011-10-16T07:25:05Z</time>
      </trkpt>
      <trkpt lat="43.61049" lon="6.89553">
        <ele>32</ele>
        <time>2011-10-16T07:25:10Z</time>
      </trkpt>
      <trkpt lat="43.6105" lon="6.89548">
        <ele>37</ele>
        <time>2011-10-16T07:25:16Z</time>
      </trkpt>
      <trkpt lat="43.61056" lon="6.89544">
        <ele>42</ele>
        <time>2011-10-16T07:25:21Z</time>
      </trkpt>
      <trkpt lat="43.61061" lon="6.89541">
        <ele>46</ele>
        <time>2011-10-16T07:25:26Z</time>
      </trkpt>
      <trkpt lat="43.61068" lon="6.89541">
        <ele>48</ele>
        <time>2011-10-16T07:25:31Z</time>
      </trkpt>
      <trkpt lat="43.61076" lon="6.89543">
        <ele>48</ele>
        <time>2011-10-16T07:25:36Z</time>
      </trkpt>
      <trkpt lat="43.61084" lon="6.89543">
        <ele>48</ele>
        <time>2011-10-16T07:25:41Z</time>
      </trkpt>
      <trkpt lat="43.61093" lon="6.89544">
        <ele>46</ele>
        <time>2011-10-16T07:25:46Z</time>
      </trkpt>
      <trkpt lat="43.611" lon="6.89542">
        <ele>46</ele>
        <time>2011-10-16T07:25:51Z</time>
      </trkpt>
      <trkpt lat="43.61107" lon="6.8954">
        <ele>46</ele>
        <time>2011-10-16T07:25:57Z</time>
      </trkpt>
      <trkpt lat="43.61112" lon="6.89547">
        <ele>46</ele>
        <time>2011-10-16T07:26:02Z</time>
      </trkpt>
      <trkpt lat="43.6111" lon="6.89557">
        <ele>46</ele>
        <time>2011-10-16T07:26:07Z</time>
      </trkpt>
      <trkpt lat="43.61103" lon="6.89562">
        <ele>46</ele>
        <time>2011-10-16T07:26:12Z</time>
      </trkpt>
      <trkpt lat="43.61095" lon="6.89566">
        <ele>47</ele>
        <time>2011-10-16T07:26:17Z</time>
      </trkpt>
      <trkpt lat="43.61089" lon="6.89571">
        <ele>47</ele>
        <time>2011-10-16T07:26:22Z</time>
      </trkpt>
      <trkpt lat="43.61083" lon="6.89576">
        <ele>47</ele>
        <time>2011-10-16T07:26:27Z</time>
      </trkpt>
      <trkpt lat="43.61076" lon="6.8958">
        <ele>47</ele>
        <time>2011-10-16T07:26:32Z</time>
      </trkpt>
      <trkpt lat="43.61071" lon="6.89584">
        <ele>48</ele>
        <time>2011-10-16T07:26:37Z</time>
      </trkpt>
      <trkpt lat="43.61065" lon="6.89589">
        <ele>48</ele>
        <time>2011-10-16T07:26:42Z</time>
      </trkpt>
      <trkpt lat="43.61058" lon="6.89593">
        <ele>49</ele>
        <time>2011-10-16T07:26:47Z</time>
      </trkpt>
      <trkpt lat="43.61052" lon="6.89599">
        <ele>49</ele>
        <time>2011-10-16T07:26:52Z</time>
      </trkpt>
      <trkpt lat="43.61053" lon="6.89609">
        <ele>51</ele>
        <time>2011-10-16T07:26:57Z</time>
      </trkpt>
      <trkpt lat="43.6106" lon="6.8961">
        <ele>51</ele>
        <time>2011-10-16T07:27:02Z</time>
      </trkpt>
      <trkpt lat="43.61067" lon="6.89609">
        <ele>52</ele>
        <time>2011-10-16T07:27:07Z</time>
      </trkpt>
      <trkpt lat="43.61075" lon="6.89609">
        <ele>53</ele>
        <time>2011-10-16T07:27:12Z</time>
      </trkpt>
      <trkpt lat="43.61081" lon="6.89611">
        <ele>55</ele>
        <time>2011-10-16T07:27:17Z</time>
      </trkpt>
      <trkpt lat="43.61089" lon="6.89614">
        <ele>55</ele>
        <time>2011-10-16T07:27:22Z</time>
      </trkpt>
      <trkpt lat="43.61095" lon="6.89616">
        <ele>55</ele>
        <time>2011-10-16T07:27:27Z</time>
      </trkpt>
      <trkpt lat="43.61103" lon="6.89617">
        <ele>55</ele>
        <time>2011-10-16T07:27:32Z</time>
      </trkpt>
      <trkpt lat="43.61112" lon="6.89615">
        <ele>55</ele>
        <time>2011-10-16T07:27:37Z</time>
      </trkpt>
      <trkpt lat="43.61118" lon="6.89615">
        <ele>57</ele>
        <time>2011-10-16T07:27:42Z</time>
      </trkpt>
      <trkpt lat="43.6112" lon="6.89623">
        <ele>58</ele>
        <time>2011-10-16T07:27:47Z</time>
      </trkpt>
      <trkpt lat="43.61116" lon="6.8963">
        <ele>59</ele>
        <time>2011-10-16T07:27:52Z</time>
      </trkpt>
      <trkpt lat="43.61108" lon="6.89634">
        <ele>60</ele>
        <time>2011-10-16T07:27:57Z</time>
      </trkpt>
      <trkpt lat="43.611" lon="6.89637">
        <ele>61</ele>
        <time>2011-10-16T07:28:02Z</time>
      </trkpt>
      <trkpt lat="43.61092" lon="6.89642">
        <ele>62</ele>
        <time>2011-10-16T07:28:07Z</time>
      </trkpt>
      <trkpt lat="43.61085" lon="6.89643">
        <ele>63</ele>
        <time>2011-10-16T07:28:12Z</time>
      </trkpt>
      <trkpt lat="43.61077" lon="6.8964">
        <ele>64</ele>
        <time>2011-10-16T07:28:17Z</time>
      </trkpt>
      <trkpt lat="43.61069" lon="6.8964">
        <ele>65</ele>
        <time>2011-10-16T07:28:22Z</time>
      </trkpt>
      <trkpt lat="43.61062" lon="6.89643">
        <ele>66</ele>
        <time>2011-10-16T07:28:27Z</time>
      </trkpt>
      <trkpt lat="43.61055" lon="6.89649">
        <ele>67</ele>
        <time>2011-10-16T07:28:32Z</time>
      </trkpt>
      <trkpt lat="43.6105" lon="6.89658">
        <ele>67</ele>
        <time>2011-10-16T07:28:37Z</time>
      </trkpt>
      <trkpt lat="43.61045" lon="6.89667">
        <ele>67</ele>
        <time>2011-10-16T07:28:42Z</time>
      </trkpt>
      <trkpt lat="43.6104" lon="6.89674">
        <ele>67</ele>
        <time>2011-10-16T07:28:47Z</time>
      </trkpt>
      <trkpt lat="43.61034" lon="6.89683">
        <ele>69</ele>
        <time>2011-10-16T07:28:53Z</time>
      </trkpt>
      <trkpt lat="43.6103" lon="6.89691">
        <ele>70</ele>
        <time>2011-10-16T07:28:58Z</time>
      </trkpt>
      <trkpt lat="43.61027" lon="6.89701">
        <ele>72</ele>
        <time>2011-10-16T07:29:03Z</time>
      </trkpt>
      <trkpt lat="43.61023" lon="6.8971">
        <ele>73</ele>
        <time>2011-10-16T07:29:08Z</time>
      </trkpt>
      <trkpt lat="43.6102" lon="6.8972">
        <ele>74</ele>
        <time>2011-10-16T07:29:13Z</time>
      </trkpt>
      <trkpt lat="43.61017" lon="6.89729">
        <ele>76</ele>
        <time>2011-10-16T07:29:18Z</time>
      </trkpt>
      <trkpt lat="43.61015" lon="6.89739">
        <ele>77</ele>
        <time>2011-10-16T07:29:23Z</time>
      </trkpt>
      <trkpt lat="43.61013" lon="6.89749">
        <ele>78</ele>
        <time>2011-10-16T07:29:28Z</time>
      </trkpt>
      <trkpt lat="43.61011" lon="6.89758">
        <ele>79</ele>
        <time>2011-10-16T07:29:33Z</time>
      </trkpt>
      <trkpt lat="43.61008" lon="6.89769">
        <ele>80</ele>
        <time>2011-10-16T07:29:38Z</time>
      </trkpt>
      <trkpt lat="43.61007" lon="6.89779">
        <ele>81</ele>
        <time>2011-10-16T07:29:43Z</time>
      </trkpt>
      <trkpt lat="43.61005" lon="6.89789">
        <ele>82</ele>
        <time>2011-10-16T07:29:48Z</time>
      </trkpt>
      <trkpt lat="43.61003" lon="6.89799">
        <ele>82</ele>
        <time>2011-10-16T07:29:53Z</time>
      </trkpt>
      <trkpt lat="43.61002" lon="6.89809">
        <ele>84</ele>
        <time>2011-10-16T07:29:58Z</time>
      </trkpt>
      <trkpt lat="43.61001" lon="6.89819">
        <ele>84</ele>
        <time>2011-10-16T07:30:03Z</time>
      </trkpt>
      <trkpt lat="43.61001" lon="6.89828">
        <ele>85</ele>
        <time>2011-10-16T07:30:08Z</time>
      </trkpt>
      <trkpt lat="43.61004" lon="6.89839">
        <ele>86</ele>
        <time>2011-10-16T07:30:13Z</time>
      </trkpt>
      <trkpt lat="43.61003" lon="6.8985">
        <ele>87</ele>
        <time>2011-10-16T07:30:18Z</time>
      </trkpt>
      <trkpt lat="43.60999" lon="6.89862">
        <ele>88</ele>
        <time>2011-10-16T07:30:23Z</time>
      </trkpt>
      <trkpt lat="43.60993" lon="6.89871">
        <ele>88</ele>
        <time>2011-10-16T07:30:28Z</time>
      </trkpt>
      <trkpt lat="43.60987" lon="6.8988">
        <ele>88</ele>
        <time>2011-10-16T07:30:33Z</time>
      </trkpt>
      <trkpt lat="43.60982" lon="6.8989">
        <ele>88</ele>
        <time>2011-10-16T07:30:38Z</time>
      </trkpt>
      <trkpt lat="43.60977" lon="6.89902">
        <ele>88</ele>
        <time>2011-10-16T07:30:43Z</time>
      </trkpt>
      <trkpt lat="43.60972" lon="6.89913">
        <ele>88</ele>
        <time>2011-10-16T07:30:48Z</time>
      </trkpt>
      <trkpt lat="43.60968" lon="6.89925">
        <ele>89</ele>
        <time>2011-10-16T07:30:53Z</time>
      </trkpt>
      <trkpt lat="43.60965" lon="6.89937">
        <ele>90</ele>
        <time>2011-10-16T07:30:58Z</time>
      </trkpt>
      <trkpt lat="43.60963" lon="6.89949">
        <ele>91</ele>
        <time>2011-10-16T07:31:03Z</time>
      </trkpt>
      <trkpt lat="43.60961" lon="6.8996">
        <ele>92</ele>
        <time>2011-10-16T07:31:08Z</time>
      </trkpt>
      <trkpt lat="43.60958" lon="6.89972">
        <ele>93</ele>
        <time>2011-10-16T07:31:13Z</time>
      </trkpt>
      <trkpt lat="43.60957" lon="6.89987">
        <ele>94</ele>
        <time>2011-10-16T07:31:18Z</time>
      </trkpt>
      <trkpt lat="43.60957" lon="6.89999">
        <ele>95</ele>
        <time>2011-10-16T07:31:23Z</time>
      </trkpt>
      <trkpt lat="43.60956" lon="6.90011">
        <ele>95</ele>
        <time>2011-10-16T07:31:28Z</time>
      </trkpt>
      <trkpt lat="43.60959" lon="6.90022">
        <ele>96</ele>
        <time>2011-10-16T07:31:33Z</time>
      </trkpt>
      <trkpt lat="43.6096" lon="6.90035">
        <ele>96</ele>
        <time>2011-10-16T07:31:38Z</time>
      </trkpt>
      <trkpt lat="43.60965" lon="6.90048">
        <ele>96</ele>
        <time>2011-10-16T07:31:43Z</time>
      </trkpt>
      <trkpt lat="43.60966" lon="6.90054">
        <ele>97</ele>
        <time>2011-10-16T07:32:02Z</time>
      </trkpt>
      <trkpt lat="43.60965" lon="6.90054">
        <ele>98</ele>
        <time>2011-10-16T07:32:27Z</time>
      </trkpt>
      <trkpt lat="43.60967" lon="6.90055">
        <ele>99</ele>
        <time>2011-10-16T07:32:36Z</time>
      </trkpt>
      <trkpt lat="43.60974" lon="6.9006">
        <ele>100</ele>
        <time>2011-10-16T07:32:41Z</time>
      </trkpt>
      <trkpt lat="43.60988" lon="6.90064">
        <ele>101</ele>
        <time>2011-10-16T07:32:46Z</time>
      </trkpt>
      <trkpt lat="43.61002" lon="6.90083">
        <ele>102</ele>
        <time>2011-10-16T07:32:51Z</time>
      </trkpt>
      <trkpt lat="43.61015" lon="6.90105">
        <ele>102</ele>
        <time>2011-10-16T07:32:56Z</time>
      </trkpt>
      <trkpt lat="43.61033" lon="6.90123">
        <ele>103</ele>
        <time>2011-10-16T07:33:01Z</time>
      </trkpt>
      <trkpt lat="43.61047" lon="6.90143">
        <ele>104</ele>
        <time>2011-10-16T07:33:06Z</time>
      </trkpt>
      <trkpt lat="43.61065" lon="6.90162">
        <ele>105</ele>
        <time>2011-10-16T07:33:11Z</time>
      </trkpt>
      <trkpt lat="43.61082" lon="6.90169">
        <ele>105</ele>
        <time>2011-10-16T07:33:16Z</time>
      </trkpt>
      <trkpt lat="43.6109" lon="6.90179">
        <ele>105</ele>
        <time>2011-10-16T07:33:21Z</time>
      </trkpt>
      <trkpt lat="43.611" lon="6.90187">
        <ele>105</ele>
        <time>2011-10-16T07:33:26Z</time>
      </trkpt>
      <trkpt lat="43.6111" lon="6.90187">
        <ele>106</ele>
        <time>2011-10-16T07:33:31Z</time>
      </trkpt>
      <trkpt lat="43.61121" lon="6.90187">
        <ele>106</ele>
        <time>2011-10-16T07:33:36Z</time>
      </trkpt>
      <trkpt lat="43.61131" lon="6.90184">
        <ele>107</ele>
        <time>2011-10-16T07:33:41Z</time>
      </trkpt>
      <trkpt lat="43.61142" lon="6.90183">
        <ele>107</ele>
        <time>2011-10-16T07:33:46Z</time>
      </trkpt>
      <trkpt lat="43.61152" lon="6.90186">
        <ele>108</ele>
        <time>2011-10-16T07:33:51Z</time>
      </trkpt>
      <trkpt lat="43.6116" lon="6.90199">
        <ele>108</ele>
        <time>2011-10-16T07:33:56Z</time>
      </trkpt>
      <trkpt lat="43.61163" lon="6.90214">
        <ele>108</ele>
        <time>2011-10-16T07:34:01Z</time>
      </trkpt>
      <trkpt lat="43.61162" lon="6.90233">
        <ele>108</ele>
        <time>2011-10-16T07:34:06Z</time>
      </trkpt>
      <trkpt lat="43.61154" lon="6.90249">
        <ele>108</ele>
        <time>2011-10-16T07:34:11Z</time>
      </trkpt>
      <trkpt lat="43.61144" lon="6.90262">
        <ele>109</ele>
        <time>2011-10-16T07:34:16Z</time>
      </trkpt>
      <trkpt lat="43.61136" lon="6.90277">
        <ele>109</ele>
        <time>2011-10-16T07:34:21Z</time>
      </trkpt>
      <trkpt lat="43.61132" lon="6.90297">
        <ele>110</ele>
        <time>2011-10-16T07:34:26Z</time>
      </trkpt>
      <trkpt lat="43.6113" lon="6.90317">
        <ele>111</ele>
        <time>2011-10-16T07:34:31Z</time>
      </trkpt>
      <trkpt lat="43.61128" lon="6.90337">
        <ele>112</ele>
        <time>2011-10-16T07:34:36Z</time>
      </trkpt>
      <trkpt lat="43.61126" lon="6.90355">
        <ele>113</ele>
        <time>2011-10-16T07:34:41Z</time>
      </trkpt>
      <trkpt lat="43.61126" lon="6.90374">
        <ele>113</ele>
        <time>2011-10-16T07:34:46Z</time>
      </trkpt>
      <trkpt lat="43.61131" lon="6.90391">
        <ele>113</ele>
        <time>2011-10-16T07:34:51Z</time>
      </trkpt>
      <trkpt lat="43.6114" lon="6.90403">
        <ele>113</ele>
        <time>2011-10-16T07:34:56Z</time>
      </trkpt>
      <trkpt lat="43.61148" lon="6.90419">
        <ele>113</ele>
        <time>2011-10-16T07:35:01Z</time>
      </trkpt>
      <trkpt lat="43.61155" lon="6.9044">
        <ele>113</ele>
        <time>2011-10-16T07:35:06Z</time>
      </trkpt>
      <trkpt lat="43.61158" lon="6.90457">
        <ele>113</ele>
        <time>2011-10-16T07:35:11Z</time>
      </trkpt>
      <trkpt lat="43.61156" lon="6.90477">
        <ele>114</ele>
        <time>2011-10-16T07:35:16Z</time>
      </trkpt>
      <trkpt lat="43.61148" lon="6.90492">
        <ele>115</ele>
        <time>2011-10-16T07:35:21Z</time>
      </trkpt>
      <trkpt lat="43.61142" lon="6.90512">
        <ele>115</ele>
        <time>2011-10-16T07:35:26Z</time>
      </trkpt>
      <trkpt lat="43.61147" lon="6.90531">
        <ele>115</ele>
        <time>2011-10-16T07:35:31Z</time>
      </trkpt>
      <trkpt lat="43.6116" lon="6.90539">
        <ele>115</ele>
        <time>2011-10-16T07:35:36Z</time>
      </trkpt>
      <trkpt lat="43.61172" lon="6.90545">
        <ele>116</ele>
        <time>2011-10-16T07:35:41Z</time>
      </trkpt>
      <trkpt lat="43.61184" lon="6.90551">
        <ele>116</ele>
        <time>2011-10-16T07:35:46Z</time>
      </trkpt>
      <trkpt lat="43.6119" lon="6.90564">
        <ele>116</ele>
        <time>2011-10-16T07:35:51Z</time>
      </trkpt>
      <trkpt lat="43.61184" lon="6.90579">
        <ele>117</ele>
        <time>2011-10-16T07:35:56Z</time>
      </trkpt>
      <trkpt lat="43.61177" lon="6.90596">
        <ele>118</ele>
        <time>2011-10-16T07:36:01Z</time>
      </trkpt>
      <trkpt lat="43.61172" lon="6.90613">
        <ele>119</ele>
        <time>2011-10-16T07:36:06Z</time>
      </trkpt>
      <trkpt lat="43.61172" lon="6.90632">
        <ele>119</ele>
        <time>2011-10-16T07:36:11Z</time>
      </trkpt>
      <trkpt lat="43.61175" lon="6.90651">
        <ele>119</ele>
        <time>2011-10-16T07:36:16Z</time>
      </trkpt>
      <trkpt lat="43.61179" lon="6.90668">
        <ele>119</ele>
        <time>2011-10-16T07:36:21Z</time>
      </trkpt>
      <trkpt lat="43.6118" lon="6.90686">
        <ele>120</ele>
        <time>2011-10-16T07:36:26Z</time>
      </trkpt>
      <trkpt lat="43.61173" lon="6.907">
        <ele>121</ele>
        <time>2011-10-16T07:36:31Z</time>
      </trkpt>
      <trkpt lat="43.61169" lon="6.90716">
        <ele>122</ele>
        <time>2011-10-16T07:36:36Z</time>
      </trkpt>
      <trkpt lat="43.61171" lon="6.90734">
        <ele>123</ele>
        <time>2011-10-16T07:36:41Z</time>
      </trkpt>
      <trkpt lat="43.61176" lon="6.90751">
        <ele>123</ele>
        <time>2011-10-16T07:36:46Z</time>
      </trkpt>
      <trkpt lat="43.61176" lon="6.90769">
        <ele>123</ele>
        <time>2011-10-16T07:36:51Z</time>
      </trkpt>
      <trkpt lat="43.61183" lon="6.90782">
        <ele>123</ele>
        <time>2011-10-16T07:36:56Z</time>
      </trkpt>
      <trkpt lat="43.61188" lon="6.90796">
        <ele>123</ele>
        <time>2011-10-16T07:37:01Z</time>
      </trkpt>
      <trkpt lat="43.61187" lon="6.9081">
        <ele>123</ele>
        <time>2011-10-16T07:37:06Z</time>
      </trkpt>
      <trkpt lat="43.61179" lon="6.90818">
        <ele>125</ele>
        <time>2011-10-16T07:37:11Z</time>
      </trkpt>
      <trkpt lat="43.61171" lon="6.90826">
        <ele>125</ele>
        <time>2011-10-16T07:37:16Z</time>
      </trkpt>
      <trkpt lat="43.61174" lon="6.90836">
        <ele>125</ele>
        <time>2011-10-16T07:37:21Z</time>
      </trkpt>
      <trkpt lat="43.61182" lon="6.90841">
        <ele>126</ele>
        <time>2011-10-16T07:37:26Z</time>
      </trkpt>
      <trkpt lat="43.6119" lon="6.90846">
        <ele>128</ele>
        <time>2011-10-16T07:37:31Z</time>
      </trkpt>
      <trkpt lat="43.61198" lon="6.9085">
        <ele>129</ele>
        <time>2011-10-16T07:37:36Z</time>
      </trkpt>
      <trkpt lat="43.61207" lon="6.90853">
        <ele>130</ele>
        <time>2011-10-16T07:37:41Z</time>
      </trkpt>
      <trkpt lat="43.61216" lon="6.90855">
        <ele>131</ele>
        <time>2011-10-16T07:37:46Z</time>
      </trkpt>
      <trkpt lat="43.61226" lon="6.90851">
        <ele>131</ele>
        <time>2011-10-16T07:37:51Z</time>
      </trkpt>
      <trkpt lat="43.61234" lon="6.90844">
        <ele>131</ele>
        <time>2011-10-16T07:37:56Z</time>
      </trkpt>
      <trkpt lat="43.61241" lon="6.90837">
        <ele>132</ele>
        <time>2011-10-16T07:38:01Z</time>
      </trkpt>
      <trkpt lat="43.61248" lon="6.90832">
        <ele>133</ele>
        <time>2011-10-16T07:38:06Z</time>
      </trkpt>
      <trkpt lat="43.61256" lon="6.90827">
        <ele>133</ele>
        <time>2011-10-16T07:38:11Z</time>
      </trkpt>
      <trkpt lat="43.61263" lon="6.90824">
        <ele>134</ele>
        <time>2011-10-16T07:38:16Z</time>
      </trkpt>
      <trkpt lat="43.61272" lon="6.90819">
        <ele>136</ele>
        <time>2011-10-16T07:38:21Z</time>
      </trkpt>
      <trkpt lat="43.61274" lon="6.90808">
        <ele>137</ele>
        <time>2011-10-16T07:38:26Z</time>
      </trkpt>
      <trkpt lat="43.61272" lon="6.90797">
        <ele>137</ele>
        <time>2011-10-16T07:38:31Z</time>
      </trkpt>
      <trkpt lat="43.61266" lon="6.9079">
        <ele>137</ele>
        <time>2011-10-16T07:38:36Z</time>
      </trkpt>
      <trkpt lat="43.6126" lon="6.90784">
        <ele>138</ele>
        <time>2011-10-16T07:38:41Z</time>
      </trkpt>
      <trkpt lat="43.61255" lon="6.90775">
        <ele>138</ele>
        <time>2011-10-16T07:38:46Z</time>
      </trkpt>
      <trkpt lat="43.61249" lon="6.90768">
        <ele>138</ele>
        <time>2011-10-16T07:38:51Z</time>
      </trkpt>
      <trkpt lat="43.61244" lon="6.9076">
        <ele>139</ele>
        <time>2011-10-16T07:38:56Z</time>
      </trkpt>
      <trkpt lat="43.61241" lon="6.9075">
        <ele>140</ele>
        <time>2011-10-16T07:39:01Z</time>
      </trkpt>
      <trkpt lat="43.61241" lon="6.90738">
        <ele>142</ele>
        <time>2011-10-16T07:39:06Z</time>
      </trkpt>
      <trkpt lat="43.61242" lon="6.90728">
        <ele>143</ele>
        <time>2011-10-16T07:39:11Z</time>
      </trkpt>
      <trkpt lat="43.61246" lon="6.90717">
        <ele>144</ele>
        <time>2011-10-16T07:39:16Z</time>
      </trkpt>
      <trkpt lat="43.6125" lon="6.90706">
        <ele>145</ele>
        <time>2011-10-16T07:39:21Z</time>
      </trkpt>
      <trkpt lat="43.61252" lon="6.90696">
        <ele>145</ele>
        <time>2011-10-16T07:39:26Z</time>
      </trkpt>
      <trkpt lat="43.61253" lon="6.90684">
        <ele>146</ele>
        <time>2011-10-16T07:39:31Z</time>
      </trkpt>
      <trkpt lat="43.61253" lon="6.90672">
        <ele>147</ele>
        <time>2011-10-16T07:39:36Z</time>
      </trkpt>
      <trkpt lat="43.61253" lon="6.90661">
        <ele>148</ele>
        <time>2011-10-16T07:39:41Z</time>
      </trkpt>
      <trkpt lat="43.61256" lon="6.9065">
        <ele>149</ele>
        <time>2011-10-16T07:39:46Z</time>
      </trkpt>
      <trkpt lat="43.6126" lon="6.9064">
        <ele>150</ele>
        <time>2011-10-16T07:39:51Z</time>
      </trkpt>
      <trkpt lat="43.61264" lon="6.90631">
        <ele>150</ele>
        <time>2011-10-16T07:39:56Z</time>
      </trkpt>
      <trkpt lat="43.61268" lon="6.90621">
        <ele>151</ele>
        <time>2011-10-16T07:40:01Z</time>
      </trkpt>
      <trkpt lat="43.61271" lon="6.90611">
        <ele>152</ele>
        <time>2011-10-16T07:40:06Z</time>
      </trkpt>
      <trkpt lat="43.61275" lon="6.90602">
        <ele>153</ele>
        <time>2011-10-16T07:40:11Z</time>
      </trkpt>
      <trkpt lat="43.6128" lon="6.90593">
        <ele>154</ele>
        <time>2011-10-16T07:40:16Z</time>
      </trkpt>
      <trkpt lat="43.61284" lon="6.90583">
        <ele>154</ele>
        <time>2011-10-16T07:40:21Z</time>
      </trkpt>
      <trkpt lat="43.61285" lon="6.90571">
        <ele>155</ele>
        <time>2011-10-16T07:40:26Z</time>
      </trkpt>
      <trkpt lat="43.61283" lon="6.9056">
        <ele>156</ele>
        <time>2011-10-16T07:40:31Z</time>
      </trkpt>
      <trkpt lat="43.6128" lon="6.90549">
        <ele>156</ele>
        <time>2011-10-16T07:40:36Z</time>
      </trkpt>
      <trkpt lat="43.61278" lon="6.90538">
        <ele>156</ele>
        <time>2011-10-16T07:40:41Z</time>
      </trkpt>
      <trkpt lat="43.61282" lon="6.90528">
        <ele>157</ele>
        <time>2011-10-16T07:40:46Z</time>
      </trkpt>
      <trkpt lat="43.61288" lon="6.90521">
        <ele>159</ele>
        <time>2011-10-16T07:40:51Z</time>
      </trkpt>
      <trkpt lat="43.61295" lon="6.9052">
        <ele>160</ele>
        <time>2011-10-16T07:40:56Z</time>
      </trkpt>
      <trkpt lat="43.61304" lon="6.90519">
        <ele>160</ele>
        <time>2011-10-16T07:41:01Z</time>
      </trkpt>
      <trkpt lat="43.61313" lon="6.90518">
        <ele>160</ele>
        <time>2011-10-16T07:41:06Z</time>
      </trkpt>
      <trkpt lat="43.61321" lon="6.90516">
        <ele>160</ele>
        <time>2011-10-16T07:41:11Z</time>
      </trkpt>
      <trkpt lat="43.6133" lon="6.90514">
        <ele>161</ele>
        <time>2011-10-16T07:41:16Z</time>
      </trkpt>
      <trkpt lat="43.61338" lon="6.90513">
        <ele>162</ele>
        <time>2011-10-16T07:41:21Z</time>
      </trkpt>
      <trkpt lat="43.61347" lon="6.90508">
        <ele>162</ele>
        <time>2011-10-16T07:41:26Z</time>
      </trkpt>
      <trkpt lat="43.61354" lon="6.90499">
        <ele>162</ele>
        <time>2011-10-16T07:41:31Z</time>
      </trkpt>
      <trkpt lat="43.61356" lon="6.90485">
        <ele>162</ele>
        <time>2011-10-16T07:41:36Z</time>
      </trkpt>
      <trkpt lat="43.6135" lon="6.90475">
        <ele>164</ele>
        <time>2011-10-16T07:41:41Z</time>
      </trkpt>
      <trkpt lat="43.61342" lon="6.90469">
        <ele>165</ele>
        <time>2011-10-16T07:41:46Z</time>
      </trkpt>
      <trkpt lat="43.61333" lon="6.90464">
        <ele>165</ele>
        <time>2011-10-16T07:41:51Z</time>
      </trkpt>
      <trkpt lat="43.61324" lon="6.90458">
        <ele>165</ele>
        <time>2011-10-16T07:41:56Z</time>
      </trkpt>
      <trkpt lat="43.61314" lon="6.90451">
        <ele>165</ele>
        <time>2011-10-16T07:42:01Z</time>
      </trkpt>
      <trkpt lat="43.61304" lon="6.90442">
        <ele>165</ele>
        <time>2011-10-16T07:42:06Z</time>
      </trkpt>
      <trkpt lat="43.61294" lon="6.90435">
        <ele>165</ele>
        <time>2011-10-16T07:42:11Z</time>
      </trkpt>
      <trkpt lat="43.61284" lon="6.90427">
        <ele>165</ele>
        <time>2011-10-16T07:42:16Z</time>
      </trkpt>
      <trkpt lat="43.61274" lon="6.90419">
        <ele>165</ele>
        <time>2011-10-16T07:42:21Z</time>
      </trkpt>
      <trkpt lat="43.61266" lon="6.90409">
        <ele>165</ele>
        <time>2011-10-16T07:42:26Z</time>
      </trkpt>
      <trkpt lat="43.6126" lon="6.90395">
        <ele>165</ele>
        <time>2011-10-16T07:42:31Z</time>
      </trkpt>
      <trkpt lat="43.61261" lon="6.90379">
        <ele>165</ele>
        <time>2011-10-16T07:42:36Z</time>
      </trkpt>
      <trkpt lat="43.61266" lon="6.90363">
        <ele>165</ele>
        <time>2011-10-16T07:42:41Z</time>
      </trkpt>
      <trkpt lat="43.61273" lon="6.90348">
        <ele>166</ele>
        <time>2011-10-16T07:42:46Z</time>
      </trkpt>
      <trkpt lat="43.61283" lon="6.90336">
        <ele>167</ele>
        <time>2011-10-16T07:42:51Z</time>
      </trkpt>
      <trkpt lat="43.61294" lon="6.90325">
        <ele>167</ele>
        <time>2011-10-16T07:42:56Z</time>
      </trkpt>
      <trkpt lat="43.61302" lon="6.9031">
        <ele>167</ele>
        <time>2011-10-16T07:43:01Z</time>
      </trkpt>
      <trkpt lat="43.613" lon="6.90293">
        <ele>169</ele>
        <time>2011-10-16T07:43:06Z</time>
      </trkpt>
      <trkpt lat="43.61294" lon="6.90277">
        <ele>169</ele>
        <time>2011-10-16T07:43:11Z</time>
      </trkpt>
      <trkpt lat="43.61287" lon="6.90261">
        <ele>170</ele>
        <time>2011-10-16T07:43:16Z</time>
      </trkpt>
      <trkpt lat="43.61284" lon="6.90243">
        <ele>171</ele>
        <time>2011-10-16T07:43:21Z</time>
      </trkpt>
      <trkpt lat="43.61283" lon="6.90226">
        <ele>172</ele>
        <time>2011-10-16T07:43:26Z</time>
      </trkpt>
      <trkpt lat="43.61281" lon="6.90205">
        <ele>172</ele>
        <time>2011-10-16T07:43:31Z</time>
      </trkpt>
      <trkpt lat="43.61279" lon="6.90182">
        <ele>172</ele>
        <time>2011-10-16T07:43:36Z</time>
      </trkpt>
      <trkpt lat="43.6128" lon="6.90155">
        <ele>172</ele>
        <time>2011-10-16T07:43:41Z</time>
      </trkpt>
      <trkpt lat="43.61282" lon="6.9013">
        <ele>172</ele>
        <time>2011-10-16T07:43:46Z</time>
      </trkpt>
      <trkpt lat="43.61282" lon="6.90107">
        <ele>172</ele>
        <time>2011-10-16T07:43:51Z</time>
      </trkpt>
      <trkpt lat="43.61278" lon="6.90086">
        <ele>172</ele>
        <time>2011-10-16T07:43:56Z</time>
      </trkpt>
      <trkpt lat="43.61272" lon="6.90066">
        <ele>172</ele>
        <time>2011-10-16T07:44:01Z</time>
      </trkpt>
      <trkpt lat="43.61261" lon="6.90051">
        <ele>172</ele>
        <time>2011-10-16T07:44:06Z</time>
      </trkpt>
      <trkpt lat="43.61249" lon="6.9004">
        <ele>172</ele>
        <time>2011-10-16T07:44:11Z</time>
      </trkpt>
      <trkpt lat="43.61235" lon="6.90034">
        <ele>172</ele>
        <time>2011-10-16T07:44:16Z</time>
      </trkpt>
      <trkpt lat="43.61223" lon="6.90028">
        <ele>172</ele>
        <time>2011-10-16T07:44:21Z</time>
      </trkpt>
      <trkpt lat="43.61216" lon="6.90017">
        <ele>172</ele>
        <time>2011-10-16T07:44:26Z</time>
      </trkpt>
      <trkpt lat="43.61218" lon="6.90003">
        <ele>172</ele>
        <time>2011-10-16T07:44:31Z</time>
      </trkpt>
      <trkpt lat="43.61226" lon="6.89991">
        <ele>173</ele>
        <time>2011-10-16T07:44:36Z</time>
      </trkpt>
      <trkpt lat="43.61234" lon="6.89977">
        <ele>174</ele>
        <time>2011-10-16T07:44:41Z</time>
      </trkpt>
      <trkpt lat="43.61241" lon="6.89962">
        <ele>175</ele>
        <time>2011-10-16T07:44:46Z</time>
      </trkpt>
      <trkpt lat="43.61248" lon="6.89948">
        <ele>176</ele>
        <time>2011-10-16T07:44:51Z</time>
      </trkpt>
      <trkpt lat="43.61254" lon="6.89934">
        <ele>177</ele>
        <time>2011-10-16T07:44:56Z</time>
      </trkpt>
      <trkpt lat="43.61261" lon="6.89919">
        <ele>178</ele>
        <time>2011-10-16T07:45:01Z</time>
      </trkpt>
      <trkpt lat="43.61269" lon="6.89905">
        <ele>179</ele>
        <time>2011-10-16T07:45:06Z</time>
      </trkpt>
      <trkpt lat="43.61279" lon="6.89894">
        <ele>179</ele>
        <time>2011-10-16T07:45:11Z</time>
      </trkpt>
      <trkpt lat="43.6129" lon="6.89886">
        <ele>179</ele>
        <time>2011-10-16T07:45:16Z</time>
      </trkpt>
      <trkpt lat="43.61302" lon="6.8988">
        <ele>179</ele>
        <time>2011-10-16T07:45:21Z</time>
      </trkpt>
      <trkpt lat="43.61314" lon="6.89876">
        <ele>179</ele>
        <time>2011-10-16T07:45:26Z</time>
      </trkpt>
      <trkpt lat="43.61327" lon="6.89872">
        <ele>179</ele>
        <time>2011-10-16T07:45:31Z</time>
      </trkpt>
      <trkpt lat="43.6134" lon="6.89869">
        <ele>179</ele>
        <time>2011-10-16T07:45:36Z</time>
      </trkpt>
      <trkpt lat="43.61354" lon="6.8987">
        <ele>179</ele>
        <time>2011-10-16T07:45:41Z</time>
      </trkpt>
      <trkpt lat="43.61369" lon="6.89871">
        <ele>180</ele>
        <time>2011-10-16T07:45:46Z</time>
      </trkpt>
      <trkpt lat="43.61385" lon="6.89876">
        <ele>180</ele>
        <time>2011-10-16T07:45:51Z</time>
      </trkpt>
      <trkpt lat="43.61397" lon="6.89881">
        <ele>180</ele>
        <time>2011-10-16T07:45:56Z</time>
      </trkpt>
      <trkpt lat="43.61406" lon="6.89886">
        <ele>180</ele>
        <time>2011-10-16T07:46:01Z</time>
      </trkpt>
      <trkpt lat="43.61416" lon="6.89891">
        <ele>181</ele>
        <time>2011-10-16T07:46:06Z</time>
      </trkpt>
      <trkpt lat="43.61432" lon="6.89898">
        <ele>181</ele>
        <time>2011-10-16T07:46:11Z</time>
      </trkpt>
      <trkpt lat="43.61454" lon="6.89898">
        <ele>181</ele>
        <time>2011-10-16T07:46:16Z</time>
      </trkpt>
      <trkpt lat="43.6147" lon="6.89882">
        <ele>181</ele>
        <time>2011-10-16T07:46:21Z</time>
      </trkpt>
      <trkpt lat="43.61475" lon="6.89861">
        <ele>181</ele>
        <time>2011-10-16T07:46:26Z</time>
      </trkpt>
      <trkpt lat="43.61481" lon="6.89844">
        <ele>181</ele>
        <time>2011-10-16T07:46:31Z</time>
      </trkpt>
      <trkpt lat="43.61491" lon="6.89831">
        <ele>182</ele>
        <time>2011-10-16T07:46:36Z</time>
      </trkpt>
      <trkpt lat="43.61506" lon="6.89824">
        <ele>183</ele>
        <time>2011-10-16T07:46:41Z</time>
      </trkpt>
      <trkpt lat="43.61522" lon="6.8982">
        <ele>183</ele>
        <time>2011-10-16T07:46:46Z</time>
      </trkpt>
      <trkpt lat="43.61538" lon="6.8982">
        <ele>183</ele>
        <time>2011-10-16T07:46:51Z</time>
      </trkpt>
      <trkpt lat="43.61554" lon="6.8982">
        <ele>183</ele>
        <time>2011-10-16T07:46:56Z</time>
      </trkpt>
      <trkpt lat="43.6157" lon="6.89819">
        <ele>183</ele>
        <time>2011-10-16T07:47:01Z</time>
      </trkpt>
      <trkpt lat="43.61585" lon="6.8982">
        <ele>183</ele>
        <time>2011-10-16T07:47:06Z</time>
      </trkpt>
      <trkpt lat="43.616" lon="6.89823">
        <ele>183</ele>
        <time>2011-10-16T07:47:11Z</time>
      </trkpt>
      <trkpt lat="43.61615" lon="6.89827">
        <ele>183</ele>
        <time>2011-10-16T07:47:16Z</time>
      </trkpt>
      <trkpt lat="43.61628" lon="6.89835">
        <ele>183</ele>
        <time>2011-10-16T07:47:21Z</time>
      </trkpt>
      <trkpt lat="43.61642" lon="6.89846">
        <ele>183</ele>
        <time>2011-10-16T07:47:26Z</time>
      </trkpt>
      <trkpt lat="43.61656" lon="6.89859">
        <ele>183</ele>
        <time>2011-10-16T07:47:31Z</time>
      </trkpt>
      <trkpt lat="43.61666" lon="6.89875">
        <ele>183</ele>
        <time>2011-10-16T07:47:36Z</time>
      </trkpt>
      <trkpt lat="43.6168" lon="6.89887">
        <ele>184</ele>
        <time>2011-10-16T07:47:41Z</time>
      </trkpt>
      <trkpt lat="43.61695" lon="6.89893">
        <ele>185</ele>
        <time>2011-10-16T07:47:46Z</time>
      </trkpt>
      <trkpt lat="43.61712" lon="6.89897">
        <ele>185</ele>
        <time>2011-10-16T07:47:51Z</time>
      </trkpt>
      <trkpt lat="43.61732" lon="6.89874">
        <ele>185</ele>
        <time>2011-10-16T07:47:56Z</time>
      </trkpt>
      <trkpt lat="43.61747" lon="6.89838">
        <ele>185</ele>
        <time>2011-10-16T07:48:01Z</time>
      </trkpt>
      <trkpt lat="43.61745" lon="6.898">
        <ele>185</ele>
        <time>2011-10-16T07:48:06Z</time>
      </trkpt>
      <trkpt lat="43.61752" lon="6.89774">
        <ele>185</ele>
        <time>2011-10-16T07:48:11Z</time>
      </trkpt>
      <trkpt lat="43.61767" lon="6.89767">
        <ele>185</ele>
        <time>2011-10-16T07:48:16Z</time>
      </trkpt>
      <trkpt lat="43.61784" lon="6.89764">
        <ele>186</ele>
        <time>2011-10-16T07:48:21Z</time>
      </trkpt>
      <trkpt lat="43.618" lon="6.89763">
        <ele>186</ele>
        <time>2011-10-16T07:48:26Z</time>
      </trkpt>
      <trkpt lat="43.61816" lon="6.89765">
        <ele>187</ele>
        <time>2011-10-16T07:48:31Z</time>
      </trkpt>
      <trkpt lat="43.61832" lon="6.89763">
        <ele>188</ele>
        <time>2011-10-16T07:48:36Z</time>
      </trkpt>
      <trkpt lat="43.61845" lon="6.89753">
        <ele>188</ele>
        <time>2011-10-16T07:48:41Z</time>
      </trkpt>
      <trkpt lat="43.61858" lon="6.89745">
        <ele>188</ele>
        <time>2011-10-16T07:48:46Z</time>
      </trkpt>
      <trkpt lat="43.61872" lon="6.89744">
        <ele>189</ele>
        <time>2011-10-16T07:48:51Z</time>
      </trkpt>
      <trkpt lat="43.61885" lon="6.89744">
        <ele>190</ele>
        <time>2011-10-16T07:48:56Z</time>
      </trkpt>
      <trkpt lat="43.61898" lon="6.89743">
        <ele>191</ele>
        <time>2011-10-16T07:49:01Z</time>
      </trkpt>
      <trkpt lat="43.61911" lon="6.89738">
        <ele>193</ele>
        <time>2011-10-16T07:49:06Z</time>
      </trkpt>
      <trkpt lat="43.61924" lon="6.89734">
        <ele>194</ele>
        <time>2011-10-16T07:49:11Z</time>
      </trkpt>
      <trkpt lat="43.61938" lon="6.89735">
        <ele>195</ele>
        <time>2011-10-16T07:49:16Z</time>
      </trkpt>
      <trkpt lat="43.61952" lon="6.89732">
        <ele>195</ele>
        <time>2011-10-16T07:49:21Z</time>
      </trkpt>
      <trkpt lat="43.61967" lon="6.89724">
        <ele>195</ele>
        <time>2011-10-16T07:49:26Z</time>
      </trkpt>
      <trkpt lat="43.61981" lon="6.89713">
        <ele>195</ele>
        <time>2011-10-16T07:49:31Z</time>
      </trkpt>
      <trkpt lat="43.61993" lon="6.89705">
        <ele>195</ele>
        <time>2011-10-16T07:49:36Z</time>
      </trkpt>
      <trkpt lat="43.62004" lon="6.89698">
        <ele>197</ele>
        <time>2011-10-16T07:49:41Z</time>
      </trkpt>
      <trkpt lat="43.62014" lon="6.89693">
        <ele>198</ele>
        <time>2011-10-16T07:49:46Z</time>
      </trkpt>
      <trkpt lat="43.62025" lon="6.8969">
        <ele>199</ele>
        <time>2011-10-16T07:49:51Z</time>
      </trkpt>
      <trkpt lat="43.62037" lon="6.89686">
        <ele>200</ele>
        <time>2011-10-16T07:49:56Z</time>
      </trkpt>
      <trkpt lat="43.62047" lon="6.89683">
        <ele>201</ele>
        <time>2011-10-16T07:50:01Z</time>
      </trkpt>
      <trkpt lat="43.62059" lon="6.89682">
        <ele>201</ele>
        <time>2011-10-16T07:50:06Z</time>
      </trkpt>
      <trkpt lat="43.6207" lon="6.89679">
        <ele>202</ele>
        <time>2011-10-16T07:50:11Z</time>
      </trkpt>
      <trkpt lat="43.6208" lon="6.89676">
        <ele>202</ele>
        <time>2011-10-16T07:50:16Z</time>
      </trkpt>
      <trkpt lat="43.62092" lon="6.89673">
        <ele>203</ele>
        <time>2011-10-16T07:50:21Z</time>
      </trkpt>
      <trkpt lat="43.62104" lon="6.89671">
        <ele>204</ele>
        <time>2011-10-16T07:50:26Z</time>
      </trkpt>
      <trkpt lat="43.62115" lon="6.89669">
        <ele>204</ele>
        <time>2011-10-16T07:50:31Z</time>
      </trkpt>
      <trkpt lat="43.62126" lon="6.89666">
        <ele>205</ele>
        <time>2011-10-16T07:50:36Z</time>
      </trkpt>
      <trkpt lat="43.62137" lon="6.89664">
        <ele>205</ele>
        <time>2011-10-16T07:50:41Z</time>
      </trkpt>
      <trkpt lat="43.62148" lon="6.8966">
        <ele>206</ele>
        <time>2011-10-16T07:50:46Z</time>
      </trkpt>
      <trkpt lat="43.6216" lon="6.89662">
        <ele>207</ele>
        <time>2011-10-16T07:50:51Z</time>
      </trkpt>
      <trkpt lat="43.62172" lon="6.89664">
        <ele>207</ele>
        <time>2011-10-16T07:50:56Z</time>
      </trkpt>
      <trkpt lat="43.62185" lon="6.89662">
        <ele>207</ele>
        <time>2011-10-16T07:51:01Z</time>
      </trkpt>
      <trkpt lat="43.62197" lon="6.89658">
        <ele>207</ele>
        <time>2011-10-16T07:51:06Z</time>
      </trkpt>
      <trkpt lat="43.62207" lon="6.89645">
        <ele>207</ele>
        <time>2011-10-16T07:51:11Z</time>
      </trkpt>
      <trkpt lat="43.62215" lon="6.89632">
        <ele>207</ele>
        <time>2011-10-16T07:51:16Z</time>
      </trkpt>
      <trkpt lat="43.62224" lon="6.8962">
        <ele>208</ele>
        <time>2011-10-16T07:51:21Z</time>
      </trkpt>
      <trkpt lat="43.62234" lon="6.89608">
        <ele>208</ele>
        <time>2011-10-16T07:51:26Z</time>
      </trkpt>
      <trkpt lat="43.62244" lon="6.89595">
        <ele>209</ele>
        <time>2011-10-16T07:51:31Z</time>
      </trkpt>
      <trkpt lat="43.62253" lon="6.89583">
        <ele>211</ele>
        <time>2011-10-16T07:51:36Z</time>
      </trkpt>
      <trkpt lat="43.6226" lon="6.89569">
        <ele>212</ele>
        <time>2011-10-16T07:51:41Z</time>
      </trkpt>
      <trkpt lat="43.62265" lon="6.89554">
        <ele>214</ele>
        <time>2011-10-16T07:51:46Z</time>
      </trkpt>
      <trkpt lat="43.62269" lon="6.89537">
        <ele>215</ele>
        <time>2011-10-16T07:51:51Z</time>
      </trkpt>
      <trkpt lat="43.62272" lon="6.89522">
        <ele>217</ele>
        <time>2011-10-16T07:51:56Z</time>
      </trkpt>
      <trkpt lat="43.62274" lon="6.89509">
        <ele>217</ele>
        <time>2011-10-16T07:52:01Z</time>
      </trkpt>
      <trkpt lat="43.62278" lon="6.89496">
        <ele>218</ele>
        <time>2011-10-16T07:52:06Z</time>
      </trkpt>
      <trkpt lat="43.62281" lon="6.89482">
        <ele>220</ele>
        <time>2011-10-16T07:52:11Z</time>
      </trkpt>
      <trkpt lat="43.62285" lon="6.89469">
        <ele>220</ele>
        <time>2011-10-16T07:52:16Z</time>
      </trkpt>
      <trkpt lat="43.62289" lon="6.89457">
        <ele>220</ele>
        <time>2011-10-16T07:52:21Z</time>
      </trkpt>
      <trkpt lat="43.62293" lon="6.89446">
        <ele>220</ele>
        <time>2011-10-16T07:52:26Z</time>
      </trkpt>
      <trkpt lat="43.62297" lon="6.89435">
        <ele>221</ele>
        <time>2011-10-16T07:52:31Z</time>
      </trkpt>
      <trkpt lat="43.623" lon="6.89424">
        <ele>222</ele>
        <time>2011-10-16T07:52:36Z</time>
      </trkpt>
      <trkpt lat="43.62305" lon="6.89412">
        <ele>223</ele>
        <time>2011-10-16T07:52:41Z</time>
      </trkpt>
      <trkpt lat="43.6231" lon="6.89399">
        <ele>224</ele>
        <time>2011-10-16T07:52:46Z</time>
      </trkpt>
      <trkpt lat="43.62317" lon="6.89386">
        <ele>226</ele>
        <time>2011-10-16T07:52:51Z</time>
      </trkpt>
      <trkpt lat="43.62323" lon="6.89373">
        <ele>227</ele>
        <time>2011-10-16T07:52:56Z</time>
      </trkpt>
      <trkpt lat="43.62328" lon="6.89362">
        <ele>229</ele>
        <time>2011-10-16T07:53:01Z</time>
      </trkpt>
      <trkpt lat="43.62335" lon="6.89351">
        <ele>230</ele>
        <time>2011-10-16T07:53:06Z</time>
      </trkpt>
      <trkpt lat="43.6234" lon="6.89339">
        <ele>231</ele>
        <time>2011-10-16T07:53:11Z</time>
      </trkpt>
      <trkpt lat="43.62346" lon="6.89328">
        <ele>232</ele>
        <time>2011-10-16T07:53:16Z</time>
      </trkpt>
      <trkpt lat="43.62352" lon="6.89318">
        <ele>233</ele>
        <time>2011-10-16T07:53:21Z</time>
      </trkpt>
      <trkpt lat="43.62356" lon="6.8931">
        <ele>233</ele>
        <time>2011-10-16T07:53:26Z</time>
      </trkpt>
      <trkpt lat="43.62363" lon="6.89295">
        <ele>234</ele>
        <time>2011-10-16T07:53:31Z</time>
      </trkpt>
      <trkpt lat="43.62371" lon="6.89282">
        <ele>236</ele>
        <time>2011-10-16T07:53:36Z</time>
      </trkpt>
      <trkpt lat="43.62381" lon="6.89271">
        <ele>237</ele>
        <time>2011-10-16T07:53:41Z</time>
      </trkpt>
      <trkpt lat="43.6239" lon="6.89258">
        <ele>238</ele>
        <time>2011-10-16T07:53:46Z</time>
      </trkpt>
      <trkpt lat="43.62397" lon="6.89249">
        <ele>240</ele>
        <time>2011-10-16T07:53:51Z</time>
      </trkpt>
      <trkpt lat="43.624" lon="6.8924">
        <ele>241</ele>
        <time>2011-10-16T07:53:56Z</time>
      </trkpt>
      <trkpt lat="43.62405" lon="6.89235">
        <ele>241</ele>
        <time>2011-10-16T07:54:02Z</time>
      </trkpt>
      <trkpt lat="43.62411" lon="6.89233">
        <ele>242</ele>
        <time>2011-10-16T07:54:07Z</time>
      </trkpt>
      <trkpt lat="43.6241" lon="6.89226">
        <ele>242</ele>
        <time>2011-10-16T07:54:12Z</time>
      </trkpt>
      <trkpt lat="43.62415" lon="6.89223">
        <ele>242</ele>
        <time>2011-10-16T07:54:18Z</time>
      </trkpt>
      <trkpt lat="43.62417" lon="6.89215">
        <ele>242</ele>
        <time>2011-10-16T07:54:23Z</time>
      </trkpt>
      <trkpt lat="43.62421" lon="6.89212">
        <ele>243</ele>
        <time>2011-10-16T07:54:28Z</time>
      </trkpt>
      <trkpt lat="43.62419" lon="6.89214">
        <ele>243</ele>
        <time>2011-10-16T07:54:34Z</time>
      </trkpt>
      <trkpt lat="43.62423" lon="6.89205">
        <ele>243</ele>
        <time>2011-10-16T07:54:39Z</time>
      </trkpt>
      <trkpt lat="43.62427" lon="6.89194">
        <ele>243</ele>
        <time>2011-10-16T07:54:44Z</time>
      </trkpt>
      <trkpt lat="43.62431" lon="6.89183">
        <ele>244</ele>
        <time>2011-10-16T07:54:49Z</time>
      </trkpt>
      <trkpt lat="43.62434" lon="6.89171">
        <ele>245</ele>
        <time>2011-10-16T07:54:54Z</time>
      </trkpt>
      <trkpt lat="43.62439" lon="6.89161">
        <ele>246</ele>
        <time>2011-10-16T07:54:59Z</time>
      </trkpt>
      <trkpt lat="43.62445" lon="6.8915">
        <ele>247</ele>
        <time>2011-10-16T07:55:04Z</time>
      </trkpt>
      <trkpt lat="43.62451" lon="6.89139">
        <ele>248</ele>
        <time>2011-10-16T07:55:09Z</time>
      </trkpt>
      <trkpt lat="43.62458" lon="6.89127">
        <ele>249</ele>
        <time>2011-10-16T07:55:14Z</time>
      </trkpt>
      <trkpt lat="43.62465" lon="6.89115">
        <ele>251</ele>
        <time>2011-10-16T07:55:19Z</time>
      </trkpt>
      <trkpt lat="43.62472" lon="6.89102">
        <ele>252</ele>
        <time>2011-10-16T07:55:24Z</time>
      </trkpt>
      <trkpt lat="43.62479" lon="6.89092">
        <ele>253</ele>
        <time>2011-10-16T07:55:29Z</time>
      </trkpt>
      <trkpt lat="43.62486" lon="6.89082">
        <ele>253</ele>
        <time>2011-10-16T07:55:34Z</time>
      </trkpt>
      <trkpt lat="43.62492" lon="6.89072">
        <ele>254</ele>
        <time>2011-10-16T07:55:39Z</time>
      </trkpt>
      <trkpt lat="43.62498" lon="6.89061">
        <ele>254</ele>
        <time>2011-10-16T07:55:44Z</time>
      </trkpt>
      <trkpt lat="43.62505" lon="6.89051">
        <ele>254</ele>
        <time>2011-10-16T07:55:49Z</time>
      </trkpt>
      <trkpt lat="43.62514" lon="6.8904">
        <ele>254</ele>
        <time>2011-10-16T07:55:54Z</time>
      </trkpt>
      <trkpt lat="43.62521" lon="6.89028">
        <ele>254</ele>
        <time>2011-10-16T07:55:59Z</time>
      </trkpt>
      <trkpt lat="43.62525" lon="6.89017">
        <ele>254</ele>
        <time>2011-10-16T07:56:04Z</time>
      </trkpt>
      <trkpt lat="43.6253" lon="6.89006">
        <ele>254</ele>
        <time>2011-10-16T07:56:09Z</time>
      </trkpt>
      <trkpt lat="43.62535" lon="6.88994">
        <ele>254</ele>
        <time>2011-10-16T07:56:14Z</time>
      </trkpt>
      <trkpt lat="43.6254" lon="6.88983">
        <ele>254</ele>
        <time>2011-10-16T07:56:19Z</time>
      </trkpt>
      <trkpt lat="43.62543" lon="6.88971">
        <ele>254</ele>
        <time>2011-10-16T07:56:24Z</time>
      </trkpt>
      <trkpt lat="43.62546" lon="6.88958">
        <ele>254</ele>
        <time>2011-10-16T07:56:29Z</time>
      </trkpt>
      <trkpt lat="43.62549" lon="6.88945">
        <ele>255</ele>
        <time>2011-10-16T07:56:34Z</time>
      </trkpt>
      <trkpt lat="43.6255" lon="6.88931">
        <ele>256</ele>
        <time>2011-10-16T07:56:39Z</time>
      </trkpt>
      <trkpt lat="43.62552" lon="6.88918">
        <ele>257</ele>
        <time>2011-10-16T07:56:44Z</time>
      </trkpt>
      <trkpt lat="43.62553" lon="6.88904">
        <ele>258</ele>
        <time>2011-10-16T07:56:49Z</time>
      </trkpt>
      <trkpt lat="43.62553" lon="6.8889">
        <ele>259</ele>
        <time>2011-10-16T07:56:54Z</time>
      </trkpt>
      <trkpt lat="43.62553" lon="6.88876">
        <ele>260</ele>
        <time>2011-10-16T07:56:59Z</time>
      </trkpt>
      <trkpt lat="43.62553" lon="6.88863">
        <ele>261</ele>
        <time>2011-10-16T07:57:04Z</time>
      </trkpt>
      <trkpt lat="43.62552" lon="6.88848">
        <ele>261</ele>
        <time>2011-10-16T07:57:09Z</time>
      </trkpt>
      <trkpt lat="43.6255" lon="6.88835">
        <ele>262</ele>
        <time>2011-10-16T07:57:14Z</time>
      </trkpt>
      <trkpt lat="43.62548" lon="6.88821">
        <ele>262</ele>
        <time>2011-10-16T07:57:19Z</time>
      </trkpt>
      <trkpt lat="43.62547" lon="6.88806">
        <ele>262</ele>
        <time>2011-10-16T07:57:24Z</time>
      </trkpt>
      <trkpt lat="43.62545" lon="6.88792">
        <ele>263</ele>
        <time>2011-10-16T07:57:29Z</time>
      </trkpt>
      <trkpt lat="43.62542" lon="6.88776">
        <ele>263</ele>
        <time>2011-10-16T07:57:34Z</time>
      </trkpt>
      <trkpt lat="43.62539" lon="6.88761">
        <ele>264</ele>
        <time>2011-10-16T07:57:39Z</time>
      </trkpt>
      <trkpt lat="43.62536" lon="6.88743">
        <ele>264</ele>
        <time>2011-10-16T07:57:44Z</time>
      </trkpt>
      <trkpt lat="43.62531" lon="6.88726">
        <ele>264</ele>
        <time>2011-10-16T07:57:49Z</time>
      </trkpt>
      <trkpt lat="43.62526" lon="6.88708">
        <ele>264</ele>
        <time>2011-10-16T07:57:54Z</time>
      </trkpt>
      <trkpt lat="43.6252" lon="6.88691">
        <ele>264</ele>
        <time>2011-10-16T07:57:59Z</time>
      </trkpt>
      <trkpt lat="43.62514" lon="6.88675">
        <ele>264</ele>
        <time>2011-10-16T07:58:04Z</time>
      </trkpt>
      <trkpt lat="43.62509" lon="6.88676">
        <ele>264</ele>
        <time>2011-10-16T07:58:09Z</time>
      </trkpt>
      <trkpt lat="43.6251" lon="6.88677">
        <ele>264</ele>
        <time>2011-10-16T07:58:14Z</time>
      </trkpt>
      <trkpt lat="43.6251" lon="6.88678">
        <ele>263</ele>
        <time>2011-10-16T07:58:50Z</time>
      </trkpt>
      <trkpt lat="43.62505" lon="6.88682">
        <ele>263</ele>
        <time>2011-10-16T07:58:55Z</time>
      </trkpt>
      <trkpt lat="43.62496" lon="6.88685">
        <ele>263</ele>
        <time>2011-10-16T07:59:00Z</time>
      </trkpt>
      <trkpt lat="43.62487" lon="6.88694">
        <ele>263</ele>
        <time>2011-10-16T07:59:05Z</time>
      </trkpt>
      <trkpt lat="43.62479" lon="6.88705">
        <ele>263</ele>
        <time>2011-10-16T07:59:10Z</time>
      </trkpt>
      <trkpt lat="43.62476" lon="6.88719">
        <ele>263</ele>
        <time>2011-10-16T07:59:15Z</time>
      </trkpt>
      <trkpt lat="43.62476" lon="6.88736">
        <ele>263</ele>
        <time>2011-10-16T07:59:20Z</time>
      </trkpt>
      <trkpt lat="43.6247" lon="6.88749">
        <ele>263</ele>
        <time>2011-10-16T07:59:25Z</time>
      </trkpt>
      <trkpt lat="43.62458" lon="6.88751">
        <ele>263</ele>
        <time>2011-10-16T07:59:30Z</time>
      </trkpt>
      <trkpt lat="43.62445" lon="6.88752">
        <ele>263</ele>
        <time>2011-10-16T07:59:35Z</time>
      </trkpt>
      <trkpt lat="43.62441" lon="6.88763">
        <ele>263</ele>
        <time>2011-10-16T07:59:40Z</time>
      </trkpt>
      <trkpt lat="43.62441" lon="6.88781">
        <ele>263</ele>
        <time>2011-10-16T07:59:45Z</time>
      </trkpt>
      <trkpt lat="43.62442" lon="6.888">
        <ele>263</ele>
        <time>2011-10-16T07:59:50Z</time>
      </trkpt>
      <trkpt lat="43.62439" lon="6.88819">
        <ele>263</ele>
        <time>2011-10-16T07:59:55Z</time>
      </trkpt>
      <trkpt lat="43.62436" lon="6.8884">
        <ele>263</ele>
        <time>2011-10-16T08:00:00Z</time>
      </trkpt>
      <trkpt lat="43.62429" lon="6.88859">
        <ele>263</ele>
        <time>2011-10-16T08:00:05Z</time>
      </trkpt>
      <trkpt lat="43.6242" lon="6.88876">
        <ele>263</ele>
        <time>2011-10-16T08:00:10Z</time>
      </trkpt>
      <trkpt lat="43.62411" lon="6.88895">
        <ele>263</ele>
        <time>2011-10-16T08:00:15Z</time>
      </trkpt>
      <trkpt lat="43.62405" lon="6.88911">
        <ele>263</ele>
        <time>2011-10-16T08:00:20Z</time>
      </trkpt>
      <trkpt lat="43.62394" lon="6.88925">
        <ele>263</ele>
        <time>2011-10-16T08:00:25Z</time>
      </trkpt>
      <trkpt lat="43.62381" lon="6.88932">
        <ele>262</ele>
        <time>2011-10-16T08:00:30Z</time>
      </trkpt>
      <trkpt lat="43.62376" lon="6.88935">
        <ele>262</ele>
        <time>2011-10-16T08:00:41Z</time>
      </trkpt>
      <trkpt lat="43.62376" lon="6.88933">
        <ele>262</ele>
        <time>2011-10-16T08:00:51Z</time>
      </trkpt>
      <trkpt lat="43.62374" lon="6.88935">
        <ele>262</ele>
        <time>2011-10-16T08:01:30Z</time>
      </trkpt>
      <trkpt lat="43.62373" lon="6.88936">
        <ele>266</ele>
        <time>2011-10-16T08:01:55Z</time>
      </trkpt>
      <trkpt lat="43.62371" lon="6.88938">
        <ele>266</ele>
        <time>2011-10-16T08:02:03Z</time>
      </trkpt>
      <trkpt lat="43.62363" lon="6.88955">
        <ele>266</ele>
        <time>2011-10-16T08:02:08Z</time>
      </trkpt>
      <trkpt lat="43.62357" lon="6.88978">
        <ele>266</ele>
        <time>2011-10-16T08:02:13Z</time>
      </trkpt>
      <trkpt lat="43.6235" lon="6.8901">
        <ele>266</ele>
        <time>2011-10-16T08:02:18Z</time>
      </trkpt>
      <trkpt lat="43.62333" lon="6.89028">
        <ele>266</ele>
        <time>2011-10-16T08:02:23Z</time>
      </trkpt>
      <trkpt lat="43.62318" lon="6.89052">
        <ele>266</ele>
        <time>2011-10-16T08:02:28Z</time>
      </trkpt>
      <trkpt lat="43.62332" lon="6.8907">
        <ele>264</ele>
        <time>2011-10-16T08:02:33Z</time>
      </trkpt>
      <trkpt lat="43.62347" lon="6.89098">
        <ele>261</ele>
        <time>2011-10-16T08:02:38Z</time>
      </trkpt>
      <trkpt lat="43.62355" lon="6.89122">
        <ele>259</ele>
        <time>2011-10-16T08:02:43Z</time>
      </trkpt>
      <trkpt lat="43.62346" lon="6.8914">
        <ele>256</ele>
        <time>2011-10-16T08:02:48Z</time>
      </trkpt>
      <trkpt lat="43.62337" lon="6.89162">
        <ele>251</ele>
        <time>2011-10-16T08:02:53Z</time>
      </trkpt>
      <trkpt lat="43.62334" lon="6.89187">
        <ele>248</ele>
        <time>2011-10-16T08:02:58Z</time>
      </trkpt>
      <trkpt lat="43.62333" lon="6.89207">
        <ele>245</ele>
        <time>2011-10-16T08:03:03Z</time>
      </trkpt>
      <trkpt lat="43.62315" lon="6.89216">
        <ele>243</ele>
        <time>2011-10-16T08:03:08Z</time>
      </trkpt>
      <trkpt lat="43.62291" lon="6.8923">
        <ele>242</ele>
        <time>2011-10-16T08:03:13Z</time>
      </trkpt>
      <trkpt lat="43.62271" lon="6.89242">
        <ele>242</ele>
        <time>2011-10-16T08:03:18Z</time>
      </trkpt>
      <trkpt lat="43.62257" lon="6.89253">
        <ele>241</ele>
        <time>2011-10-16T08:03:23Z</time>
      </trkpt>
      <trkpt lat="43.62242" lon="6.89263">
        <ele>240</ele>
        <time>2011-10-16T08:03:28Z</time>
      </trkpt>
      <trkpt lat="43.62228" lon="6.89274">
        <ele>239</ele>
        <time>2011-10-16T08:03:33Z</time>
      </trkpt>
      <trkpt lat="43.62213" lon="6.89283">
        <ele>238</ele>
        <time>2011-10-16T08:03:38Z</time>
      </trkpt>
      <trkpt lat="43.62195" lon="6.89289">
        <ele>238</ele>
        <time>2011-10-16T08:03:43Z</time>
      </trkpt>
      <trkpt lat="43.62179" lon="6.89294">
        <ele>238</ele>
        <time>2011-10-16T08:03:48Z</time>
      </trkpt>
      <trkpt lat="43.62162" lon="6.89295">
        <ele>238</ele>
        <time>2011-10-16T08:03:53Z</time>
      </trkpt>
      <trkpt lat="43.62146" lon="6.89292">
        <ele>238</ele>
        <time>2011-10-16T08:03:58Z</time>
      </trkpt>
      <trkpt lat="43.62132" lon="6.89287">
        <ele>241</ele>
        <time>2011-10-16T08:04:03Z</time>
      </trkpt>
      <trkpt lat="43.62118" lon="6.89282">
        <ele>244</ele>
        <time>2011-10-16T08:04:08Z</time>
      </trkpt>
      <trkpt lat="43.62108" lon="6.89283">
        <ele>247</ele>
        <time>2011-10-16T08:04:13Z</time>
      </trkpt>
      <trkpt lat="43.62095" lon="6.89279">
        <ele>248</ele>
        <time>2011-10-16T08:04:18Z</time>
      </trkpt>
      <trkpt lat="43.62084" lon="6.89296">
        <ele>248</ele>
        <time>2011-10-16T08:04:23Z</time>
      </trkpt>
      <trkpt lat="43.62073" lon="6.89312">
        <ele>248</ele>
        <time>2011-10-16T08:04:28Z</time>
      </trkpt>
      <trkpt lat="43.62061" lon="6.89329">
        <ele>247</ele>
        <time>2011-10-16T08:04:33Z</time>
      </trkpt>
      <trkpt lat="43.62051" lon="6.89346">
        <ele>242</ele>
        <time>2011-10-16T08:04:38Z</time>
      </trkpt>
      <trkpt lat="43.62039" lon="6.89361">
        <ele>238</ele>
        <time>2011-10-16T08:04:43Z</time>
      </trkpt>
      <trkpt lat="43.62025" lon="6.89374">
        <ele>233</ele>
        <time>2011-10-16T08:04:48Z</time>
      </trkpt>
      <trkpt lat="43.62009" lon="6.89383">
        <ele>228</ele>
        <time>2011-10-16T08:04:53Z</time>
      </trkpt>
      <trkpt lat="43.61997" lon="6.89389">
        <ele>223</ele>
        <time>2011-10-16T08:04:58Z</time>
      </trkpt>
      <trkpt lat="43.61984" lon="6.89387">
        <ele>219</ele>
        <time>2011-10-16T08:05:03Z</time>
      </trkpt>
      <trkpt lat="43.61969" lon="6.89371">
        <ele>216</ele>
        <time>2011-10-16T08:05:08Z</time>
      </trkpt>
      <trkpt lat="43.61953" lon="6.89375">
        <ele>212</ele>
        <time>2011-10-16T08:05:13Z</time>
      </trkpt>
      <trkpt lat="43.61951" lon="6.8938">
        <ele>209</ele>
        <time>2011-10-16T08:05:21Z</time>
      </trkpt>
      <trkpt lat="43.61952" lon="6.89382">
        <ele>209</ele>
        <time>2011-10-16T08:05:38Z</time>
      </trkpt>
      <trkpt lat="43.6195" lon="6.89397">
        <ele>209</ele>
        <time>2011-10-16T08:05:43Z</time>
      </trkpt>
      <trkpt lat="43.61943" lon="6.89423">
        <ele>209</ele>
        <time>2011-10-16T08:05:48Z</time>
      </trkpt>
      <trkpt lat="43.61929" lon="6.89442">
        <ele>209</ele>
        <time>2011-10-16T08:05:53Z</time>
      </trkpt>
      <trkpt lat="43.61911" lon="6.89435">
        <ele>209</ele>
        <time>2011-10-16T08:05:58Z</time>
      </trkpt>
      <trkpt lat="43.61889" lon="6.89447">
        <ele>208</ele>
        <time>2011-10-16T08:06:03Z</time>
      </trkpt>
      <trkpt lat="43.61868" lon="6.89463">
        <ele>205</ele>
        <time>2011-10-16T08:06:08Z</time>
      </trkpt>
      <trkpt lat="43.61843" lon="6.89473">
        <ele>200</ele>
        <time>2011-10-16T08:06:13Z</time>
      </trkpt>
      <trkpt lat="43.61817" lon="6.89474">
        <ele>197</ele>
        <time>2011-10-16T08:06:18Z</time>
      </trkpt>
      <trkpt lat="43.61805" lon="6.89474">
        <ele>196</ele>
        <time>2011-10-16T08:06:23Z</time>
      </trkpt>
      <trkpt lat="43.61796" lon="6.89473">
        <ele>194</ele>
        <time>2011-10-16T08:06:28Z</time>
      </trkpt>
      <trkpt lat="43.61781" lon="6.89455">
        <ele>191</ele>
        <time>2011-10-16T08:06:33Z</time>
      </trkpt>
      <trkpt lat="43.61763" lon="6.89444">
        <ele>188</ele>
        <time>2011-10-16T08:06:38Z</time>
      </trkpt>
      <trkpt lat="43.61743" lon="6.89439">
        <ele>185</ele>
        <time>2011-10-16T08:06:43Z</time>
      </trkpt>
      <trkpt lat="43.61726" lon="6.8944">
        <ele>182</ele>
        <time>2011-10-16T08:06:48Z</time>
      </trkpt>
      <trkpt lat="43.61716" lon="6.89457">
        <ele>177</ele>
        <time>2011-10-16T08:06:53Z</time>
      </trkpt>
      <trkpt lat="43.6171" lon="6.89462">
        <ele>174</ele>
        <time>2011-10-16T08:06:58Z</time>
      </trkpt>
      <trkpt lat="43.61702" lon="6.89439">
        <ele>172</ele>
        <time>2011-10-16T08:07:03Z</time>
      </trkpt>
      <trkpt lat="43.61697" lon="6.89421">
        <ele>169</ele>
        <time>2011-10-16T08:07:08Z</time>
      </trkpt>
      <trkpt lat="43.61688" lon="6.89416">
        <ele>165</ele>
        <time>2011-10-16T08:07:13Z</time>
      </trkpt>
      <trkpt lat="43.61678" lon="6.89432">
        <ele>161</ele>
        <time>2011-10-16T08:07:18Z</time>
      </trkpt>
      <trkpt lat="43.61677" lon="6.89409">
        <ele>158</ele>
        <time>2011-10-16T08:07:23Z</time>
      </trkpt>
      <trkpt lat="43.6168" lon="6.89389">
        <ele>155</ele>
        <time>2011-10-16T08:07:28Z</time>
      </trkpt>
      <trkpt lat="43.61666" lon="6.89377">
        <ele>153</ele>
        <time>2011-10-16T08:07:33Z</time>
      </trkpt>
      <trkpt lat="43.61649" lon="6.89372">
        <ele>150</ele>
        <time>2011-10-16T08:07:38Z</time>
      </trkpt>
      <trkpt lat="43.61631" lon="6.89371">
        <ele>147</ele>
        <time>2011-10-16T08:07:43Z</time>
      </trkpt>
      <trkpt lat="43.61609" lon="6.89375">
        <ele>144</ele>
        <time>2011-10-16T08:07:48Z</time>
      </trkpt>
      <trkpt lat="43.61589" lon="6.89399">
        <ele>140</ele>
        <time>2011-10-16T08:07:53Z</time>
      </trkpt>
      <trkpt lat="43.61564" lon="6.89418">
        <ele>137</ele>
        <time>2011-10-16T08:07:58Z</time>
      </trkpt>
      <trkpt lat="43.61534" lon="6.89419">
        <ele>137</ele>
        <time>2011-10-16T08:08:03Z</time>
      </trkpt>
      <trkpt lat="43.61513" lon="6.8943">
        <ele>137</ele>
        <time>2011-10-16T08:08:08Z</time>
      </trkpt>
      <trkpt lat="43.6149" lon="6.89431">
        <ele>137</ele>
        <time>2011-10-16T08:08:13Z</time>
      </trkpt>
      <trkpt lat="43.61471" lon="6.89446">
        <ele>135</ele>
        <time>2011-10-16T08:08:18Z</time>
      </trkpt>
      <trkpt lat="43.61461" lon="6.89459">
        <ele>131</ele>
        <time>2011-10-16T08:08:23Z</time>
      </trkpt>
      <trkpt lat="43.61451" lon="6.89465">
        <ele>127</ele>
        <time>2011-10-16T08:08:28Z</time>
      </trkpt>
      <trkpt lat="43.61435" lon="6.89454">
        <ele>123</ele>
        <time>2011-10-16T08:08:33Z</time>
      </trkpt>
      <trkpt lat="43.61424" lon="6.89453">
        <ele>119</ele>
        <time>2011-10-16T08:08:38Z</time>
      </trkpt>
      <trkpt lat="43.61409" lon="6.89443">
        <ele>114</ele>
        <time>2011-10-16T08:08:43Z</time>
      </trkpt>
      <trkpt lat="43.61393" lon="6.89436">
        <ele>109</ele>
        <time>2011-10-16T08:08:48Z</time>
      </trkpt>
      <trkpt lat="43.61374" lon="6.89435">
        <ele>104</ele>
        <time>2011-10-16T08:08:53Z</time>
      </trkpt>
      <trkpt lat="43.61351" lon="6.89431">
        <ele>99</ele>
        <time>2011-10-16T08:08:58Z</time>
      </trkpt>
      <trkpt lat="43.61332" lon="6.89422">
        <ele>96</ele>
        <time>2011-10-16T08:09:03Z</time>
      </trkpt>
      <trkpt lat="43.61313" lon="6.89416">
        <ele>94</ele>
        <time>2011-10-16T08:09:08Z</time>
      </trkpt>
      <trkpt lat="43.61295" lon="6.89405">
        <ele>90</ele>
        <time>2011-10-16T08:09:13Z</time>
      </trkpt>
      <trkpt lat="43.61289" lon="6.89408">
        <ele>85</ele>
        <time>2011-10-16T08:09:18Z</time>
      </trkpt>
      <trkpt lat="43.6128" lon="6.89404">
        <ele>83</ele>
        <time>2011-10-16T08:09:23Z</time>
      </trkpt>
      <trkpt lat="43.61269" lon="6.89408">
        <ele>79</ele>
        <time>2011-10-16T08:09:28Z</time>
      </trkpt>
      <trkpt lat="43.61259" lon="6.89389">
        <ele>78</ele>
        <time>2011-10-16T08:09:33Z</time>
      </trkpt>
      <trkpt lat="43.61263" lon="6.89367">
        <ele>76</ele>
        <time>2011-10-16T08:09:38Z</time>
      </trkpt>
      <trkpt lat="43.61266" lon="6.89343">
        <ele>72</ele>
        <time>2011-10-16T08:09:43Z</time>
      </trkpt>
      <trkpt lat="43.61272" lon="6.89322">
        <ele>67</ele>
        <time>2011-10-16T08:09:48Z</time>
      </trkpt>
      <trkpt lat="43.61268" lon="6.89313">
        <ele>62</ele>
        <time>2011-10-16T08:09:53Z</time>
      </trkpt>
      <trkpt lat="43.61256" lon="6.89318">
        <ele>57</ele>
        <time>2011-10-16T08:09:58Z</time>
      </trkpt>
      <trkpt lat="43.61259" lon="6.89295">
        <ele>54</ele>
        <time>2011-10-16T08:10:03Z</time>
      </trkpt>
      <trkpt lat="43.61268" lon="6.89275">
        <ele>49</ele>
        <time>2011-10-16T08:10:08Z</time>
      </trkpt>
      <trkpt lat="43.61272" lon="6.89265">
        <ele>44</ele>
        <time>2011-10-16T08:10:13Z</time>
      </trkpt>
      <trkpt lat="43.61252" lon="6.89265">
        <ele>39</ele>
        <time>2011-10-16T08:10:18Z</time>
      </trkpt>
      <trkpt lat="43.61235" lon="6.89272">
        <ele>35</ele>
        <time>2011-10-16T08:10:23Z</time>
      </trkpt>
      <trkpt lat="43.61224" lon="6.89275">
        <ele>30</ele>
        <time>2011-10-16T08:10:28Z</time>
      </trkpt>
      <trkpt lat="43.61218" lon="6.89262">
        <ele>27</ele>
        <time>2011-10-16T08:10:33Z</time>
      </trkpt>
      <trkpt lat="43.61209" lon="6.89263">
        <ele>24</ele>
        <time>2011-10-16T08:10:38Z</time>
      </trkpt>
      <trkpt lat="43.61211" lon="6.89267">
        <ele>24</ele>
        <time>2011-10-16T08:10:50Z</time>
      </trkpt>
      <trkpt lat="43.61211" lon="6.89268">
        <ele>24</ele>
        <time>2011-10-16T08:10:55Z</time>
      </trkpt>
      <trkpt lat="43.61211" lon="6.89269">
        <ele>26</ele>
        <time>2011-10-16T08:11:17Z</time>
      </trkpt>
      <trkpt lat="43.61213" lon="6.89267">
        <ele>26</ele>
        <time>2011-10-16T08:11:22Z</time>
      </trkpt>
      <trkpt lat="43.61214" lon="6.89269">
        <ele>26</ele>
        <time>2011-10-16T08:11:27Z</time>
      </trkpt>
      <trkpt lat="43.61215" lon="6.89278">
        <ele>26</ele>
        <time>2011-10-16T08:11:32Z</time>
      </trkpt>
      <trkpt lat="43.61216" lon="6.89296">
        <ele>25</ele>
        <time>2011-10-16T08:11:37Z</time>
      </trkpt>
      <trkpt lat="43.61216" lon="6.89317">
        <ele>25</ele>
        <time>2011-10-16T08:11:42Z</time>
      </trkpt>
      <trkpt lat="43.61216" lon="6.89339">
        <ele>24</ele>
        <time>2011-10-16T08:11:47Z</time>
      </trkpt>
      <trkpt lat="43.61212" lon="6.89361">
        <ele>24</ele>
        <time>2011-10-16T08:11:52Z</time>
      </trkpt>
      <trkpt lat="43.61206" lon="6.89382">
        <ele>24</ele>
        <time>2011-10-16T08:11:57Z</time>
      </trkpt>
      <trkpt lat="43.61199" lon="6.89404">
        <ele>25</ele>
        <time>2011-10-16T08:12:02Z</time>
      </trkpt>
      <trkpt lat="43.61193" lon="6.89425">
        <ele>26</ele>
        <time>2011-10-16T08:12:07Z</time>
      </trkpt>
      <trkpt lat="43.61183" lon="6.89445">
        <ele>26</ele>
        <time>2011-10-16T08:12:12Z</time>
      </trkpt>
      <trkpt lat="43.6117" lon="6.8946">
        <ele>26</ele>
        <time>2011-10-16T08:12:17Z</time>
      </trkpt>
      <trkpt lat="43.61154" lon="6.89472">
        <ele>26</ele>
        <time>2011-10-16T08:12:22Z</time>
      </trkpt>
      <trkpt lat="43.61135" lon="6.89486">
        <ele>26</ele>
        <time>2011-10-16T08:12:27Z</time>
      </trkpt>
      <trkpt lat="43.61116" lon="6.89498">
        <ele>26</ele>
        <time>2011-10-16T08:12:32Z</time>
      </trkpt>
      <trkpt lat="43.61097" lon="6.8951">
        <ele>25</ele>
        <time>2011-10-16T08:12:37Z</time>
      </trkpt>
      <trkpt lat="43.61078" lon="6.89524">
        <ele>25</ele>
        <time>2011-10-16T08:12:42Z</time>
      </trkpt>
      <trkpt lat="43.61059" lon="6.89538">
        <ele>25</ele>
        <time>2011-10-16T08:12:47Z</time>
      </trkpt>
      <trkpt lat="43.61039" lon="6.89551">
        <ele>24</ele>
        <time>2011-10-16T08:12:52Z</time>
      </trkpt>
      <trkpt lat="43.6102" lon="6.89564">
        <ele>23</ele>
        <time>2011-10-16T08:12:57Z</time>
      </trkpt>
      <trkpt lat="43.61" lon="6.89577">
        <ele>23</ele>
        <time>2011-10-16T08:13:02Z</time>
      </trkpt>
      <trkpt lat="43.60981" lon="6.89592">
        <ele>23</ele>
        <time>2011-10-16T08:13:07Z</time>
      </trkpt>
      <trkpt lat="43.60965" lon="6.89612">
        <ele>23</ele>
        <time>2011-10-16T08:13:12Z</time>
      </trkpt>
      <trkpt lat="43.60948" lon="6.89634">
        <ele>23</ele>
        <time>2011-10-16T08:13:17Z</time>
      </trkpt>
      <trkpt lat="43.60935" lon="6.89661">
        <ele>23</ele>
        <time>2011-10-16T08:13:22Z</time>
      </trkpt>
      <trkpt lat="43.60922" lon="6.89695">
        <ele>23</ele>
        <time>2011-10-16T08:13:28Z</time>
      </trkpt>
      <trkpt lat="43.60911" lon="6.89723">
        <ele>23</ele>
        <time>2011-10-16T08:13:33Z</time>
      </trkpt>
      <trkpt lat="43.609" lon="6.8975">
        <ele>23</ele>
        <time>2011-10-16T08:13:38Z</time>
      </trkpt>
      <trkpt lat="43.60887" lon="6.89776">
        <ele>23</ele>
        <time>2011-10-16T08:13:43Z</time>
      </trkpt>
      <trkpt lat="43.6087" lon="6.89798">
        <ele>23</ele>
        <time>2011-10-16T08:13:48Z</time>
      </trkpt>
      <trkpt lat="43.60851" lon="6.89817">
        <ele>23</ele>
        <time>2011-10-16T08:13:53Z</time>
      </trkpt>
      <trkpt lat="43.6083" lon="6.89833">
        <ele>23</ele>
        <time>2011-10-16T08:13:58Z</time>
      </trkpt>
      <trkpt lat="43.6081" lon="6.89852">
        <ele>23</ele>
        <time>2011-10-16T08:14:03Z</time>
      </trkpt>
      <trkpt lat="43.60795" lon="6.8988">
        <ele>23</ele>
        <time>2011-10-16T08:14:08Z</time>
      </trkpt>
      <trkpt lat="43.60784" lon="6.89913">
        <ele>23</ele>
        <time>2011-10-16T08:14:13Z</time>
      </trkpt>
      <trkpt lat="43.60769" lon="6.89945">
        <ele>22</ele>
        <time>2011-10-16T08:14:18Z</time>
      </trkpt>
      <trkpt lat="43.60754" lon="6.89975">
        <ele>22</ele>
        <time>2011-10-16T08:14:23Z</time>
      </trkpt>
      <trkpt lat="43.60739" lon="6.90005">
        <ele>22</ele>
        <time>2011-10-16T08:14:28Z</time>
      </trkpt>
      <trkpt lat="43.60724" lon="6.90033">
        <ele>22</ele>
        <time>2011-10-16T08:14:33Z</time>
      </trkpt>
      <trkpt lat="43.60711" lon="6.90059">
        <ele>21</ele>
        <time>2011-10-16T08:14:38Z</time>
      </trkpt>
      <trkpt lat="43.60698" lon="6.90084">
        <ele>21</ele>
        <time>2011-10-16T08:14:43Z</time>
      </trkpt>
      <trkpt lat="43.60683" lon="6.90105">
        <ele>20</ele>
        <time>2011-10-16T08:14:48Z</time>
      </trkpt>
      <trkpt lat="43.6067" lon="6.90124">
        <ele>20</ele>
        <time>2011-10-16T08:14:53Z</time>
      </trkpt>
      <trkpt lat="43.60663" lon="6.90148">
        <ele>20</ele>
        <time>2011-10-16T08:14:58Z</time>
      </trkpt>
      <trkpt lat="43.6066" lon="6.90175">
        <ele>20</ele>
        <time>2011-10-16T08:15:03Z</time>
      </trkpt>
      <trkpt lat="43.60659" lon="6.902">
        <ele>20</ele>
        <time>2011-10-16T08:15:08Z</time>
      </trkpt>
      <trkpt lat="43.6066" lon="6.90225">
        <ele>20</ele>
        <time>2011-10-16T08:15:13Z</time>
      </trkpt>
      <trkpt lat="43.60662" lon="6.90247">
        <ele>20</ele>
        <time>2011-10-16T08:15:18Z</time>
      </trkpt>
      <trkpt lat="43.60669" lon="6.90269">
        <ele>20</ele>
        <time>2011-10-16T08:15:23Z</time>
      </trkpt>
      <trkpt lat="43.60668" lon="6.90292">
        <ele>20</ele>
        <time>2011-10-16T08:15:28Z</time>
      </trkpt>
      <trkpt lat="43.60658" lon="6.90311">
        <ele>20</ele>
        <time>2011-10-16T08:15:33Z</time>
      </trkpt>
      <trkpt lat="43.60647" lon="6.90329">
        <ele>20</ele>
        <time>2011-10-16T08:15:38Z</time>
      </trkpt>
      <trkpt lat="43.60638" lon="6.90347">
        <ele>20</ele>
        <time>2011-10-16T08:15:43Z</time>
      </trkpt>
      <trkpt lat="43.6063" lon="6.90364">
        <ele>21</ele>
        <time>2011-10-16T08:15:48Z</time>
      </trkpt>
      <trkpt lat="43.60623" lon="6.90379">
        <ele>22</ele>
        <time>2011-10-16T08:15:53Z</time>
      </trkpt>
      <trkpt lat="43.60617" lon="6.9039">
        <ele>23</ele>
        <time>2011-10-16T08:15:58Z</time>
      </trkpt>
      <trkpt lat="43.60609" lon="6.90396">
        <ele>24</ele>
        <time>2011-10-16T08:16:03Z</time>
      </trkpt>
      <trkpt lat="43.60611" lon="6.90381">
        <ele>26</ele>
        <time>2011-10-16T08:16:08Z</time>
      </trkpt>
      <trkpt lat="43.60616" lon="6.90363">
        <ele>27</ele>
        <time>2011-10-16T08:16:13Z</time>
      </trkpt>
      <trkpt lat="43.60615" lon="6.90343">
        <ele>27</ele>
        <time>2011-10-16T08:16:18Z</time>
      </trkpt>
      <trkpt lat="43.60606" lon="6.90326">
        <ele>27</ele>
        <time>2011-10-16T08:16:23Z</time>
      </trkpt>
      <trkpt lat="43.60594" lon="6.90311">
        <ele>27</ele>
        <time>2011-10-16T08:16:28Z</time>
      </trkpt>
      <trkpt lat="43.60585" lon="6.90293">
        <ele>27</ele>
        <time>2011-10-16T08:16:33Z</time>
      </trkpt>
      <trkpt lat="43.60577" lon="6.90277">
        <ele>27</ele>
        <time>2011-10-16T08:16:38Z</time>
      </trkpt>
      <trkpt lat="43.60569" lon="6.90261">
        <ele>27</ele>
        <time>2011-10-16T08:16:43Z</time>
      </trkpt>
      <trkpt lat="43.6056" lon="6.90245">
        <ele>27</ele>
        <time>2011-10-16T08:16:48Z</time>
      </trkpt>
      <trkpt lat="43.6055" lon="6.90228">
        <ele>27</ele>
        <time>2011-10-16T08:16:53Z</time>
      </trkpt>
      <trkpt lat="43.60538" lon="6.90215">
        <ele>27</ele>
        <time>2011-10-16T08:16:58Z</time>
      </trkpt>
      <trkpt lat="43.60524" lon="6.90204">
        <ele>27</ele>
        <time>2011-10-16T08:17:03Z</time>
      </trkpt>
      <trkpt lat="43.60508" lon="6.90195">
        <ele>27</ele>
        <time>2011-10-16T08:17:08Z</time>
      </trkpt>
      <trkpt lat="43.60492" lon="6.90193">
        <ele>27</ele>
        <time>2011-10-16T08:17:13Z</time>
      </trkpt>
      <trkpt lat="43.60476" lon="6.90196">
        <ele>27</ele>
        <time>2011-10-16T08:17:18Z</time>
      </trkpt>
      <trkpt lat="43.6046" lon="6.90198">
        <ele>27</ele>
        <time>2011-10-16T08:17:23Z</time>
      </trkpt>
      <trkpt lat="43.60446" lon="6.90208">
        <ele>27</ele>
        <time>2011-10-16T08:17:28Z</time>
      </trkpt>
      <trkpt lat="43.6043" lon="6.9022">
        <ele>27</ele>
        <time>2011-10-16T08:17:33Z</time>
      </trkpt>
      <trkpt lat="43.60414" lon="6.90226">
        <ele>27</ele>
        <time>2011-10-16T08:17:38Z</time>
      </trkpt>
      <trkpt lat="43.60399" lon="6.9023">
        <ele>27</ele>
        <time>2011-10-16T08:17:43Z</time>
      </trkpt>
      <trkpt lat="43.60385" lon="6.90237">
        <ele>27</ele>
        <time>2011-10-16T08:17:48Z</time>
      </trkpt>
      <trkpt lat="43.60371" lon="6.90244">
        <ele>27</ele>
        <time>2011-10-16T08:17:53Z</time>
      </trkpt>
      <trkpt lat="43.60358" lon="6.90249">
        <ele>25</ele>
        <time>2011-10-16T08:17:58Z</time>
      </trkpt>
      <trkpt lat="43.60343" lon="6.90251">
        <ele>25</ele>
        <time>2011-10-16T08:18:03Z</time>
      </trkpt>
      <trkpt lat="43.60329" lon="6.90253">
        <ele>25</ele>
        <time>2011-10-16T08:18:08Z</time>
      </trkpt>
      <trkpt lat="43.60328" lon="6.90261">
        <ele>25</ele>
        <time>2011-10-16T08:18:15Z</time>
      </trkpt>
      <trkpt lat="43.60328" lon="6.90267">
        <ele>25</ele>
        <time>2011-10-16T08:18:20Z</time>
      </trkpt>
      <trkpt lat="43.60319" lon="6.90289">
        <ele>25</ele>
        <time>2011-10-16T08:18:25Z</time>
      </trkpt>
      <trkpt lat="43.60313" lon="6.90338">
        <ele>25</ele>
        <time>2011-10-16T08:18:30Z</time>
      </trkpt>
      <trkpt lat="43.60317" lon="6.90387">
        <ele>24</ele>
        <time>2011-10-16T08:18:35Z</time>
      </trkpt>
      <trkpt lat="43.60328" lon="6.9043">
        <ele>23</ele>
        <time>2011-10-16T08:18:40Z</time>
      </trkpt>
      <trkpt lat="43.60331" lon="6.90466">
        <ele>22</ele>
        <time>2011-10-16T08:18:45Z</time>
      </trkpt>
      <trkpt lat="43.60326" lon="6.90499">
        <ele>22</ele>
        <time>2011-10-16T08:18:50Z</time>
      </trkpt>
      <trkpt lat="43.60319" lon="6.90515">
        <ele>22</ele>
        <time>2011-10-16T08:18:57Z</time>
      </trkpt>
      <trkpt lat="43.60318" lon="6.9052">
        <ele>22</ele>
        <time>2011-10-16T08:19:03Z</time>
      </trkpt>
      <trkpt lat="43.60315" lon="6.90531">
        <ele>20</ele>
        <time>2011-10-16T08:19:13Z</time>
      </trkpt>
      <trkpt lat="43.60313" lon="6.90535">
        <ele>16</ele>
        <time>2011-10-16T08:19:18Z</time>
      </trkpt>
      <trkpt lat="43.60308" lon="6.90544">
        <ele>14</ele>
        <time>2011-10-16T08:19:23Z</time>
      </trkpt>
      <trkpt lat="43.60303" lon="6.90565">
        <ele>14</ele>
        <time>2011-10-16T08:19:28Z</time>
      </trkpt>
      <trkpt lat="43.60301" lon="6.90572">
        <ele>14</ele>
        <time>2011-10-16T08:19:33Z</time>
      </trkpt>
      <trkpt lat="43.60296" lon="6.90578">
        <ele>14</ele>
        <time>2011-10-16T08:19:39Z</time>
      </trkpt>
      <trkpt lat="43.60287" lon="6.90583">
        <ele>14</ele>
        <time>2011-10-16T08:19:44Z</time>
      </trkpt>
      <trkpt lat="43.60273" lon="6.90592">
        <ele>14</ele>
        <time>2011-10-16T08:19:49Z</time>
      </trkpt>
      <trkpt lat="43.60253" lon="6.90601">
        <ele>14</ele>
        <time>2011-10-16T08:19:54Z</time>
      </trkpt>
      <trkpt lat="43.60234" lon="6.90622">
        <ele>14</ele>
        <time>2011-10-16T08:19:59Z</time>
      </trkpt>
      <trkpt lat="43.60208" lon="6.90648">
        <ele>14</ele>
        <time>2011-10-16T08:20:04Z</time>
      </trkpt>
      <trkpt lat="43.6019" lon="6.90675">
        <ele>14</ele>
        <time>2011-10-16T08:20:09Z</time>
      </trkpt>
      <trkpt lat="43.60169" lon="6.90695">
        <ele>14</ele>
        <time>2011-10-16T08:20:14Z</time>
      </trkpt>
      <trkpt lat="43.60148" lon="6.90715">
        <ele>14</ele>
        <time>2011-10-16T08:20:19Z</time>
      </trkpt>
      <trkpt lat="43.60127" lon="6.90735">
        <ele>14</ele>
        <time>2011-10-16T08:20:24Z</time>
      </trkpt>
      <trkpt lat="43.60105" lon="6.90745">
        <ele>14</ele>
        <time>2011-10-16T08:20:29Z</time>
      </trkpt>
      <trkpt lat="43.60086" lon="6.90741">
        <ele>18</ele>
        <time>2011-10-16T08:20:34Z</time>
      </trkpt>
      <trkpt lat="43.60076" lon="6.90739">
        <ele>23</ele>
        <time>2011-10-16T08:20:39Z</time>
      </trkpt>
      <trkpt lat="43.60065" lon="6.90743">
        <ele>28</ele>
        <time>2011-10-16T08:20:44Z</time>
      </trkpt>
      <trkpt lat="43.60051" lon="6.90756">
        <ele>31</ele>
        <time>2011-10-16T08:20:49Z</time>
      </trkpt>
      <trkpt lat="43.6003" lon="6.90767">
        <ele>32</ele>
        <time>2011-10-16T08:20:54Z</time>
      </trkpt>
      <trkpt lat="43.6001" lon="6.90772">
        <ele>32</ele>
        <time>2011-10-16T08:20:59Z</time>
      </trkpt>
      <trkpt lat="43.59988" lon="6.90772">
        <ele>34</ele>
        <time>2011-10-16T08:21:04Z</time>
      </trkpt>
      <trkpt lat="43.59967" lon="6.90782">
        <ele>35</ele>
        <time>2011-10-16T08:21:09Z</time>
      </trkpt>
      <trkpt lat="43.5995" lon="6.90806">
        <ele>30</ele>
        <time>2011-10-16T08:21:14Z</time>
      </trkpt>
      <trkpt lat="43.59929" lon="6.90819">
        <ele>25</ele>
        <time>2011-10-16T08:21:19Z</time>
      </trkpt>
      <trkpt lat="43.59915" lon="6.90843">
        <ele>22</ele>
        <time>2011-10-16T08:21:24Z</time>
      </trkpt>
      <trkpt lat="43.59906" lon="6.90872">
        <ele>21</ele>
        <time>2011-10-16T08:21:29Z</time>
      </trkpt>
      <trkpt lat="43.59892" lon="6.90898">
        <ele>21</ele>
        <time>2011-10-16T08:21:34Z</time>
      </trkpt>
      <trkpt lat="43.59884" lon="6.90925">
        <ele>21</ele>
        <time>2011-10-16T08:21:39Z</time>
      </trkpt>
      <trkpt lat="43.5988" lon="6.90949">
        <ele>21</ele>
        <time>2011-10-16T08:21:44Z</time>
      </trkpt>
      <trkpt lat="43.59873" lon="6.90971">
        <ele>21</ele>
        <time>2011-10-16T08:21:49Z</time>
      </trkpt>
      <trkpt lat="43.59868" lon="6.9099">
        <ele>21</ele>
        <time>2011-10-16T08:21:54Z</time>
      </trkpt>
      <trkpt lat="43.59869" lon="6.91003">
        <ele>21</ele>
        <time>2011-10-16T08:22:00Z</time>
      </trkpt>
      <trkpt lat="43.59868" lon="6.91006">
        <ele>25</ele>
        <time>2011-10-16T08:22:08Z</time>
      </trkpt>
      <trkpt lat="43.59871" lon="6.91009">
        <ele>25</ele>
        <time>2011-10-16T08:22:14Z</time>
      </trkpt>
      <trkpt lat="43.59874" lon="6.91011">
        <ele>25</ele>
        <time>2011-10-16T08:22:19Z</time>
      </trkpt>
      <trkpt lat="43.59877" lon="6.91009">
        <ele>28</ele>
        <time>2011-10-16T08:22:25Z</time>
      </trkpt>
      <trkpt lat="43.5988" lon="6.91012">
        <ele>30</ele>
        <time>2011-10-16T08:22:31Z</time>
      </trkpt>
      <trkpt lat="43.59883" lon="6.91017">
        <ele>30</ele>
        <time>2011-10-16T08:22:38Z</time>
      </trkpt>
      <trkpt lat="43.59885" lon="6.91019">
        <ele>30</ele>
        <time>2011-10-16T08:22:43Z</time>
      </trkpt>
      <trkpt lat="43.59886" lon="6.91025">
        <ele>32</ele>
        <time>2011-10-16T08:22:50Z</time>
      </trkpt>
      <trkpt lat="43.59889" lon="6.91031">
        <ele>33</ele>
        <time>2011-10-16T08:22:55Z</time>
      </trkpt>
      <trkpt lat="43.59892" lon="6.91046">
        <ele>33</ele>
        <time>2011-10-16T08:23:00Z</time>
      </trkpt>
      <trkpt lat="43.59899" lon="6.91063">
        <ele>33</ele>
        <time>2011-10-16T08:23:05Z</time>
      </trkpt>
      <trkpt lat="43.59902" lon="6.91066">
        <ele>33</ele>
        <time>2011-10-16T08:23:10Z</time>
      </trkpt>
      <trkpt lat="43.59904" lon="6.91071">
        <ele>34</ele>
        <time>2011-10-16T08:23:15Z</time>
      </trkpt>
      <trkpt lat="43.59902" lon="6.91095">
        <ele>37</ele>
        <time>2011-10-16T08:23:20Z</time>
      </trkpt>
      <trkpt lat="43.59903" lon="6.91116">
        <ele>37</ele>
        <time>2011-10-16T08:23:25Z</time>
      </trkpt>
      <trkpt lat="43.59907" lon="6.91127">
        <ele>37</ele>
        <time>2011-10-16T08:23:30Z</time>
      </trkpt>
      <trkpt lat="43.59909" lon="6.91131">
        <ele>37</ele>
        <time>2011-10-16T08:23:35Z</time>
      </trkpt>
      <trkpt lat="43.59909" lon="6.91138">
        <ele>37</ele>
        <time>2011-10-16T08:23:40Z</time>
      </trkpt>
      <trkpt lat="43.59909" lon="6.91145">
        <ele>37</ele>
        <time>2011-10-16T08:23:45Z</time>
      </trkpt>
      <trkpt lat="43.59911" lon="6.91161">
        <ele>37</ele>
        <time>2011-10-16T08:23:50Z</time>
      </trkpt>
      <trkpt lat="43.59911" lon="6.91186">
        <ele>37</ele>
        <time>2011-10-16T08:23:55Z</time>
      </trkpt>
      <trkpt lat="43.59915" lon="6.91219">
        <ele>33</ele>
        <time>2011-10-16T08:24:00Z</time>
      </trkpt>
      <trkpt lat="43.59911" lon="6.91238">
        <ele>32</ele>
        <time>2011-10-16T08:24:05Z</time>
      </trkpt>
      <trkpt lat="43.59903" lon="6.91247">
        <ele>28</ele>
        <time>2011-10-16T08:24:10Z</time>
      </trkpt>
      <trkpt lat="43.59894" lon="6.91258">
        <ele>26</ele>
        <time>2011-10-16T08:24:15Z</time>
      </trkpt>
      <trkpt lat="43.59882" lon="6.91258">
        <ele>23</ele>
        <time>2011-10-16T08:24:20Z</time>
      </trkpt>
      <trkpt lat="43.59869" lon="6.91262">
        <ele>21</ele>
        <time>2011-10-16T08:24:25Z</time>
      </trkpt>
      <trkpt lat="43.59867" lon="6.91284">
        <ele>19</ele>
        <time>2011-10-16T08:24:30Z</time>
      </trkpt>
      <trkpt lat="43.59864" lon="6.91298">
        <ele>19</ele>
        <time>2011-10-16T08:24:35Z</time>
      </trkpt>
      <trkpt lat="43.59862" lon="6.91312">
        <ele>19</ele>
        <time>2011-10-16T08:24:40Z</time>
      </trkpt>
      <trkpt lat="43.59853" lon="6.91326">
        <ele>22</ele>
        <time>2011-10-16T08:24:45Z</time>
      </trkpt>
      <trkpt lat="43.59837" lon="6.9134">
        <ele>22</ele>
        <time>2011-10-16T08:24:50Z</time>
      </trkpt>
      <trkpt lat="43.59818" lon="6.91347">
        <ele>22</ele>
        <time>2011-10-16T08:24:55Z</time>
      </trkpt>
      <trkpt lat="43.59801" lon="6.91352">
        <ele>22</ele>
        <time>2011-10-16T08:25:00Z</time>
      </trkpt>
      <trkpt lat="43.59786" lon="6.91357">
        <ele>22</ele>
        <time>2011-10-16T08:25:05Z</time>
      </trkpt>
      <trkpt lat="43.59771" lon="6.91365">
        <ele>20</ele>
        <time>2011-10-16T08:25:10Z</time>
      </trkpt>
      <trkpt lat="43.59752" lon="6.91365">
        <ele>19</ele>
        <time>2011-10-16T08:25:15Z</time>
      </trkpt>
      <trkpt lat="43.59732" lon="6.91369">
        <ele>18</ele>
        <time>2011-10-16T08:25:20Z</time>
      </trkpt>
      <trkpt lat="43.59715" lon="6.91372">
        <ele>16</ele>
        <time>2011-10-16T08:25:25Z</time>
      </trkpt>
      <trkpt lat="43.59695" lon="6.91374">
        <ele>15</ele>
        <time>2011-10-16T08:25:30Z</time>
      </trkpt>
      <trkpt lat="43.59674" lon="6.91374">
        <ele>15</ele>
        <time>2011-10-16T08:25:35Z</time>
      </trkpt>
      <trkpt lat="43.59656" lon="6.91374">
        <ele>15</ele>
        <time>2011-10-16T08:25:40Z</time>
      </trkpt>
      <trkpt lat="43.59646" lon="6.91388">
        <ele>15</ele>
        <time>2011-10-16T08:25:45Z</time>
      </trkpt>
      <trkpt lat="43.59634" lon="6.91406">
        <ele>15</ele>
        <time>2011-10-16T08:25:50Z</time>
      </trkpt>
      <trkpt lat="43.59628" lon="6.9143">
        <ele>15</ele>
        <time>2011-10-16T08:25:55Z</time>
      </trkpt>
      <trkpt lat="43.59624" lon="6.91453">
        <ele>16</ele>
        <time>2011-10-16T08:26:00Z</time>
      </trkpt>
      <trkpt lat="43.59621" lon="6.91473">
        <ele>16</ele>
        <time>2011-10-16T08:26:05Z</time>
      </trkpt>
      <trkpt lat="43.59616" lon="6.91495">
        <ele>17</ele>
        <time>2011-10-16T08:26:10Z</time>
      </trkpt>
      <trkpt lat="43.59607" lon="6.91516">
        <ele>17</ele>
        <time>2011-10-16T08:26:15Z</time>
      </trkpt>
      <trkpt lat="43.59598" lon="6.91538">
        <ele>17</ele>
        <time>2011-10-16T08:26:20Z</time>
      </trkpt>
      <trkpt lat="43.59588" lon="6.9156">
        <ele>17</ele>
        <time>2011-10-16T08:26:25Z</time>
      </trkpt>
      <trkpt lat="43.59578" lon="6.91582">
        <ele>17</ele>
        <time>2011-10-16T08:26:30Z</time>
      </trkpt>
      <trkpt lat="43.59567" lon="6.91604">
        <ele>17</ele>
        <time>2011-10-16T08:26:35Z</time>
      </trkpt>
      <trkpt lat="43.59551" lon="6.91618">
        <ele>17</ele>
        <time>2011-10-16T08:26:40Z</time>
      </trkpt>
      <trkpt lat="43.59532" lon="6.91629">
        <ele>17</ele>
        <time>2011-10-16T08:26:45Z</time>
      </trkpt>
      <trkpt lat="43.59515" lon="6.9164">
        <ele>17</ele>
        <time>2011-10-16T08:26:50Z</time>
      </trkpt>
      <trkpt lat="43.59503" lon="6.91655">
        <ele>17</ele>
        <time>2011-10-16T08:26:55Z</time>
      </trkpt>
      <trkpt lat="43.59488" lon="6.91668">
        <ele>17</ele>
        <time>2011-10-16T08:27:00Z</time>
      </trkpt>
      <trkpt lat="43.59474" lon="6.9168">
        <ele>17</ele>
        <time>2011-10-16T08:27:05Z</time>
      </trkpt>
      <trkpt lat="43.59461" lon="6.91694">
        <ele>17</ele>
        <time>2011-10-16T08:27:10Z</time>
      </trkpt>
      <trkpt lat="43.59446" lon="6.91711">
        <ele>17</ele>
        <time>2011-10-16T08:27:15Z</time>
      </trkpt>
      <trkpt lat="43.59434" lon="6.91728">
        <ele>17</ele>
        <time>2011-10-16T08:27:20Z</time>
      </trkpt>
      <trkpt lat="43.5942" lon="6.91749">
        <ele>17</ele>
        <time>2011-10-16T08:27:25Z</time>
      </trkpt>
      <trkpt lat="43.59405" lon="6.91769">
        <ele>17</ele>
        <time>2011-10-16T08:27:30Z</time>
      </trkpt>
      <trkpt lat="43.59391" lon="6.91788">
        <ele>17</ele>
        <time>2011-10-16T08:27:35Z</time>
      </trkpt>
      <trkpt lat="43.59378" lon="6.91806">
        <ele>17</ele>
        <time>2011-10-16T08:27:40Z</time>
      </trkpt>
      <trkpt lat="43.59366" lon="6.91818">
        <ele>17</ele>
        <time>2011-10-16T08:27:45Z</time>
      </trkpt>
      <trkpt lat="43.59347" lon="6.91833">
        <ele>17</ele>
        <time>2011-10-16T08:27:50Z</time>
      </trkpt>
      <trkpt lat="43.59326" lon="6.9185">
        <ele>16</ele>
        <time>2011-10-16T08:27:55Z</time>
      </trkpt>
      <trkpt lat="43.59309" lon="6.91872">
        <ele>15</ele>
        <time>2011-10-16T08:28:00Z</time>
      </trkpt>
      <trkpt lat="43.59295" lon="6.91893">
        <ele>15</ele>
        <time>2011-10-16T08:28:05Z</time>
      </trkpt>
      <trkpt lat="43.59284" lon="6.91918">
        <ele>15</ele>
        <time>2011-10-16T08:28:10Z</time>
      </trkpt>
      <trkpt lat="43.59276" lon="6.91944">
        <ele>15</ele>
        <time>2011-10-16T08:28:15Z</time>
      </trkpt>
      <trkpt lat="43.59267" lon="6.91971">
        <ele>15</ele>
        <time>2011-10-16T08:28:20Z</time>
      </trkpt>
      <trkpt lat="43.59258" lon="6.91996">
        <ele>15</ele>
        <time>2011-10-16T08:28:25Z</time>
      </trkpt>
      <trkpt lat="43.5925" lon="6.92021">
        <ele>15</ele>
        <time>2011-10-16T08:28:30Z</time>
      </trkpt>
      <trkpt lat="43.59242" lon="6.92047">
        <ele>15</ele>
        <time>2011-10-16T08:28:35Z</time>
      </trkpt>
      <trkpt lat="43.59235" lon="6.92074">
        <ele>15</ele>
        <time>2011-10-16T08:28:40Z</time>
      </trkpt>
      <trkpt lat="43.59232" lon="6.92101">
        <ele>15</ele>
        <time>2011-10-16T08:28:45Z</time>
      </trkpt>
      <trkpt lat="43.5923" lon="6.92129">
        <ele>15</ele>
        <time>2011-10-16T08:28:50Z</time>
      </trkpt>
      <trkpt lat="43.59227" lon="6.92156">
        <ele>15</ele>
        <time>2011-10-16T08:28:55Z</time>
      </trkpt>
      <trkpt lat="43.59223" lon="6.92182">
        <ele>15</ele>
        <time>2011-10-16T08:29:00Z</time>
      </trkpt>
      <trkpt lat="43.59221" lon="6.92208">
        <ele>15</ele>
        <time>2011-10-16T08:29:05Z</time>
      </trkpt>
      <trkpt lat="43.59219" lon="6.92235">
        <ele>15</ele>
        <time>2011-10-16T08:29:10Z</time>
      </trkpt>
      <trkpt lat="43.59224" lon="6.92262">
        <ele>15</ele>
        <time>2011-10-16T08:29:15Z</time>
      </trkpt>
      <trkpt lat="43.59236" lon="6.92282">
        <ele>15</ele>
        <time>2011-10-16T08:29:20Z</time>
      </trkpt>
      <trkpt lat="43.59251" lon="6.92297">
        <ele>15</ele>
        <time>2011-10-16T08:29:25Z</time>
      </trkpt>
      <trkpt lat="43.59265" lon="6.92308">
        <ele>15</ele>
        <time>2011-10-16T08:29:30Z</time>
      </trkpt>
      <trkpt lat="43.59279" lon="6.9232">
        <ele>15</ele>
        <time>2011-10-16T08:29:35Z</time>
      </trkpt>
      <trkpt lat="43.5929" lon="6.92335">
        <ele>15</ele>
        <time>2011-10-16T08:29:40Z</time>
      </trkpt>
      <trkpt lat="43.59301" lon="6.92352">
        <ele>15</ele>
        <time>2011-10-16T08:29:45Z</time>
      </trkpt>
      <trkpt lat="43.59311" lon="6.92371">
        <ele>15</ele>
        <time>2011-10-16T08:29:50Z</time>
      </trkpt>
      <trkpt lat="43.5932" lon="6.92392">
        <ele>15</ele>
        <time>2011-10-16T08:29:55Z</time>
      </trkpt>
      <trkpt lat="43.59329" lon="6.92412">
        <ele>15</ele>
        <time>2011-10-16T08:30:00Z</time>
      </trkpt>
      <trkpt lat="43.59339" lon="6.92431">
        <ele>15</ele>
        <time>2011-10-16T08:30:05Z</time>
      </trkpt>
      <trkpt lat="43.5935" lon="6.9245">
        <ele>15</ele>
        <time>2011-10-16T08:30:10Z</time>
      </trkpt>
      <trkpt lat="43.59361" lon="6.92468">
        <ele>15</ele>
        <time>2011-10-16T08:30:15Z</time>
      </trkpt>
      <trkpt lat="43.59375" lon="6.92484">
        <ele>15</ele>
        <time>2011-10-16T08:30:20Z</time>
      </trkpt>
      <trkpt lat="43.59388" lon="6.92501">
        <ele>15</ele>
        <time>2011-10-16T08:30:25Z</time>
      </trkpt>
      <trkpt lat="43.59401" lon="6.92522">
        <ele>15</ele>
        <time>2011-10-16T08:30:30Z</time>
      </trkpt>
      <trkpt lat="43.59417" lon="6.92538">
        <ele>15</ele>
        <time>2011-10-16T08:30:35Z</time>
      </trkpt>
      <trkpt lat="43.59431" lon="6.92553">
        <ele>15</ele>
        <time>2011-10-16T08:30:40Z</time>
      </trkpt>
      <trkpt lat="43.59442" lon="6.92572">
        <ele>15</ele>
        <time>2011-10-16T08:30:45Z</time>
      </trkpt>
      <trkpt lat="43.5945" lon="6.92592">
        <ele>15</ele>
        <time>2011-10-16T08:30:50Z</time>
      </trkpt>
      <trkpt lat="43.59455" lon="6.92612">
        <ele>15</ele>
        <time>2011-10-16T08:30:55Z</time>
      </trkpt>
      <trkpt lat="43.59452" lon="6.92634">
        <ele>15</ele>
        <time>2011-10-16T08:31:00Z</time>
      </trkpt>
      <trkpt lat="43.59451" lon="6.92654">
        <ele>15</ele>
        <time>2011-10-16T08:31:05Z</time>
      </trkpt>
      <trkpt lat="43.59458" lon="6.9267">
        <ele>15</ele>
        <time>2011-10-16T08:31:10Z</time>
      </trkpt>
      <trkpt lat="43.59451" lon="6.92691">
        <ele>15</ele>
        <time>2011-10-16T08:31:15Z</time>
      </trkpt>
      <trkpt lat="43.5944" lon="6.92712">
        <ele>15</ele>
        <time>2011-10-16T08:31:20Z</time>
      </trkpt>
      <trkpt lat="43.59429" lon="6.92735">
        <ele>15</ele>
        <time>2011-10-16T08:31:25Z</time>
      </trkpt>
      <trkpt lat="43.5942" lon="6.92754">
        <ele>15</ele>
        <time>2011-10-16T08:31:30Z</time>
      </trkpt>
      <trkpt lat="43.5941" lon="6.92772">
        <ele>15</ele>
        <time>2011-10-16T08:31:35Z</time>
      </trkpt>
      <trkpt lat="43.59401" lon="6.92793">
        <ele>15</ele>
        <time>2011-10-16T08:31:40Z</time>
      </trkpt>
      <trkpt lat="43.59391" lon="6.92813">
        <ele>15</ele>
        <time>2011-10-16T08:31:45Z</time>
      </trkpt>
      <trkpt lat="43.59382" lon="6.92833">
        <ele>15</ele>
        <time>2011-10-16T08:31:50Z</time>
      </trkpt>
      <trkpt lat="43.59373" lon="6.92851">
        <ele>15</ele>
        <time>2011-10-16T08:31:55Z</time>
      </trkpt>
      <trkpt lat="43.59366" lon="6.9287">
        <ele>15</ele>
        <time>2011-10-16T08:32:00Z</time>
      </trkpt>
      <trkpt lat="43.59359" lon="6.92888">
        <ele>15</ele>
        <time>2011-10-16T08:32:05Z</time>
      </trkpt>
      <trkpt lat="43.59352" lon="6.92906">
        <ele>15</ele>
        <time>2011-10-16T08:32:10Z</time>
      </trkpt>
      <trkpt lat="43.59346" lon="6.92921">
        <ele>15</ele>
        <time>2011-10-16T08:32:15Z</time>
      </trkpt>
      <trkpt lat="43.5934" lon="6.92935">
        <ele>15</ele>
        <time>2011-10-16T08:32:20Z</time>
      </trkpt>
      <trkpt lat="43.59339" lon="6.92944">
        <ele>16</ele>
        <time>2011-10-16T08:32:26Z</time>
      </trkpt>
      <trkpt lat="43.59339" lon="6.92945">
        <ele>17</ele>
        <time>2011-10-16T08:32:33Z</time>
      </trkpt>
      <trkpt lat="43.59335" lon="6.92956">
        <ele>17</ele>
        <time>2011-10-16T08:32:38Z</time>
      </trkpt>
      <trkpt lat="43.59343" lon="6.92972">
        <ele>17</ele>
        <time>2011-10-16T08:32:43Z</time>
      </trkpt>
      <trkpt lat="43.59362" lon="6.92992">
        <ele>17</ele>
        <time>2011-10-16T08:32:48Z</time>
      </trkpt>
      <trkpt lat="43.59384" lon="6.93011">
        <ele>17</ele>
        <time>2011-10-16T08:32:53Z</time>
      </trkpt>
      <trkpt lat="43.59403" lon="6.93031">
        <ele>17</ele>
        <time>2011-10-16T08:32:58Z</time>
      </trkpt>
      <trkpt lat="43.5942" lon="6.93055">
        <ele>17</ele>
        <time>2011-10-16T08:33:03Z</time>
      </trkpt>
      <trkpt lat="43.59438" lon="6.9308">
        <ele>17</ele>
        <time>2011-10-16T08:33:08Z</time>
      </trkpt>
      <trkpt lat="43.59454" lon="6.93101">
        <ele>17</ele>
        <time>2011-10-16T08:33:13Z</time>
      </trkpt>
      <trkpt lat="43.59469" lon="6.93124">
        <ele>17</ele>
        <time>2011-10-16T08:33:18Z</time>
      </trkpt>
      <trkpt lat="43.59483" lon="6.93145">
        <ele>17</ele>
        <time>2011-10-16T08:33:23Z</time>
      </trkpt>
      <trkpt lat="43.5949" lon="6.9317">
        <ele>17</ele>
        <time>2011-10-16T08:33:28Z</time>
      </trkpt>
      <trkpt lat="43.59477" lon="6.93185">
        <ele>17</ele>
        <time>2011-10-16T08:33:33Z</time>
      </trkpt>
      <trkpt lat="43.59483" lon="6.93205">
        <ele>17</ele>
        <time>2011-10-16T08:33:38Z</time>
      </trkpt>
      <trkpt lat="43.59502" lon="6.93224">
        <ele>17</ele>
        <time>2011-10-16T08:33:43Z</time>
      </trkpt>
      <trkpt lat="43.59524" lon="6.93239">
        <ele>17</ele>
        <time>2011-10-16T08:33:48Z</time>
      </trkpt>
      <trkpt lat="43.59545" lon="6.93252">
        <ele>17</ele>
        <time>2011-10-16T08:33:53Z</time>
      </trkpt>
      <trkpt lat="43.59565" lon="6.93266">
        <ele>17</ele>
        <time>2011-10-16T08:33:58Z</time>
      </trkpt>
      <trkpt lat="43.59583" lon="6.9328">
        <ele>17</ele>
        <time>2011-10-16T08:34:03Z</time>
      </trkpt>
      <trkpt lat="43.59598" lon="6.93296">
        <ele>17</ele>
        <time>2011-10-16T08:34:08Z</time>
      </trkpt>
      <trkpt lat="43.59607" lon="6.93313">
        <ele>18</ele>
        <time>2011-10-16T08:34:13Z</time>
      </trkpt>
      <trkpt lat="43.59613" lon="6.93331">
        <ele>20</ele>
        <time>2011-10-16T08:34:18Z</time>
      </trkpt>
      <trkpt lat="43.5962" lon="6.9335">
        <ele>22</ele>
        <time>2011-10-16T08:34:23Z</time>
      </trkpt>
      <trkpt lat="43.59633" lon="6.93367">
        <ele>22</ele>
        <time>2011-10-16T08:34:28Z</time>
      </trkpt>
      <trkpt lat="43.59645" lon="6.93382">
        <ele>23</ele>
        <time>2011-10-16T08:34:33Z</time>
      </trkpt>
      <trkpt lat="43.5966" lon="6.934">
        <ele>24</ele>
        <time>2011-10-16T08:34:38Z</time>
      </trkpt>
      <trkpt lat="43.59675" lon="6.93412">
        <ele>24</ele>
        <time>2011-10-16T08:34:43Z</time>
      </trkpt>
      <trkpt lat="43.59688" lon="6.93428">
        <ele>24</ele>
        <time>2011-10-16T08:34:48Z</time>
      </trkpt>
      <trkpt lat="43.59695" lon="6.93443">
        <ele>24</ele>
        <time>2011-10-16T08:34:53Z</time>
      </trkpt>
      <trkpt lat="43.597" lon="6.93462">
        <ele>25</ele>
        <time>2011-10-16T08:34:58Z</time>
      </trkpt>
      <trkpt lat="43.59704" lon="6.93483">
        <ele>26</ele>
        <time>2011-10-16T08:35:03Z</time>
      </trkpt>
      <trkpt lat="43.59708" lon="6.93504">
        <ele>26</ele>
        <time>2011-10-16T08:35:08Z</time>
      </trkpt>
      <trkpt lat="43.59713" lon="6.93527">
        <ele>26</ele>
        <time>2011-10-16T08:35:13Z</time>
      </trkpt>
      <trkpt lat="43.59719" lon="6.93549">
        <ele>27</ele>
        <time>2011-10-16T08:35:18Z</time>
      </trkpt>
      <trkpt lat="43.59725" lon="6.93565">
        <ele>27</ele>
        <time>2011-10-16T08:35:23Z</time>
      </trkpt>
      <trkpt lat="43.59729" lon="6.93586">
        <ele>27</ele>
        <time>2011-10-16T08:35:28Z</time>
      </trkpt>
      <trkpt lat="43.59734" lon="6.93607">
        <ele>27</ele>
        <time>2011-10-16T08:35:33Z</time>
      </trkpt>
      <trkpt lat="43.5974" lon="6.93628">
        <ele>27</ele>
        <time>2011-10-16T08:35:38Z</time>
      </trkpt>
      <trkpt lat="43.59746" lon="6.93647">
        <ele>27</ele>
        <time>2011-10-16T08:35:43Z</time>
      </trkpt>
      <trkpt lat="43.59751" lon="6.93667">
        <ele>28</ele>
        <time>2011-10-16T08:35:48Z</time>
      </trkpt>
      <trkpt lat="43.59758" lon="6.93685">
        <ele>29</ele>
        <time>2011-10-16T08:35:53Z</time>
      </trkpt>
      <trkpt lat="43.59763" lon="6.93704">
        <ele>29</ele>
        <time>2011-10-16T08:35:58Z</time>
      </trkpt>
      <trkpt lat="43.5977" lon="6.93721">
        <ele>30</ele>
        <time>2011-10-16T08:36:03Z</time>
      </trkpt>
      <trkpt lat="43.59776" lon="6.93739">
        <ele>31</ele>
        <time>2011-10-16T08:36:08Z</time>
      </trkpt>
      <trkpt lat="43.59778" lon="6.93759">
        <ele>31</ele>
        <time>2011-10-16T08:36:13Z</time>
      </trkpt>
      <trkpt lat="43.59778" lon="6.93782">
        <ele>33</ele>
        <time>2011-10-16T08:36:18Z</time>
      </trkpt>
      <trkpt lat="43.5978" lon="6.93803">
        <ele>35</ele>
        <time>2011-10-16T08:36:23Z</time>
      </trkpt>
      <trkpt lat="43.59785" lon="6.93824">
        <ele>36</ele>
        <time>2011-10-16T08:36:28Z</time>
      </trkpt>
      <trkpt lat="43.59792" lon="6.93841">
        <ele>37</ele>
        <time>2011-10-16T08:36:33Z</time>
      </trkpt>
      <trkpt lat="43.59797" lon="6.93856">
        <ele>38</ele>
        <time>2011-10-16T08:36:38Z</time>
      </trkpt>
      <trkpt lat="43.59798" lon="6.93869">
        <ele>38</ele>
        <time>2011-10-16T08:36:43Z</time>
      </trkpt>
      <trkpt lat="43.59798" lon="6.93873">
        <ele>40</ele>
        <time>2011-10-16T08:36:57Z</time>
      </trkpt>
      <trkpt lat="43.59797" lon="6.93881">
        <ele>40</ele>
        <time>2011-10-16T08:37:02Z</time>
      </trkpt>
      <trkpt lat="43.59797" lon="6.93893">
        <ele>42</ele>
        <time>2011-10-16T08:37:07Z</time>
      </trkpt>
      <trkpt lat="43.59798" lon="6.93903">
        <ele>42</ele>
        <time>2011-10-16T08:37:12Z</time>
      </trkpt>
      <trkpt lat="43.59801" lon="6.93911">
        <ele>42</ele>
        <time>2011-10-16T08:37:17Z</time>
      </trkpt>
      <trkpt lat="43.59801" lon="6.93919">
        <ele>43</ele>
        <time>2011-10-16T08:37:22Z</time>
      </trkpt>
      <trkpt lat="43.59803" lon="6.93927">
        <ele>45</ele>
        <time>2011-10-16T08:37:27Z</time>
      </trkpt>
      <trkpt lat="43.59804" lon="6.93936">
        <ele>47</ele>
        <time>2011-10-16T08:37:32Z</time>
      </trkpt>
      <trkpt lat="43.59806" lon="6.93945">
        <ele>48</ele>
        <time>2011-10-16T08:37:37Z</time>
      </trkpt>
      <trkpt lat="43.59805" lon="6.93954">
        <ele>50</ele>
        <time>2011-10-16T08:37:42Z</time>
      </trkpt>
      <trkpt lat="43.59805" lon="6.93963">
        <ele>51</ele>
        <time>2011-10-16T08:37:47Z</time>
      </trkpt>
      <trkpt lat="43.59807" lon="6.93971">
        <ele>52</ele>
        <time>2011-10-16T08:37:52Z</time>
      </trkpt>
      <trkpt lat="43.5981" lon="6.93976">
        <ele>52</ele>
        <time>2011-10-16T08:37:58Z</time>
      </trkpt>
      <trkpt lat="43.59812" lon="6.93984">
        <ele>52</ele>
        <time>2011-10-16T08:38:03Z</time>
      </trkpt>
      <trkpt lat="43.59808" lon="6.93991">
        <ele>53</ele>
        <time>2011-10-16T08:38:08Z</time>
      </trkpt>
      <trkpt lat="43.59802" lon="6.93997">
        <ele>53</ele>
        <time>2011-10-16T08:38:13Z</time>
      </trkpt>
      <trkpt lat="43.59795" lon="6.94001">
        <ele>54</ele>
        <time>2011-10-16T08:38:18Z</time>
      </trkpt>
      <trkpt lat="43.5979" lon="6.94006">
        <ele>55</ele>
        <time>2011-10-16T08:38:23Z</time>
      </trkpt>
      <trkpt lat="43.59784" lon="6.94011">
        <ele>55</ele>
        <time>2011-10-16T08:38:28Z</time>
      </trkpt>
      <trkpt lat="43.5978" lon="6.94017">
        <ele>58</ele>
        <time>2011-10-16T08:38:33Z</time>
      </trkpt>
      <trkpt lat="43.59778" lon="6.94026">
        <ele>59</ele>
        <time>2011-10-16T08:38:38Z</time>
      </trkpt>
      <trkpt lat="43.59777" lon="6.94034">
        <ele>61</ele>
        <time>2011-10-16T08:38:43Z</time>
      </trkpt>
      <trkpt lat="43.59774" lon="6.94041">
        <ele>63</ele>
        <time>2011-10-16T08:38:48Z</time>
      </trkpt>
      <trkpt lat="43.59772" lon="6.9405">
        <ele>67</ele>
        <time>2011-10-16T08:38:54Z</time>
      </trkpt>
      <trkpt lat="43.5977" lon="6.94056">
        <ele>69</ele>
        <time>2011-10-16T08:38:59Z</time>
      </trkpt>
      <trkpt lat="43.5977" lon="6.94065">
        <ele>72</ele>
        <time>2011-10-16T08:39:04Z</time>
      </trkpt>
      <trkpt lat="43.59768" lon="6.94075">
        <ele>73</ele>
        <time>2011-10-16T08:39:09Z</time>
      </trkpt>
      <trkpt lat="43.59764" lon="6.94084">
        <ele>73</ele>
        <time>2011-10-16T08:39:14Z</time>
      </trkpt>
      <trkpt lat="43.59761" lon="6.9409">
        <ele>73</ele>
        <time>2011-10-16T08:39:19Z</time>
      </trkpt>
      <trkpt lat="43.59755" lon="6.94092">
        <ele>73</ele>
        <time>2011-10-16T08:39:24Z</time>
      </trkpt>
      <trkpt lat="43.5975" lon="6.94098">
        <ele>73</ele>
        <time>2011-10-16T08:39:30Z</time>
      </trkpt>
      <trkpt lat="43.59744" lon="6.94101">
        <ele>73</ele>
        <time>2011-10-16T08:39:36Z</time>
      </trkpt>
      <trkpt lat="43.5974" lon="6.94105">
        <ele>74</ele>
        <time>2011-10-16T08:39:41Z</time>
      </trkpt>
      <trkpt lat="43.59737" lon="6.94115">
        <ele>77</ele>
        <time>2011-10-16T08:39:46Z</time>
      </trkpt>
      <trkpt lat="43.59737" lon="6.94124">
        <ele>78</ele>
        <time>2011-10-16T08:39:51Z</time>
      </trkpt>
      <trkpt lat="43.5974" lon="6.94133">
        <ele>79</ele>
        <time>2011-10-16T08:39:56Z</time>
      </trkpt>
      <trkpt lat="43.59744" lon="6.9414">
        <ele>81</ele>
        <time>2011-10-16T08:40:01Z</time>
      </trkpt>
      <trkpt lat="43.59748" lon="6.94146">
        <ele>82</ele>
        <time>2011-10-16T08:40:06Z</time>
      </trkpt>
      <trkpt lat="43.59749" lon="6.94154">
        <ele>83</ele>
        <time>2011-10-16T08:40:11Z</time>
      </trkpt>
      <trkpt lat="43.59752" lon="6.9416">
        <ele>85</ele>
        <time>2011-10-16T08:40:16Z</time>
      </trkpt>
      <trkpt lat="43.59755" lon="6.94168">
        <ele>87</ele>
        <time>2011-10-16T08:40:22Z</time>
      </trkpt>
      <trkpt lat="43.59759" lon="6.94175">
        <ele>89</ele>
        <time>2011-10-16T08:40:28Z</time>
      </trkpt>
      <trkpt lat="43.59764" lon="6.94181">
        <ele>91</ele>
        <time>2011-10-16T08:40:34Z</time>
      </trkpt>
      <trkpt lat="43.59769" lon="6.94185">
        <ele>92</ele>
        <time>2011-10-16T08:40:40Z</time>
      </trkpt>
      <trkpt lat="43.59773" lon="6.94192">
        <ele>93</ele>
        <time>2011-10-16T08:40:45Z</time>
      </trkpt>
      <trkpt lat="43.59778" lon="6.94197">
        <ele>94</ele>
        <time>2011-10-16T08:40:50Z</time>
      </trkpt>
      <trkpt lat="43.59784" lon="6.942">
        <ele>95</ele>
        <time>2011-10-16T08:40:55Z</time>
      </trkpt>
      <trkpt lat="43.59789" lon="6.94199">
        <ele>96</ele>
        <time>2011-10-16T08:41:00Z</time>
      </trkpt>
      <trkpt lat="43.59795" lon="6.94193">
        <ele>98</ele>
        <time>2011-10-16T08:41:06Z</time>
      </trkpt>
      <trkpt lat="43.59798" lon="6.9419">
        <ele>98</ele>
        <time>2011-10-16T08:41:11Z</time>
      </trkpt>
      <trkpt lat="43.59803" lon="6.94184">
        <ele>98</ele>
        <time>2011-10-16T08:41:17Z</time>
      </trkpt>
      <trkpt lat="43.59808" lon="6.94183">
        <ele>100</ele>
        <time>2011-10-16T08:41:23Z</time>
      </trkpt>
      <trkpt lat="43.59814" lon="6.94181">
        <ele>106</ele>
        <time>2011-10-16T08:41:35Z</time>
      </trkpt>
      <trkpt lat="43.59818" lon="6.94179">
        <ele>107</ele>
        <time>2011-10-16T08:41:41Z</time>
      </trkpt>
      <trkpt lat="43.59818" lon="6.94179">
        <ele>109</ele>
        <time>2011-10-16T08:41:47Z</time>
      </trkpt>
      <trkpt lat="43.59817" lon="6.94177">
        <ele>111</ele>
        <time>2011-10-16T08:41:55Z</time>
      </trkpt>
      <trkpt lat="43.59818" lon="6.94176">
        <ele>111</ele>
        <time>2011-10-16T08:42:03Z</time>
      </trkpt>
      <trkpt lat="43.59819" lon="6.94174">
        <ele>111</ele>
        <time>2011-10-16T08:42:16Z</time>
      </trkpt>
      <trkpt lat="43.5982" lon="6.94178">
        <ele>111</ele>
        <time>2011-10-16T08:42:24Z</time>
      </trkpt>
      <trkpt lat="43.59824" lon="6.94181">
        <ele>111</ele>
        <time>2011-10-16T08:42:29Z</time>
      </trkpt>
      <trkpt lat="43.5983" lon="6.94183">
        <ele>111</ele>
        <time>2011-10-16T08:42:34Z</time>
      </trkpt>
      <trkpt lat="43.59837" lon="6.94184">
        <ele>111</ele>
        <time>2011-10-16T08:42:39Z</time>
      </trkpt>
      <trkpt lat="43.59844" lon="6.94187">
        <ele>111</ele>
        <time>2011-10-16T08:42:44Z</time>
      </trkpt>
      <trkpt lat="43.59851" lon="6.9419">
        <ele>111</ele>
        <time>2011-10-16T08:42:49Z</time>
      </trkpt>
      <trkpt lat="43.59857" lon="6.94198">
        <ele>111</ele>
        <time>2011-10-16T08:42:55Z</time>
      </trkpt>
      <trkpt lat="43.5986" lon="6.94206">
        <ele>111</ele>
        <time>2011-10-16T08:43:00Z</time>
      </trkpt>
      <trkpt lat="43.59861" lon="6.94213">
        <ele>111</ele>
        <time>2011-10-16T08:43:05Z</time>
      </trkpt>
      <trkpt lat="43.59861" lon="6.94221">
        <ele>112</ele>
        <time>2011-10-16T08:43:10Z</time>
      </trkpt>
      <trkpt lat="43.59861" lon="6.9423">
        <ele>114</ele>
        <time>2011-10-16T08:43:16Z</time>
      </trkpt>
      <trkpt lat="43.59863" lon="6.9424">
        <ele>115</ele>
        <time>2011-10-16T08:43:21Z</time>
      </trkpt>
      <trkpt lat="43.59864" lon="6.94249">
        <ele>117</ele>
        <time>2011-10-16T08:43:26Z</time>
      </trkpt>
      <trkpt lat="43.59866" lon="6.94258">
        <ele>118</ele>
        <time>2011-10-16T08:43:31Z</time>
      </trkpt>
      <trkpt lat="43.59871" lon="6.94267">
        <ele>118</ele>
        <time>2011-10-16T08:43:36Z</time>
      </trkpt>
      <trkpt lat="43.59874" lon="6.94276">
        <ele>119</ele>
        <time>2011-10-16T08:43:41Z</time>
      </trkpt>
      <trkpt lat="43.5988" lon="6.94284">
        <ele>120</ele>
        <time>2011-10-16T08:43:46Z</time>
      </trkpt>
      <trkpt lat="43.59884" lon="6.94293">
        <ele>121</ele>
        <time>2011-10-16T08:43:51Z</time>
      </trkpt>
      <trkpt lat="43.59888" lon="6.94301">
        <ele>122</ele>
        <time>2011-10-16T08:43:56Z</time>
      </trkpt>
      <trkpt lat="43.59891" lon="6.9431">
        <ele>124</ele>
        <time>2011-10-16T08:44:01Z</time>
      </trkpt>
      <trkpt lat="43.59894" lon="6.94317">
        <ele>125</ele>
        <time>2011-10-16T08:44:06Z</time>
      </trkpt>
      <trkpt lat="43.59899" lon="6.94328">
        <ele>127</ele>
        <time>2011-10-16T08:44:11Z</time>
      </trkpt>
      <trkpt lat="43.59903" lon="6.94337">
        <ele>128</ele>
        <time>2011-10-16T08:44:16Z</time>
      </trkpt>
      <trkpt lat="43.59905" lon="6.94348">
        <ele>130</ele>
        <time>2011-10-16T08:44:21Z</time>
      </trkpt>
      <trkpt lat="43.59907" lon="6.94357">
        <ele>131</ele>
        <time>2011-10-16T08:44:26Z</time>
      </trkpt>
      <trkpt lat="43.59908" lon="6.94367">
        <ele>133</ele>
        <time>2011-10-16T08:44:31Z</time>
      </trkpt>
      <trkpt lat="43.59909" lon="6.94378">
        <ele>134</ele>
        <time>2011-10-16T08:44:36Z</time>
      </trkpt>
      <trkpt lat="43.59912" lon="6.94389">
        <ele>135</ele>
        <time>2011-10-16T08:44:41Z</time>
      </trkpt>
      <trkpt lat="43.59916" lon="6.944">
        <ele>135</ele>
        <time>2011-10-16T08:44:46Z</time>
      </trkpt>
      <trkpt lat="43.59919" lon="6.9441">
        <ele>136</ele>
        <time>2011-10-16T08:44:51Z</time>
      </trkpt>
      <trkpt lat="43.59922" lon="6.9442">
        <ele>137</ele>
        <time>2011-10-16T08:44:56Z</time>
      </trkpt>
      <trkpt lat="43.59926" lon="6.94432">
        <ele>138</ele>
        <time>2011-10-16T08:45:01Z</time>
      </trkpt>
      <trkpt lat="43.59928" lon="6.94443">
        <ele>139</ele>
        <time>2011-10-16T08:45:06Z</time>
      </trkpt>
      <trkpt lat="43.5993" lon="6.94454">
        <ele>141</ele>
        <time>2011-10-16T08:45:11Z</time>
      </trkpt>
      <trkpt lat="43.59935" lon="6.94468">
        <ele>142</ele>
        <time>2011-10-16T08:45:16Z</time>
      </trkpt>
      <trkpt lat="43.59941" lon="6.94494">
        <ele>142</ele>
        <time>2011-10-16T08:45:21Z</time>
      </trkpt>
      <trkpt lat="43.59949" lon="6.94521">
        <ele>142</ele>
        <time>2011-10-16T08:45:26Z</time>
      </trkpt>
      <trkpt lat="43.59956" lon="6.94549">
        <ele>142</ele>
        <time>2011-10-16T08:45:31Z</time>
      </trkpt>
      <trkpt lat="43.59964" lon="6.94582">
        <ele>142</ele>
        <time>2011-10-16T08:45:36Z</time>
      </trkpt>
      <trkpt lat="43.59969" lon="6.94619">
        <ele>142</ele>
        <time>2011-10-16T08:45:41Z</time>
      </trkpt>
      <trkpt lat="43.59975" lon="6.94651">
        <ele>140</ele>
        <time>2011-10-16T08:45:46Z</time>
      </trkpt>
      <trkpt lat="43.59985" lon="6.94685">
        <ele>140</ele>
        <time>2011-10-16T08:45:51Z</time>
      </trkpt>
      <trkpt lat="43.59994" lon="6.94717">
        <ele>140</ele>
        <time>2011-10-16T08:45:56Z</time>
      </trkpt>
      <trkpt lat="43.60004" lon="6.94746">
        <ele>140</ele>
        <time>2011-10-16T08:46:01Z</time>
      </trkpt>
      <trkpt lat="43.60012" lon="6.94775">
        <ele>140</ele>
        <time>2011-10-16T08:46:06Z</time>
      </trkpt>
      <trkpt lat="43.60016" lon="6.94807">
        <ele>140</ele>
        <time>2011-10-16T08:46:11Z</time>
      </trkpt>
      <trkpt lat="43.60015" lon="6.94841">
        <ele>139</ele>
        <time>2011-10-16T08:46:16Z</time>
      </trkpt>
      <trkpt lat="43.60018" lon="6.94868">
        <ele>139</ele>
        <time>2011-10-16T08:46:21Z</time>
      </trkpt>
      <trkpt lat="43.60009" lon="6.94878">
        <ele>139</ele>
        <time>2011-10-16T08:46:27Z</time>
      </trkpt>
      <trkpt lat="43.60009" lon="6.94881">
        <ele>139</ele>
        <time>2011-10-16T08:46:32Z</time>
      </trkpt>
      <trkpt lat="43.60006" lon="6.94894">
        <ele>139</ele>
        <time>2011-10-16T08:46:37Z</time>
      </trkpt>
      <trkpt lat="43.6" lon="6.94912">
        <ele>139</ele>
        <time>2011-10-16T08:46:42Z</time>
      </trkpt>
      <trkpt lat="43.59994" lon="6.94934">
        <ele>139</ele>
        <time>2011-10-16T08:46:47Z</time>
      </trkpt>
      <trkpt lat="43.59987" lon="6.94957">
        <ele>139</ele>
        <time>2011-10-16T08:46:52Z</time>
      </trkpt>
      <trkpt lat="43.5998" lon="6.94981">
        <ele>139</ele>
        <time>2011-10-16T08:46:57Z</time>
      </trkpt>
      <trkpt lat="43.59972" lon="6.95003">
        <ele>139</ele>
        <time>2011-10-16T08:47:02Z</time>
      </trkpt>
      <trkpt lat="43.59967" lon="6.95024">
        <ele>139</ele>
        <time>2011-10-16T08:47:07Z</time>
      </trkpt>
      <trkpt lat="43.59959" lon="6.95048">
        <ele>139</ele>
        <time>2011-10-16T08:47:12Z</time>
      </trkpt>
      <trkpt lat="43.59952" lon="6.95072">
        <ele>139</ele>
        <time>2011-10-16T08:47:17Z</time>
      </trkpt>
      <trkpt lat="43.59945" lon="6.95095">
        <ele>139</ele>
        <time>2011-10-16T08:47:22Z</time>
      </trkpt>
      <trkpt lat="43.59939" lon="6.95117">
        <ele>140</ele>
        <time>2011-10-16T08:47:27Z</time>
      </trkpt>
      <trkpt lat="43.59932" lon="6.9514">
        <ele>141</ele>
        <time>2011-10-16T08:47:32Z</time>
      </trkpt>
      <trkpt lat="43.59926" lon="6.95162">
        <ele>142</ele>
        <time>2011-10-16T08:47:37Z</time>
      </trkpt>
      <trkpt lat="43.59919" lon="6.95181">
        <ele>143</ele>
        <time>2011-10-16T08:47:42Z</time>
      </trkpt>
      <trkpt lat="43.59914" lon="6.95201">
        <ele>144</ele>
        <time>2011-10-16T08:47:47Z</time>
      </trkpt>
      <trkpt lat="43.59906" lon="6.95223">
        <ele>144</ele>
        <time>2011-10-16T08:47:52Z</time>
      </trkpt>
      <trkpt lat="43.59903" lon="6.95243">
        <ele>145</ele>
        <time>2011-10-16T08:47:57Z</time>
      </trkpt>
      <trkpt lat="43.59912" lon="6.95265">
        <ele>145</ele>
        <time>2011-10-16T08:48:02Z</time>
      </trkpt>
      <trkpt lat="43.59919" lon="6.95287">
        <ele>145</ele>
        <time>2011-10-16T08:48:07Z</time>
      </trkpt>
      <trkpt lat="43.59927" lon="6.95307">
        <ele>145</ele>
        <time>2011-10-16T08:48:12Z</time>
      </trkpt>
      <trkpt lat="43.59933" lon="6.95327">
        <ele>145</ele>
        <time>2011-10-16T08:48:17Z</time>
      </trkpt>
      <trkpt lat="43.59935" lon="6.95346">
        <ele>146</ele>
        <time>2011-10-16T08:48:22Z</time>
      </trkpt>
      <trkpt lat="43.5994" lon="6.95367">
        <ele>147</ele>
        <time>2011-10-16T08:48:27Z</time>
      </trkpt>
      <trkpt lat="43.59931" lon="6.95387">
        <ele>148</ele>
        <time>2011-10-16T08:48:32Z</time>
      </trkpt>
      <trkpt lat="43.59921" lon="6.95407">
        <ele>150</ele>
        <time>2011-10-16T08:48:37Z</time>
      </trkpt>
      <trkpt lat="43.59907" lon="6.9542">
        <ele>150</ele>
        <time>2011-10-16T08:48:42Z</time>
      </trkpt>
      <trkpt lat="43.59888" lon="6.95423">
        <ele>150</ele>
        <time>2011-10-16T08:48:47Z</time>
      </trkpt>
      <trkpt lat="43.59867" lon="6.95426">
        <ele>150</ele>
        <time>2011-10-16T08:48:52Z</time>
      </trkpt>
      <trkpt lat="43.59843" lon="6.9543">
        <ele>150</ele>
        <time>2011-10-16T08:48:57Z</time>
      </trkpt>
      <trkpt lat="43.59811" lon="6.95441">
        <ele>150</ele>
        <time>2011-10-16T08:49:02Z</time>
      </trkpt>
      <trkpt lat="43.59778" lon="6.95447">
        <ele>150</ele>
        <time>2011-10-16T08:49:07Z</time>
      </trkpt>
      <trkpt lat="43.59769" lon="6.95446">
        <ele>150</ele>
        <time>2011-10-16T08:49:12Z</time>
      </trkpt>
      <trkpt lat="43.59753" lon="6.9545">
        <ele>150</ele>
        <time>2011-10-16T08:49:17Z</time>
      </trkpt>
      <trkpt lat="43.59734" lon="6.9545">
        <ele>150</ele>
        <time>2011-10-16T08:49:22Z</time>
      </trkpt>
      <trkpt lat="43.59716" lon="6.95453">
        <ele>150</ele>
        <time>2011-10-16T08:49:27Z</time>
      </trkpt>
      <trkpt lat="43.59696" lon="6.95469">
        <ele>149</ele>
        <time>2011-10-16T08:49:32Z</time>
      </trkpt>
      <trkpt lat="43.59679" lon="6.95502">
        <ele>148</ele>
        <time>2011-10-16T08:49:37Z</time>
      </trkpt>
      <trkpt lat="43.59648" lon="6.95541">
        <ele>144</ele>
        <time>2011-10-16T08:49:42Z</time>
      </trkpt>
      <trkpt lat="43.59617" lon="6.95592">
        <ele>140</ele>
        <time>2011-10-16T08:49:47Z</time>
      </trkpt>
      <trkpt lat="43.59578" lon="6.95613">
        <ele>139</ele>
        <time>2011-10-16T08:49:52Z</time>
      </trkpt>
      <trkpt lat="43.59542" lon="6.95627">
        <ele>138</ele>
        <time>2011-10-16T08:49:57Z</time>
      </trkpt>
      <trkpt lat="43.59505" lon="6.95637">
        <ele>137</ele>
        <time>2011-10-16T08:50:02Z</time>
      </trkpt>
      <trkpt lat="43.59484" lon="6.95598">
        <ele>136</ele>
        <time>2011-10-16T08:50:07Z</time>
      </trkpt>
      <trkpt lat="43.59456" lon="6.95559">
        <ele>132</ele>
        <time>2011-10-16T08:50:12Z</time>
      </trkpt>
      <trkpt lat="43.59419" lon="6.95547">
        <ele>129</ele>
        <time>2011-10-16T08:50:17Z</time>
      </trkpt>
      <trkpt lat="43.59399" lon="6.95545">
        <ele>128</ele>
        <time>2011-10-16T08:50:22Z</time>
      </trkpt>
      <trkpt lat="43.59396" lon="6.9555">
        <ele>127</ele>
        <time>2011-10-16T08:50:28Z</time>
      </trkpt>
    </trkseg>
  </trk>
</gpx>